<?xml version="1.0" encoding="UTF-8" standalone="no" ?>
<gpx xmlns="http://www.topografix.com/GPX/1/1" xmlns:xsi="http://www.w3.org/2001/XMLSchema-instance" xsi:schemaLocation="http://www.topografix.com/GPX/1/1 http://www.topografix.com/GPX/1/1/gpx.xsd" version="1.1" creator="VisuGPX - https://www.visugpx.com">
  <metadata>
    <name>Montigny - Denecourt-11</name>
    <desc><![CDATA[Randonnée de 18 km en boucle à partir de la gare de Montigny-sur-Loing]]></desc>
  </metadata>
  <trk>
    <name><![CDATA[Montigny - Denecourt-11_R]]></name>
    <trkseg>
      <trkpt lat="48.33686" lon="2.73903">
        <ele>69.95</ele>
        <time>2021-06-20T07:26:16Z</time>
      </trkpt>
      <trkpt lat="48.33692" lon="2.73906">
        <ele>70.38</ele>
        <time>2021-06-20T07:26:30Z</time>
      </trkpt>
      <trkpt lat="48.33693" lon="2.73905">
        <ele>73.55</ele>
        <time>2021-06-20T07:26:47Z</time>
      </trkpt>
      <trkpt lat="48.33696" lon="2.73911">
        <ele>73.9</ele>
        <time>2021-06-20T07:26:55Z</time>
      </trkpt>
      <trkpt lat="48.33699" lon="2.73927">
        <ele>73.43</ele>
        <time>2021-06-20T07:27:10Z</time>
      </trkpt>
      <trkpt lat="48.33697" lon="2.73941">
        <ele>73.33</ele>
        <time>2021-06-20T07:27:23Z</time>
      </trkpt>
      <trkpt lat="48.33697" lon="2.73965">
        <ele>72.39</ele>
        <time>2021-06-20T07:27:40Z</time>
      </trkpt>
      <trkpt lat="48.33695" lon="2.7399">
        <ele>71.9</ele>
        <time>2021-06-20T07:27:56Z</time>
      </trkpt>
      <trkpt lat="48.33694" lon="2.74008">
        <ele>71.38</ele>
        <time>2021-06-20T07:28:07Z</time>
      </trkpt>
      <trkpt lat="48.33695" lon="2.74018">
        <ele>71.01</ele>
        <time>2021-06-20T07:28:13Z</time>
      </trkpt>
      <trkpt lat="48.33694" lon="2.74024">
        <ele>70.41</ele>
        <time>2021-06-20T07:28:17Z</time>
      </trkpt>
      <trkpt lat="48.33695" lon="2.74029">
        <ele>70.79</ele>
        <time>2021-06-20T07:28:20Z</time>
      </trkpt>
      <trkpt lat="48.33692" lon="2.74046">
        <ele>70.06</ele>
        <time>2021-06-20T07:28:32Z</time>
      </trkpt>
      <trkpt lat="48.33692" lon="2.74049">
        <ele>70.38</ele>
        <time>2021-06-20T07:28:34Z</time>
      </trkpt>
      <trkpt lat="48.33688" lon="2.74071">
        <ele>69.75</ele>
        <time>2021-06-20T07:28:46Z</time>
      </trkpt>
      <trkpt lat="48.33686" lon="2.74074">
        <ele>69.54</ele>
        <time>2021-06-20T07:28:48Z</time>
      </trkpt>
      <trkpt lat="48.33684" lon="2.74094">
        <ele>68.99</ele>
        <time>2021-06-20T07:29:01Z</time>
      </trkpt>
      <trkpt lat="48.33683" lon="2.74104">
        <ele>68.88</ele>
        <time>2021-06-20T07:29:06Z</time>
      </trkpt>
      <trkpt lat="48.33681" lon="2.74112">
        <ele>68.39</ele>
        <time>2021-06-20T07:29:11Z</time>
      </trkpt>
      <trkpt lat="48.33681" lon="2.74129">
        <ele>68.08</ele>
        <time>2021-06-20T07:29:21Z</time>
      </trkpt>
      <trkpt lat="48.3368" lon="2.74132">
        <ele>68</ele>
        <time>2021-06-20T07:29:23Z</time>
      </trkpt>
      <trkpt lat="48.33681" lon="2.74139">
        <ele>67.09</ele>
        <time>2021-06-20T07:29:27Z</time>
      </trkpt>
      <trkpt lat="48.33681" lon="2.74143">
        <ele>67.53</ele>
        <time>2021-06-20T07:29:30Z</time>
      </trkpt>
      <trkpt lat="48.33678" lon="2.74151">
        <ele>67.26</ele>
        <time>2021-06-20T07:29:35Z</time>
      </trkpt>
      <trkpt lat="48.3368" lon="2.7416">
        <ele>66.61</ele>
        <time>2021-06-20T07:29:41Z</time>
      </trkpt>
      <trkpt lat="48.33675" lon="2.74183">
        <ele>65.19</ele>
        <time>2021-06-20T07:29:55Z</time>
      </trkpt>
      <trkpt lat="48.33674" lon="2.74194">
        <ele>66.07</ele>
        <time>2021-06-20T07:30:10Z</time>
      </trkpt>
      <trkpt lat="48.33677" lon="2.74197">
        <ele>65.65</ele>
        <time>2021-06-20T07:30:34Z</time>
      </trkpt>
      <trkpt lat="48.33676" lon="2.74199">
        <ele>65.77</ele>
        <time>2021-06-20T07:30:57Z</time>
      </trkpt>
      <trkpt lat="48.33675" lon="2.74202">
        <ele>65.34</ele>
        <time>2021-06-20T07:31:23Z</time>
      </trkpt>
      <trkpt lat="48.33677" lon="2.74204">
        <ele>65.22</ele>
        <time>2021-06-20T07:31:50Z</time>
      </trkpt>
      <trkpt lat="48.3368" lon="2.74225">
        <ele>64.79</ele>
        <time>2021-06-20T07:32:10Z</time>
      </trkpt>
      <trkpt lat="48.3368" lon="2.74226">
        <ele>64.57</ele>
        <time>2021-06-20T07:32:11Z</time>
      </trkpt>
      <trkpt lat="48.33679" lon="2.74247">
        <ele>64.1</ele>
        <time>2021-06-20T07:32:26Z</time>
      </trkpt>
      <trkpt lat="48.33674" lon="2.74262">
        <ele>63.28</ele>
        <time>2021-06-20T07:32:41Z</time>
      </trkpt>
      <trkpt lat="48.33669" lon="2.74289">
        <ele>60.04</ele>
        <time>2021-06-20T07:33:00Z</time>
      </trkpt>
      <trkpt lat="48.33668" lon="2.74307">
        <ele>59.01</ele>
        <time>2021-06-20T07:33:16Z</time>
      </trkpt>
      <trkpt lat="48.33673" lon="2.74307">
        <ele>59.7</ele>
        <time>2021-06-20T07:33:20Z</time>
      </trkpt>
      <trkpt lat="48.3368" lon="2.74307">
        <ele>60.78</ele>
        <time>2021-06-20T07:33:26Z</time>
      </trkpt>
      <trkpt lat="48.33684" lon="2.74308">
        <ele>60.92</ele>
        <time>2021-06-20T07:33:29Z</time>
      </trkpt>
      <trkpt lat="48.33702" lon="2.74319">
        <ele>61.85</ele>
        <time>2021-06-20T07:33:45Z</time>
      </trkpt>
      <trkpt lat="48.33718" lon="2.74322">
        <ele>63.41</ele>
        <time>2021-06-20T07:34:01Z</time>
      </trkpt>
      <trkpt lat="48.33726" lon="2.74323">
        <ele>64.13</ele>
        <time>2021-06-20T07:34:08Z</time>
      </trkpt>
      <trkpt lat="48.33733" lon="2.74323">
        <ele>64.26</ele>
        <time>2021-06-20T07:34:13Z</time>
      </trkpt>
      <trkpt lat="48.33751" lon="2.74326">
        <ele>65.33</ele>
        <time>2021-06-20T07:34:26Z</time>
      </trkpt>
      <trkpt lat="48.33776" lon="2.74328">
        <ele>66.12</ele>
        <time>2021-06-20T07:34:46Z</time>
      </trkpt>
      <trkpt lat="48.33783" lon="2.74328">
        <ele>66.71</ele>
        <time>2021-06-20T07:34:57Z</time>
      </trkpt>
      <trkpt lat="48.33791" lon="2.7433">
        <ele>67.09</ele>
        <time>2021-06-20T07:35:12Z</time>
      </trkpt>
      <trkpt lat="48.33796" lon="2.74332">
        <ele>67.94</ele>
        <time>2021-06-20T07:35:23Z</time>
      </trkpt>
      <trkpt lat="48.33805" lon="2.74333">
        <ele>68.1</ele>
        <time>2021-06-20T07:35:38Z</time>
      </trkpt>
      <trkpt lat="48.33813" lon="2.7433">
        <ele>68.78</ele>
        <time>2021-06-20T07:35:48Z</time>
      </trkpt>
      <trkpt lat="48.33829" lon="2.74333">
        <ele>69.49</ele>
        <time>2021-06-20T07:36:02Z</time>
      </trkpt>
      <trkpt lat="48.33847" lon="2.74333">
        <ele>70.55</ele>
        <time>2021-06-20T07:36:17Z</time>
      </trkpt>
      <trkpt lat="48.33863" lon="2.74334">
        <ele>71.22</ele>
        <time>2021-06-20T07:36:29Z</time>
      </trkpt>
      <trkpt lat="48.33877" lon="2.74329">
        <ele>72.01</ele>
        <time>2021-06-20T07:36:41Z</time>
      </trkpt>
      <trkpt lat="48.33878" lon="2.74327">
        <ele>71.85</ele>
        <time>2021-06-20T07:36:57Z</time>
      </trkpt>
      <trkpt lat="48.33878" lon="2.74329">
        <ele>71.76</ele>
        <time>2021-06-20T07:37:11Z</time>
      </trkpt>
      <trkpt lat="48.33875" lon="2.74333">
        <ele>71.59</ele>
        <time>2021-06-20T07:37:16Z</time>
      </trkpt>
      <trkpt lat="48.33876" lon="2.74349">
        <ele>70.15</ele>
        <time>2021-06-20T07:37:30Z</time>
      </trkpt>
      <trkpt lat="48.33876" lon="2.7435">
        <ele>70.12</ele>
        <time>2021-06-20T07:37:32Z</time>
      </trkpt>
      <trkpt lat="48.33872" lon="2.7437">
        <ele>68.84</ele>
        <time>2021-06-20T07:37:48Z</time>
      </trkpt>
      <trkpt lat="48.33874" lon="2.74379">
        <ele>68.13</ele>
        <time>2021-06-20T07:37:57Z</time>
      </trkpt>
      <trkpt lat="48.33874" lon="2.74382">
        <ele>67.67</ele>
        <time>2021-06-20T07:37:59Z</time>
      </trkpt>
      <trkpt lat="48.33875" lon="2.74396">
        <ele>66.65</ele>
        <time>2021-06-20T07:38:08Z</time>
      </trkpt>
      <trkpt lat="48.33873" lon="2.74415">
        <ele>65.59</ele>
        <time>2021-06-20T07:38:21Z</time>
      </trkpt>
      <trkpt lat="48.33873" lon="2.7442">
        <ele>65.63</ele>
        <time>2021-06-20T07:38:24Z</time>
      </trkpt>
      <trkpt lat="48.33876" lon="2.74438">
        <ele>64.21</ele>
        <time>2021-06-20T07:38:36Z</time>
      </trkpt>
      <trkpt lat="48.33875" lon="2.74463">
        <ele>64.53</ele>
        <time>2021-06-20T07:38:53Z</time>
      </trkpt>
      <trkpt lat="48.33877" lon="2.74467">
        <ele>64.97</ele>
        <time>2021-06-20T07:38:57Z</time>
      </trkpt>
      <trkpt lat="48.33885" lon="2.74472">
        <ele>64.78</ele>
        <time>2021-06-20T07:39:12Z</time>
      </trkpt>
      <trkpt lat="48.33888" lon="2.74471">
        <ele>64.82</ele>
        <time>2021-06-20T07:39:15Z</time>
      </trkpt>
      <trkpt lat="48.33906" lon="2.74465">
        <ele>65.7</ele>
        <time>2021-06-20T07:39:35Z</time>
      </trkpt>
      <trkpt lat="48.33927" lon="2.74457">
        <ele>66.51</ele>
        <time>2021-06-20T07:39:55Z</time>
      </trkpt>
      <trkpt lat="48.33949" lon="2.74451">
        <ele>67.91</ele>
        <time>2021-06-20T07:40:16Z</time>
      </trkpt>
      <trkpt lat="48.33968" lon="2.74443">
        <ele>68.11</ele>
        <time>2021-06-20T07:40:36Z</time>
      </trkpt>
      <trkpt lat="48.33991" lon="2.74436">
        <ele>69.6</ele>
        <time>2021-06-20T07:40:56Z</time>
      </trkpt>
      <trkpt lat="48.34015" lon="2.74431">
        <ele>71.24</ele>
        <time>2021-06-20T07:41:18Z</time>
      </trkpt>
      <trkpt lat="48.34032" lon="2.74433">
        <ele>71.78</ele>
        <time>2021-06-20T07:41:35Z</time>
      </trkpt>
      <trkpt lat="48.34051" lon="2.74436">
        <ele>72.59</ele>
        <time>2021-06-20T07:41:52Z</time>
      </trkpt>
      <trkpt lat="48.34073" lon="2.7443">
        <ele>73.74</ele>
        <time>2021-06-20T07:42:07Z</time>
      </trkpt>
      <trkpt lat="48.34076" lon="2.74431">
        <ele>73.58</ele>
        <time>2021-06-20T07:42:09Z</time>
      </trkpt>
      <trkpt lat="48.34103" lon="2.7444">
        <ele>75.34</ele>
        <time>2021-06-20T07:42:30Z</time>
      </trkpt>
      <trkpt lat="48.34117" lon="2.74449">
        <ele>76.31</ele>
        <time>2021-06-20T07:42:45Z</time>
      </trkpt>
      <trkpt lat="48.34133" lon="2.74445">
        <ele>76.84</ele>
        <time>2021-06-20T07:43:06Z</time>
      </trkpt>
      <trkpt lat="48.34134" lon="2.74445">
        <ele>77.14</ele>
        <time>2021-06-20T07:43:07Z</time>
      </trkpt>
      <trkpt lat="48.34164" lon="2.74442">
        <ele>78.74</ele>
        <time>2021-06-20T07:43:30Z</time>
      </trkpt>
      <trkpt lat="48.34185" lon="2.7444">
        <ele>78.86</ele>
        <time>2021-06-20T07:43:47Z</time>
      </trkpt>
      <trkpt lat="48.34203" lon="2.74441">
        <ele>79.22</ele>
        <time>2021-06-20T07:44:01Z</time>
      </trkpt>
      <trkpt lat="48.34215" lon="2.7444">
        <ele>79.53</ele>
        <time>2021-06-20T07:44:11Z</time>
      </trkpt>
      <trkpt lat="48.34224" lon="2.7444">
        <ele>79.93</ele>
        <time>2021-06-20T07:44:28Z</time>
      </trkpt>
      <trkpt lat="48.34227" lon="2.7444">
        <ele>79.73</ele>
        <time>2021-06-20T07:44:31Z</time>
      </trkpt>
      <trkpt lat="48.34233" lon="2.7444">
        <ele>80.19</ele>
        <time>2021-06-20T07:44:36Z</time>
      </trkpt>
      <trkpt lat="48.34243" lon="2.74436">
        <ele>80.21</ele>
        <time>2021-06-20T07:44:47Z</time>
      </trkpt>
      <trkpt lat="48.34246" lon="2.74437">
        <ele>80.61</ele>
        <time>2021-06-20T07:44:49Z</time>
      </trkpt>
      <trkpt lat="48.34251" lon="2.74437">
        <ele>80.71</ele>
        <time>2021-06-20T07:44:53Z</time>
      </trkpt>
      <trkpt lat="48.34261" lon="2.74436">
        <ele>80.96</ele>
        <time>2021-06-20T07:45:01Z</time>
      </trkpt>
      <trkpt lat="48.34267" lon="2.74436">
        <ele>80.95</ele>
        <time>2021-06-20T07:45:07Z</time>
      </trkpt>
      <trkpt lat="48.34279" lon="2.74433">
        <ele>81.01</ele>
        <time>2021-06-20T07:45:20Z</time>
      </trkpt>
      <trkpt lat="48.34283" lon="2.74434">
        <ele>82.05</ele>
        <time>2021-06-20T07:45:40Z</time>
      </trkpt>
      <trkpt lat="48.34286" lon="2.74439">
        <ele>82.18</ele>
        <time>2021-06-20T07:46:05Z</time>
      </trkpt>
      <trkpt lat="48.34298" lon="2.7443">
        <ele>82.86</ele>
        <time>2021-06-20T07:46:22Z</time>
      </trkpt>
      <trkpt lat="48.34301" lon="2.74429">
        <ele>82.96</ele>
        <time>2021-06-20T07:46:25Z</time>
      </trkpt>
      <trkpt lat="48.34317" lon="2.74421">
        <ele>83.81</ele>
        <time>2021-06-20T07:46:41Z</time>
      </trkpt>
      <trkpt lat="48.34321" lon="2.7442">
        <ele>83.69</ele>
        <time>2021-06-20T07:46:45Z</time>
      </trkpt>
      <trkpt lat="48.34338" lon="2.74411">
        <ele>84.09</ele>
        <time>2021-06-20T07:47:01Z</time>
      </trkpt>
      <trkpt lat="48.34341" lon="2.74408">
        <ele>84.11</ele>
        <time>2021-06-20T07:47:04Z</time>
      </trkpt>
      <trkpt lat="48.3435" lon="2.74399">
        <ele>84.45</ele>
        <time>2021-06-20T07:47:16Z</time>
      </trkpt>
      <trkpt lat="48.34364" lon="2.7439">
        <ele>85.61</ele>
        <time>2021-06-20T07:47:37Z</time>
      </trkpt>
      <trkpt lat="48.3437" lon="2.74387">
        <ele>85.6</ele>
        <time>2021-06-20T07:47:43Z</time>
      </trkpt>
      <trkpt lat="48.34379" lon="2.7438">
        <ele>86.31</ele>
        <time>2021-06-20T07:47:54Z</time>
      </trkpt>
      <trkpt lat="48.34392" lon="2.74369">
        <ele>87.38</ele>
        <time>2021-06-20T07:48:10Z</time>
      </trkpt>
      <trkpt lat="48.34401" lon="2.74359">
        <ele>88.38</ele>
        <time>2021-06-20T07:48:20Z</time>
      </trkpt>
      <trkpt lat="48.34415" lon="2.74335">
        <ele>90.17</ele>
        <time>2021-06-20T07:48:41Z</time>
      </trkpt>
      <trkpt lat="48.34427" lon="2.74318">
        <ele>91.89</ele>
        <time>2021-06-20T07:48:58Z</time>
      </trkpt>
      <trkpt lat="48.34438" lon="2.74292">
        <ele>93.87</ele>
        <time>2021-06-20T07:49:16Z</time>
      </trkpt>
      <trkpt lat="48.34446" lon="2.74272">
        <ele>95.18</ele>
        <time>2021-06-20T07:49:33Z</time>
      </trkpt>
      <trkpt lat="48.34459" lon="2.74249">
        <ele>96.32</ele>
        <time>2021-06-20T07:49:51Z</time>
      </trkpt>
      <trkpt lat="48.34474" lon="2.74224">
        <ele>97.43</ele>
        <time>2021-06-20T07:50:09Z</time>
      </trkpt>
      <trkpt lat="48.34486" lon="2.74208">
        <ele>99.31</ele>
        <time>2021-06-20T07:50:26Z</time>
      </trkpt>
      <trkpt lat="48.34493" lon="2.74185">
        <ele>100.59</ele>
        <time>2021-06-20T07:50:41Z</time>
      </trkpt>
      <trkpt lat="48.34498" lon="2.74178">
        <ele>101.11</ele>
        <time>2021-06-20T07:50:46Z</time>
      </trkpt>
      <trkpt lat="48.34508" lon="2.74158">
        <ele>102.67</ele>
        <time>2021-06-20T07:51:03Z</time>
      </trkpt>
      <trkpt lat="48.34516" lon="2.74143">
        <ele>105.04</ele>
        <time>2021-06-20T07:51:19Z</time>
      </trkpt>
      <trkpt lat="48.34524" lon="2.7412">
        <ele>106.53</ele>
        <time>2021-06-20T07:51:39Z</time>
      </trkpt>
      <trkpt lat="48.34532" lon="2.74108">
        <ele>109.46</ele>
        <time>2021-06-20T07:51:59Z</time>
      </trkpt>
      <trkpt lat="48.34539" lon="2.741">
        <ele>110.5</ele>
        <time>2021-06-20T07:52:08Z</time>
      </trkpt>
      <trkpt lat="48.34564" lon="2.74085">
        <ele>112.39</ele>
        <time>2021-06-20T07:52:30Z</time>
      </trkpt>
      <trkpt lat="48.34572" lon="2.74087">
        <ele>114.12</ele>
        <time>2021-06-20T07:52:47Z</time>
      </trkpt>
      <trkpt lat="48.34576" lon="2.74091">
        <ele>114.45</ele>
        <time>2021-06-20T07:53:07Z</time>
      </trkpt>
      <trkpt lat="48.34578" lon="2.74096">
        <ele>115.19</ele>
        <time>2021-06-20T07:53:21Z</time>
      </trkpt>
      <trkpt lat="48.34575" lon="2.74093">
        <ele>114.73</ele>
        <time>2021-06-20T07:53:37Z</time>
      </trkpt>
      <trkpt lat="48.34578" lon="2.74097">
        <ele>115.25</ele>
        <time>2021-06-20T07:54:04Z</time>
      </trkpt>
      <trkpt lat="48.34584" lon="2.74099">
        <ele>115.36</ele>
        <time>2021-06-20T07:54:30Z</time>
      </trkpt>
      <trkpt lat="48.34581" lon="2.74099">
        <ele>114.86</ele>
        <time>2021-06-20T07:54:52Z</time>
      </trkpt>
      <trkpt lat="48.3459" lon="2.74094">
        <ele>115.98</ele>
        <time>2021-06-20T07:55:09Z</time>
      </trkpt>
      <trkpt lat="48.34597" lon="2.74085">
        <ele>116.76</ele>
        <time>2021-06-20T07:55:21Z</time>
      </trkpt>
      <trkpt lat="48.34612" lon="2.74079">
        <ele>117.92</ele>
        <time>2021-06-20T07:55:38Z</time>
      </trkpt>
      <trkpt lat="48.34624" lon="2.74072">
        <ele>118.54</ele>
        <time>2021-06-20T07:55:56Z</time>
      </trkpt>
      <trkpt lat="48.34636" lon="2.74064">
        <ele>118.51</ele>
        <time>2021-06-20T07:56:09Z</time>
      </trkpt>
      <trkpt lat="48.34642" lon="2.74063">
        <ele>119.16</ele>
        <time>2021-06-20T07:56:14Z</time>
      </trkpt>
      <trkpt lat="48.34661" lon="2.74051">
        <ele>119.74</ele>
        <time>2021-06-20T07:56:33Z</time>
      </trkpt>
      <trkpt lat="48.34682" lon="2.74034">
        <ele>120.54</ele>
        <time>2021-06-20T07:56:55Z</time>
      </trkpt>
      <trkpt lat="48.34695" lon="2.74024">
        <ele>120.65</ele>
        <time>2021-06-20T07:57:10Z</time>
      </trkpt>
      <trkpt lat="48.34716" lon="2.74006">
        <ele>121.32</ele>
        <time>2021-06-20T07:57:32Z</time>
      </trkpt>
      <trkpt lat="48.34721" lon="2.74002">
        <ele>121.33</ele>
        <time>2021-06-20T07:57:35Z</time>
      </trkpt>
      <trkpt lat="48.34735" lon="2.73991">
        <ele>121.23</ele>
        <time>2021-06-20T07:57:51Z</time>
      </trkpt>
      <trkpt lat="48.34743" lon="2.73984">
        <ele>121.52</ele>
        <time>2021-06-20T07:58:00Z</time>
      </trkpt>
      <trkpt lat="48.34757" lon="2.73969">
        <ele>121.43</ele>
        <time>2021-06-20T07:58:16Z</time>
      </trkpt>
      <trkpt lat="48.34769" lon="2.73959">
        <ele>121.67</ele>
        <time>2021-06-20T07:58:31Z</time>
      </trkpt>
      <trkpt lat="48.3477" lon="2.73959">
        <ele>121.59</ele>
        <time>2021-06-20T07:58:32Z</time>
      </trkpt>
      <trkpt lat="48.34772" lon="2.73957">
        <ele>121.75</ele>
        <time>2021-06-20T07:58:35Z</time>
      </trkpt>
      <trkpt lat="48.34785" lon="2.73942">
        <ele>122.01</ele>
        <time>2021-06-20T07:58:51Z</time>
      </trkpt>
      <trkpt lat="48.34788" lon="2.73937">
        <ele>122.09</ele>
        <time>2021-06-20T07:58:55Z</time>
      </trkpt>
      <trkpt lat="48.34795" lon="2.73923">
        <ele>122.65</ele>
        <time>2021-06-20T07:59:07Z</time>
      </trkpt>
      <trkpt lat="48.34798" lon="2.73921">
        <ele>122.41</ele>
        <time>2021-06-20T07:59:09Z</time>
      </trkpt>
      <trkpt lat="48.34802" lon="2.73918">
        <ele>122.27</ele>
        <time>2021-06-20T07:59:12Z</time>
      </trkpt>
      <trkpt lat="48.3482" lon="2.73908">
        <ele>122.81</ele>
        <time>2021-06-20T07:59:28Z</time>
      </trkpt>
      <trkpt lat="48.34825" lon="2.73904">
        <ele>122.79</ele>
        <time>2021-06-20T07:59:34Z</time>
      </trkpt>
      <trkpt lat="48.34832" lon="2.739">
        <ele>122.9</ele>
        <time>2021-06-20T07:59:39Z</time>
      </trkpt>
      <trkpt lat="48.34839" lon="2.73891">
        <ele>123.09</ele>
        <time>2021-06-20T07:59:51Z</time>
      </trkpt>
      <trkpt lat="48.34839" lon="2.7389">
        <ele>122.98</ele>
        <time>2021-06-20T07:59:52Z</time>
      </trkpt>
      <trkpt lat="48.34842" lon="2.73886">
        <ele>122.96</ele>
        <time>2021-06-20T07:59:56Z</time>
      </trkpt>
      <trkpt lat="48.34857" lon="2.73873">
        <ele>123.35</ele>
        <time>2021-06-20T08:00:11Z</time>
      </trkpt>
      <trkpt lat="48.34884" lon="2.73849">
        <ele>123.31</ele>
        <time>2021-06-20T08:00:35Z</time>
      </trkpt>
      <trkpt lat="48.34898" lon="2.7384">
        <ele>123.35</ele>
        <time>2021-06-20T08:00:48Z</time>
      </trkpt>
      <trkpt lat="48.34911" lon="2.73833">
        <ele>123.45</ele>
        <time>2021-06-20T08:01:02Z</time>
      </trkpt>
      <trkpt lat="48.34942" lon="2.73815">
        <ele>123.51</ele>
        <time>2021-06-20T08:01:23Z</time>
      </trkpt>
      <trkpt lat="48.34956" lon="2.73803">
        <ele>123.12</ele>
        <time>2021-06-20T08:01:38Z</time>
      </trkpt>
      <trkpt lat="48.34969" lon="2.73792">
        <ele>123.21</ele>
        <time>2021-06-20T08:01:53Z</time>
      </trkpt>
      <trkpt lat="48.34993" lon="2.7377">
        <ele>122.04</ele>
        <time>2021-06-20T08:02:14Z</time>
      </trkpt>
      <trkpt lat="48.35014" lon="2.73747">
        <ele>121.51</ele>
        <time>2021-06-20T08:02:33Z</time>
      </trkpt>
      <trkpt lat="48.35034" lon="2.73725">
        <ele>119.11</ele>
        <time>2021-06-20T08:02:53Z</time>
      </trkpt>
      <trkpt lat="48.35045" lon="2.73707">
        <ele>117.53</ele>
        <time>2021-06-20T08:03:08Z</time>
      </trkpt>
      <trkpt lat="48.35055" lon="2.73678">
        <ele>115.14</ele>
        <time>2021-06-20T08:03:29Z</time>
      </trkpt>
      <trkpt lat="48.35054" lon="2.73669">
        <ele>115.37</ele>
        <time>2021-06-20T08:03:32Z</time>
      </trkpt>
      <trkpt lat="48.35061" lon="2.73651">
        <ele>115.17</ele>
        <time>2021-06-20T08:03:51Z</time>
      </trkpt>
      <trkpt lat="48.35065" lon="2.73644">
        <ele>114.73</ele>
        <time>2021-06-20T08:03:55Z</time>
      </trkpt>
      <trkpt lat="48.35073" lon="2.73626">
        <ele>113.01</ele>
        <time>2021-06-20T08:04:07Z</time>
      </trkpt>
      <trkpt lat="48.35078" lon="2.73603">
        <ele>109.99</ele>
        <time>2021-06-20T08:04:21Z</time>
      </trkpt>
      <trkpt lat="48.35078" lon="2.73602">
        <ele>110.41</ele>
        <time>2021-06-20T08:04:22Z</time>
      </trkpt>
      <trkpt lat="48.35077" lon="2.73595">
        <ele>109.97</ele>
        <time>2021-06-20T08:04:30Z</time>
      </trkpt>
      <trkpt lat="48.35086" lon="2.73576">
        <ele>107.95</ele>
        <time>2021-06-20T08:04:47Z</time>
      </trkpt>
      <trkpt lat="48.35091" lon="2.7355">
        <ele>105.58</ele>
        <time>2021-06-20T08:05:02Z</time>
      </trkpt>
      <trkpt lat="48.35094" lon="2.73537">
        <ele>104.8</ele>
        <time>2021-06-20T08:05:11Z</time>
      </trkpt>
      <trkpt lat="48.35098" lon="2.7351">
        <ele>102.92</ele>
        <time>2021-06-20T08:05:29Z</time>
      </trkpt>
      <trkpt lat="48.35101" lon="2.7349">
        <ele>102.56</ele>
        <time>2021-06-20T08:05:39Z</time>
      </trkpt>
      <trkpt lat="48.35102" lon="2.73469">
        <ele>101.31</ele>
        <time>2021-06-20T08:05:53Z</time>
      </trkpt>
      <trkpt lat="48.35106" lon="2.73447">
        <ele>100.51</ele>
        <time>2021-06-20T08:06:09Z</time>
      </trkpt>
      <trkpt lat="48.35107" lon="2.73426">
        <ele>100.58</ele>
        <time>2021-06-20T08:06:21Z</time>
      </trkpt>
      <trkpt lat="48.35106" lon="2.7341">
        <ele>99.01</ele>
        <time>2021-06-20T08:06:35Z</time>
      </trkpt>
      <trkpt lat="48.35108" lon="2.73406">
        <ele>99.35</ele>
        <time>2021-06-20T08:06:37Z</time>
      </trkpt>
      <trkpt lat="48.35109" lon="2.73397">
        <ele>99.34</ele>
        <time>2021-06-20T08:06:41Z</time>
      </trkpt>
      <trkpt lat="48.3511" lon="2.73391">
        <ele>99.33</ele>
        <time>2021-06-20T08:06:44Z</time>
      </trkpt>
      <trkpt lat="48.35109" lon="2.7338">
        <ele>98.13</ele>
        <time>2021-06-20T08:06:51Z</time>
      </trkpt>
      <trkpt lat="48.35112" lon="2.73369">
        <ele>98.57</ele>
        <time>2021-06-20T08:07:00Z</time>
      </trkpt>
      <trkpt lat="48.35113" lon="2.73358">
        <ele>97.71</ele>
        <time>2021-06-20T08:07:06Z</time>
      </trkpt>
      <trkpt lat="48.35113" lon="2.73341">
        <ele>97.49</ele>
        <time>2021-06-20T08:07:18Z</time>
      </trkpt>
      <trkpt lat="48.35116" lon="2.7333">
        <ele>96.5</ele>
        <time>2021-06-20T08:07:36Z</time>
      </trkpt>
      <trkpt lat="48.35117" lon="2.73309">
        <ele>95.76</ele>
        <time>2021-06-20T08:07:50Z</time>
      </trkpt>
      <trkpt lat="48.35117" lon="2.73297">
        <ele>95.03</ele>
        <time>2021-06-20T08:07:55Z</time>
      </trkpt>
      <trkpt lat="48.35117" lon="2.73294">
        <ele>96.08</ele>
        <time>2021-06-20T08:07:57Z</time>
      </trkpt>
      <trkpt lat="48.35118" lon="2.73274">
        <ele>95.37</ele>
        <time>2021-06-20T08:08:11Z</time>
      </trkpt>
      <trkpt lat="48.35117" lon="2.73252">
        <ele>94.44</ele>
        <time>2021-06-20T08:08:29Z</time>
      </trkpt>
      <trkpt lat="48.35117" lon="2.73223">
        <ele>93.99</ele>
        <time>2021-06-20T08:08:49Z</time>
      </trkpt>
      <trkpt lat="48.35119" lon="2.73194">
        <ele>93.73</ele>
        <time>2021-06-20T08:09:05Z</time>
      </trkpt>
      <trkpt lat="48.35119" lon="2.73174">
        <ele>92.91</ele>
        <time>2021-06-20T08:09:18Z</time>
      </trkpt>
      <trkpt lat="48.35118" lon="2.7314">
        <ele>91.93</ele>
        <time>2021-06-20T08:09:36Z</time>
      </trkpt>
      <trkpt lat="48.3513" lon="2.73114">
        <ele>91.29</ele>
        <time>2021-06-20T08:09:57Z</time>
      </trkpt>
      <trkpt lat="48.35128" lon="2.73107">
        <ele>91.33</ele>
        <time>2021-06-20T08:10:02Z</time>
      </trkpt>
      <trkpt lat="48.35127" lon="2.73093">
        <ele>90.51</ele>
        <time>2021-06-20T08:10:10Z</time>
      </trkpt>
      <trkpt lat="48.3513" lon="2.73076">
        <ele>90.79</ele>
        <time>2021-06-20T08:10:20Z</time>
      </trkpt>
      <trkpt lat="48.35134" lon="2.73052">
        <ele>90.34</ele>
        <time>2021-06-20T08:10:39Z</time>
      </trkpt>
      <trkpt lat="48.35136" lon="2.73028">
        <ele>89.82</ele>
        <time>2021-06-20T08:10:51Z</time>
      </trkpt>
      <trkpt lat="48.35135" lon="2.73002">
        <ele>88.83</ele>
        <time>2021-06-20T08:11:04Z</time>
      </trkpt>
      <trkpt lat="48.35135" lon="2.72999">
        <ele>88.8</ele>
        <time>2021-06-20T08:11:06Z</time>
      </trkpt>
      <trkpt lat="48.35132" lon="2.72964">
        <ele>88.18</ele>
        <time>2021-06-20T08:11:25Z</time>
      </trkpt>
      <trkpt lat="48.35137" lon="2.72948">
        <ele>87.7</ele>
        <time>2021-06-20T08:11:35Z</time>
      </trkpt>
      <trkpt lat="48.35139" lon="2.72919">
        <ele>86.81</ele>
        <time>2021-06-20T08:11:52Z</time>
      </trkpt>
      <trkpt lat="48.35138" lon="2.72889">
        <ele>86.06</ele>
        <time>2021-06-20T08:12:07Z</time>
      </trkpt>
      <trkpt lat="48.35138" lon="2.72875">
        <ele>86.17</ele>
        <time>2021-06-20T08:12:15Z</time>
      </trkpt>
      <trkpt lat="48.35133" lon="2.7284">
        <ele>84.99</ele>
        <time>2021-06-20T08:12:33Z</time>
      </trkpt>
      <trkpt lat="48.35134" lon="2.7282">
        <ele>84.87</ele>
        <time>2021-06-20T08:12:43Z</time>
      </trkpt>
      <trkpt lat="48.35138" lon="2.72807">
        <ele>84.74</ele>
        <time>2021-06-20T08:12:50Z</time>
      </trkpt>
      <trkpt lat="48.35137" lon="2.72791">
        <ele>84.62</ele>
        <time>2021-06-20T08:12:56Z</time>
      </trkpt>
      <trkpt lat="48.35135" lon="2.72773">
        <ele>83.59</ele>
        <time>2021-06-20T08:13:06Z</time>
      </trkpt>
      <trkpt lat="48.35138" lon="2.72742">
        <ele>82.37</ele>
        <time>2021-06-20T08:13:25Z</time>
      </trkpt>
      <trkpt lat="48.35137" lon="2.72703">
        <ele>81.38</ele>
        <time>2021-06-20T08:13:47Z</time>
      </trkpt>
      <trkpt lat="48.35141" lon="2.72682">
        <ele>80.53</ele>
        <time>2021-06-20T08:13:58Z</time>
      </trkpt>
      <trkpt lat="48.3514" lon="2.72658">
        <ele>80.13</ele>
        <time>2021-06-20T08:14:10Z</time>
      </trkpt>
      <trkpt lat="48.35141" lon="2.72644">
        <ele>79.56</ele>
        <time>2021-06-20T08:14:17Z</time>
      </trkpt>
      <trkpt lat="48.35145" lon="2.72605">
        <ele>78.78</ele>
        <time>2021-06-20T08:14:39Z</time>
      </trkpt>
      <trkpt lat="48.35149" lon="2.72564">
        <ele>77.43</ele>
        <time>2021-06-20T08:15:04Z</time>
      </trkpt>
      <trkpt lat="48.35148" lon="2.72548">
        <ele>77.27</ele>
        <time>2021-06-20T08:15:14Z</time>
      </trkpt>
      <trkpt lat="48.3515" lon="2.7252">
        <ele>76.3</ele>
        <time>2021-06-20T08:15:31Z</time>
      </trkpt>
      <trkpt lat="48.35148" lon="2.72511">
        <ele>76.48</ele>
        <time>2021-06-20T08:15:37Z</time>
      </trkpt>
      <trkpt lat="48.35147" lon="2.72506">
        <ele>76.59</ele>
        <time>2021-06-20T08:15:40Z</time>
      </trkpt>
      <trkpt lat="48.35151" lon="2.72472">
        <ele>75.63</ele>
        <time>2021-06-20T08:15:58Z</time>
      </trkpt>
      <trkpt lat="48.3515" lon="2.72448">
        <ele>75.16</ele>
        <time>2021-06-20T08:16:10Z</time>
      </trkpt>
      <trkpt lat="48.35147" lon="2.72424">
        <ele>74.88</ele>
        <time>2021-06-20T08:16:25Z</time>
      </trkpt>
      <trkpt lat="48.35147" lon="2.72419">
        <ele>74.84</ele>
        <time>2021-06-20T08:16:29Z</time>
      </trkpt>
      <trkpt lat="48.35152" lon="2.72392">
        <ele>74.19</ele>
        <time>2021-06-20T08:16:44Z</time>
      </trkpt>
      <trkpt lat="48.35157" lon="2.7237">
        <ele>73.88</ele>
        <time>2021-06-20T08:17:03Z</time>
      </trkpt>
      <trkpt lat="48.35163" lon="2.7235">
        <ele>72.99</ele>
        <time>2021-06-20T08:17:17Z</time>
      </trkpt>
      <trkpt lat="48.3517" lon="2.72323">
        <ele>72.57</ele>
        <time>2021-06-20T08:17:35Z</time>
      </trkpt>
      <trkpt lat="48.35181" lon="2.72298">
        <ele>72.41</ele>
        <time>2021-06-20T08:17:55Z</time>
      </trkpt>
      <trkpt lat="48.35185" lon="2.72282">
        <ele>72.46</ele>
        <time>2021-06-20T08:18:08Z</time>
      </trkpt>
      <trkpt lat="48.35189" lon="2.72263">
        <ele>72.1</ele>
        <time>2021-06-20T08:18:21Z</time>
      </trkpt>
      <trkpt lat="48.35198" lon="2.72236">
        <ele>71.63</ele>
        <time>2021-06-20T08:18:38Z</time>
      </trkpt>
      <trkpt lat="48.35208" lon="2.72204">
        <ele>70.88</ele>
        <time>2021-06-20T08:18:59Z</time>
      </trkpt>
      <trkpt lat="48.35215" lon="2.72175">
        <ele>71.54</ele>
        <time>2021-06-20T08:19:19Z</time>
      </trkpt>
      <trkpt lat="48.35216" lon="2.72172">
        <ele>72.18</ele>
        <time>2021-06-20T08:19:21Z</time>
      </trkpt>
      <trkpt lat="48.35221" lon="2.72169">
        <ele>72.06</ele>
        <time>2021-06-20T08:19:26Z</time>
      </trkpt>
      <trkpt lat="48.35225" lon="2.72166">
        <ele>71.69</ele>
        <time>2021-06-20T08:19:29Z</time>
      </trkpt>
      <trkpt lat="48.35225" lon="2.72163">
        <ele>71.87</ele>
        <time>2021-06-20T08:19:31Z</time>
      </trkpt>
      <trkpt lat="48.3523" lon="2.7215">
        <ele>71.58</ele>
        <time>2021-06-20T08:19:38Z</time>
      </trkpt>
      <trkpt lat="48.3523" lon="2.72139">
        <ele>71.31</ele>
        <time>2021-06-20T08:19:44Z</time>
      </trkpt>
      <trkpt lat="48.3524" lon="2.72122">
        <ele>71.23</ele>
        <time>2021-06-20T08:19:57Z</time>
      </trkpt>
      <trkpt lat="48.3524" lon="2.72121">
        <ele>71.17</ele>
        <time>2021-06-20T08:19:58Z</time>
      </trkpt>
      <trkpt lat="48.35242" lon="2.72118">
        <ele>71.18</ele>
        <time>2021-06-20T08:20:01Z</time>
      </trkpt>
      <trkpt lat="48.35243" lon="2.72113">
        <ele>70.89</ele>
        <time>2021-06-20T08:20:03Z</time>
      </trkpt>
      <trkpt lat="48.35254" lon="2.72079">
        <ele>70.13</ele>
        <time>2021-06-20T08:20:21Z</time>
      </trkpt>
      <trkpt lat="48.35257" lon="2.72072">
        <ele>70.22</ele>
        <time>2021-06-20T08:20:26Z</time>
      </trkpt>
      <trkpt lat="48.35265" lon="2.72057">
        <ele>69.04</ele>
        <time>2021-06-20T08:20:36Z</time>
      </trkpt>
      <trkpt lat="48.35269" lon="2.72046">
        <ele>69.21</ele>
        <time>2021-06-20T08:20:41Z</time>
      </trkpt>
      <trkpt lat="48.3527" lon="2.72042">
        <ele>69</ele>
        <time>2021-06-20T08:20:44Z</time>
      </trkpt>
      <trkpt lat="48.35271" lon="2.72035">
        <ele>69.12</ele>
        <time>2021-06-20T08:20:48Z</time>
      </trkpt>
      <trkpt lat="48.35276" lon="2.72027">
        <ele>69.39</ele>
        <time>2021-06-20T08:20:54Z</time>
      </trkpt>
      <trkpt lat="48.35289" lon="2.72015">
        <ele>69.63</ele>
        <time>2021-06-20T08:21:10Z</time>
      </trkpt>
      <trkpt lat="48.35296" lon="2.71997">
        <ele>70.01</ele>
        <time>2021-06-20T08:21:25Z</time>
      </trkpt>
      <trkpt lat="48.35299" lon="2.71987">
        <ele>69.79</ele>
        <time>2021-06-20T08:21:31Z</time>
      </trkpt>
      <trkpt lat="48.35302" lon="2.7198">
        <ele>69.31</ele>
        <time>2021-06-20T08:21:34Z</time>
      </trkpt>
      <trkpt lat="48.35312" lon="2.71956">
        <ele>69.93</ele>
        <time>2021-06-20T08:21:53Z</time>
      </trkpt>
      <trkpt lat="48.35311" lon="2.71936">
        <ele>70.05</ele>
        <time>2021-06-20T08:22:07Z</time>
      </trkpt>
      <trkpt lat="48.35316" lon="2.71918">
        <ele>70.53</ele>
        <time>2021-06-20T08:22:19Z</time>
      </trkpt>
      <trkpt lat="48.3533" lon="2.71895">
        <ele>71.36</ele>
        <time>2021-06-20T08:22:35Z</time>
      </trkpt>
      <trkpt lat="48.35345" lon="2.71876">
        <ele>72.55</ele>
        <time>2021-06-20T08:22:52Z</time>
      </trkpt>
      <trkpt lat="48.35354" lon="2.71865">
        <ele>72.67</ele>
        <time>2021-06-20T08:23:07Z</time>
      </trkpt>
      <trkpt lat="48.35367" lon="2.71855">
        <ele>72.2</ele>
        <time>2021-06-20T08:23:19Z</time>
      </trkpt>
      <trkpt lat="48.35381" lon="2.71856">
        <ele>71.74</ele>
        <time>2021-06-20T08:23:28Z</time>
      </trkpt>
      <trkpt lat="48.35399" lon="2.71855">
        <ele>72.07</ele>
        <time>2021-06-20T08:23:43Z</time>
      </trkpt>
      <trkpt lat="48.3541" lon="2.7185">
        <ele>71.37</ele>
        <time>2021-06-20T08:23:59Z</time>
      </trkpt>
      <trkpt lat="48.35422" lon="2.71834">
        <ele>71.26</ele>
        <time>2021-06-20T08:24:15Z</time>
      </trkpt>
      <trkpt lat="48.35428" lon="2.71815">
        <ele>72.04</ele>
        <time>2021-06-20T08:24:30Z</time>
      </trkpt>
      <trkpt lat="48.3543" lon="2.71812">
        <ele>71.9</ele>
        <time>2021-06-20T08:24:32Z</time>
      </trkpt>
      <trkpt lat="48.35441" lon="2.71798">
        <ele>71.31</ele>
        <time>2021-06-20T08:24:45Z</time>
      </trkpt>
      <trkpt lat="48.35441" lon="2.71779">
        <ele>72.06</ele>
        <time>2021-06-20T08:24:58Z</time>
      </trkpt>
      <trkpt lat="48.35444" lon="2.71757">
        <ele>71.92</ele>
        <time>2021-06-20T08:25:19Z</time>
      </trkpt>
      <trkpt lat="48.35448" lon="2.71753">
        <ele>71.53</ele>
        <time>2021-06-20T08:25:26Z</time>
      </trkpt>
      <trkpt lat="48.35451" lon="2.71751">
        <ele>72.07</ele>
        <time>2021-06-20T08:25:50Z</time>
      </trkpt>
      <trkpt lat="48.35457" lon="2.71745">
        <ele>72.36</ele>
        <time>2021-06-20T08:26:12Z</time>
      </trkpt>
      <trkpt lat="48.35456" lon="2.7172">
        <ele>73.39</ele>
        <time>2021-06-20T08:26:29Z</time>
      </trkpt>
      <trkpt lat="48.35448" lon="2.71687">
        <ele>74.15</ele>
        <time>2021-06-20T08:26:50Z</time>
      </trkpt>
      <trkpt lat="48.35439" lon="2.71653">
        <ele>75.11</ele>
        <time>2021-06-20T08:27:11Z</time>
      </trkpt>
      <trkpt lat="48.3544" lon="2.71649">
        <ele>75.06</ele>
        <time>2021-06-20T08:27:14Z</time>
      </trkpt>
      <trkpt lat="48.35439" lon="2.71644">
        <ele>75.29</ele>
        <time>2021-06-20T08:27:19Z</time>
      </trkpt>
      <trkpt lat="48.35439" lon="2.71629">
        <ele>75.39</ele>
        <time>2021-06-20T08:27:33Z</time>
      </trkpt>
      <trkpt lat="48.35432" lon="2.71622">
        <ele>76.09</ele>
        <time>2021-06-20T08:27:53Z</time>
      </trkpt>
      <trkpt lat="48.35429" lon="2.71613">
        <ele>76.57</ele>
        <time>2021-06-20T08:28:00Z</time>
      </trkpt>
      <trkpt lat="48.35422" lon="2.716">
        <ele>76.38</ele>
        <time>2021-06-20T08:28:13Z</time>
      </trkpt>
      <trkpt lat="48.35415" lon="2.71576">
        <ele>76.51</ele>
        <time>2021-06-20T08:28:33Z</time>
      </trkpt>
      <trkpt lat="48.35407" lon="2.71553">
        <ele>76.24</ele>
        <time>2021-06-20T08:28:49Z</time>
      </trkpt>
      <trkpt lat="48.354" lon="2.71522">
        <ele>77.25</ele>
        <time>2021-06-20T08:29:10Z</time>
      </trkpt>
      <trkpt lat="48.35399" lon="2.71501">
        <ele>77.23</ele>
        <time>2021-06-20T08:29:24Z</time>
      </trkpt>
      <trkpt lat="48.35413" lon="2.71498">
        <ele>78.97</ele>
        <time>2021-06-20T08:29:47Z</time>
      </trkpt>
      <trkpt lat="48.35425" lon="2.71496">
        <ele>80.77</ele>
        <time>2021-06-20T08:30:03Z</time>
      </trkpt>
      <trkpt lat="48.35433" lon="2.71486">
        <ele>83.81</ele>
        <time>2021-06-20T08:30:21Z</time>
      </trkpt>
      <trkpt lat="48.3544" lon="2.71476">
        <ele>85.77</ele>
        <time>2021-06-20T08:30:36Z</time>
      </trkpt>
      <trkpt lat="48.35448" lon="2.7147">
        <ele>87.71</ele>
        <time>2021-06-20T08:30:50Z</time>
      </trkpt>
      <trkpt lat="48.35449" lon="2.71469">
        <ele>87.92</ele>
        <time>2021-06-20T08:30:51Z</time>
      </trkpt>
      <trkpt lat="48.35464" lon="2.71466">
        <ele>90.28</ele>
        <time>2021-06-20T08:31:11Z</time>
      </trkpt>
      <trkpt lat="48.35472" lon="2.71467">
        <ele>90.5</ele>
        <time>2021-06-20T08:31:26Z</time>
      </trkpt>
      <trkpt lat="48.35483" lon="2.71476">
        <ele>92.39</ele>
        <time>2021-06-20T08:31:47Z</time>
      </trkpt>
      <trkpt lat="48.3549" lon="2.71476">
        <ele>93.75</ele>
        <time>2021-06-20T08:32:04Z</time>
      </trkpt>
      <trkpt lat="48.35507" lon="2.71478">
        <ele>94.18</ele>
        <time>2021-06-20T08:32:21Z</time>
      </trkpt>
      <trkpt lat="48.35516" lon="2.71472">
        <ele>93.55</ele>
        <time>2021-06-20T08:32:38Z</time>
      </trkpt>
      <trkpt lat="48.35519" lon="2.71464">
        <ele>91.89</ele>
        <time>2021-06-20T08:32:45Z</time>
      </trkpt>
      <trkpt lat="48.35539" lon="2.71438">
        <ele>91</ele>
        <time>2021-06-20T08:33:07Z</time>
      </trkpt>
      <trkpt lat="48.35562" lon="2.71433">
        <ele>92.71</ele>
        <time>2021-06-20T08:33:24Z</time>
      </trkpt>
      <trkpt lat="48.35568" lon="2.71423">
        <ele>93.63</ele>
        <time>2021-06-20T08:33:44Z</time>
      </trkpt>
      <trkpt lat="48.35568" lon="2.71421">
        <ele>94.59</ele>
        <time>2021-06-20T08:33:47Z</time>
      </trkpt>
      <trkpt lat="48.3557" lon="2.71419">
        <ele>94.49</ele>
        <time>2021-06-20T08:33:50Z</time>
      </trkpt>
      <trkpt lat="48.3558" lon="2.71405">
        <ele>96.01</ele>
        <time>2021-06-20T08:34:12Z</time>
      </trkpt>
      <trkpt lat="48.3558" lon="2.71391">
        <ele>97.11</ele>
        <time>2021-06-20T08:34:28Z</time>
      </trkpt>
      <trkpt lat="48.35583" lon="2.71366">
        <ele>99.93</ele>
        <time>2021-06-20T08:34:48Z</time>
      </trkpt>
      <trkpt lat="48.35586" lon="2.71359">
        <ele>101.02</ele>
        <time>2021-06-20T08:35:06Z</time>
      </trkpt>
      <trkpt lat="48.35593" lon="2.71341">
        <ele>103.03</ele>
        <time>2021-06-20T08:35:25Z</time>
      </trkpt>
      <trkpt lat="48.35597" lon="2.71338">
        <ele>102.89</ele>
        <time>2021-06-20T08:35:29Z</time>
      </trkpt>
      <trkpt lat="48.35599" lon="2.71338">
        <ele>103.66</ele>
        <time>2021-06-20T08:35:33Z</time>
      </trkpt>
      <trkpt lat="48.35615" lon="2.71336">
        <ele>105.21</ele>
        <time>2021-06-20T08:35:49Z</time>
      </trkpt>
      <trkpt lat="48.35619" lon="2.71328">
        <ele>106.37</ele>
        <time>2021-06-20T08:36:11Z</time>
      </trkpt>
      <trkpt lat="48.35628" lon="2.71328">
        <ele>109.15</ele>
        <time>2021-06-20T08:36:31Z</time>
      </trkpt>
      <trkpt lat="48.35632" lon="2.71323">
        <ele>110.39</ele>
        <time>2021-06-20T08:36:45Z</time>
      </trkpt>
      <trkpt lat="48.35631" lon="2.7132">
        <ele>110.01</ele>
        <time>2021-06-20T08:36:51Z</time>
      </trkpt>
      <trkpt lat="48.35635" lon="2.71304">
        <ele>109.33</ele>
        <time>2021-06-20T08:37:09Z</time>
      </trkpt>
      <trkpt lat="48.35637" lon="2.71301">
        <ele>109.64</ele>
        <time>2021-06-20T08:37:16Z</time>
      </trkpt>
      <trkpt lat="48.35647" lon="2.71294">
        <ele>112.14</ele>
        <time>2021-06-20T08:37:32Z</time>
      </trkpt>
      <trkpt lat="48.35657" lon="2.71289">
        <ele>115.4</ele>
        <time>2021-06-20T08:37:47Z</time>
      </trkpt>
      <trkpt lat="48.35662" lon="2.71279">
        <ele>114.99</ele>
        <time>2021-06-20T08:38:04Z</time>
      </trkpt>
      <trkpt lat="48.35672" lon="2.71266">
        <ele>114.24</ele>
        <time>2021-06-20T08:38:24Z</time>
      </trkpt>
      <trkpt lat="48.35674" lon="2.71255">
        <ele>115.09</ele>
        <time>2021-06-20T08:38:38Z</time>
      </trkpt>
      <trkpt lat="48.35685" lon="2.71243">
        <ele>114.87</ele>
        <time>2021-06-20T08:38:57Z</time>
      </trkpt>
      <trkpt lat="48.3569" lon="2.71237">
        <ele>114.53</ele>
        <time>2021-06-20T08:39:07Z</time>
      </trkpt>
      <trkpt lat="48.35698" lon="2.71224">
        <ele>115.55</ele>
        <time>2021-06-20T08:39:25Z</time>
      </trkpt>
      <trkpt lat="48.35699" lon="2.71203">
        <ele>117.01</ele>
        <time>2021-06-20T08:39:42Z</time>
      </trkpt>
      <trkpt lat="48.35702" lon="2.7118">
        <ele>117.31</ele>
        <time>2021-06-20T08:39:59Z</time>
      </trkpt>
      <trkpt lat="48.35708" lon="2.71159">
        <ele>116.92</ele>
        <time>2021-06-20T08:40:14Z</time>
      </trkpt>
      <trkpt lat="48.35706" lon="2.7114">
        <ele>116.59</ele>
        <time>2021-06-20T08:40:30Z</time>
      </trkpt>
      <trkpt lat="48.35705" lon="2.71135">
        <ele>116.45</ele>
        <time>2021-06-20T08:40:34Z</time>
      </trkpt>
      <trkpt lat="48.35706" lon="2.71125">
        <ele>116.54</ele>
        <time>2021-06-20T08:40:41Z</time>
      </trkpt>
      <trkpt lat="48.35716" lon="2.71116">
        <ele>116.54</ele>
        <time>2021-06-20T08:41:02Z</time>
      </trkpt>
      <trkpt lat="48.35729" lon="2.71112">
        <ele>117.16</ele>
        <time>2021-06-20T08:41:19Z</time>
      </trkpt>
      <trkpt lat="48.35734" lon="2.71108">
        <ele>117.67</ele>
        <time>2021-06-20T08:41:29Z</time>
      </trkpt>
      <trkpt lat="48.35742" lon="2.71103">
        <ele>117.56</ele>
        <time>2021-06-20T08:41:47Z</time>
      </trkpt>
      <trkpt lat="48.35755" lon="2.71095">
        <ele>117.98</ele>
        <time>2021-06-20T08:42:01Z</time>
      </trkpt>
      <trkpt lat="48.35766" lon="2.71083">
        <ele>118.15</ele>
        <time>2021-06-20T08:42:19Z</time>
      </trkpt>
      <trkpt lat="48.3579" lon="2.71078">
        <ele>118.08</ele>
        <time>2021-06-20T08:42:42Z</time>
      </trkpt>
      <trkpt lat="48.35797" lon="2.71081">
        <ele>118.55</ele>
        <time>2021-06-20T08:42:53Z</time>
      </trkpt>
      <trkpt lat="48.35813" lon="2.71087">
        <ele>118.99</ele>
        <time>2021-06-20T08:43:15Z</time>
      </trkpt>
      <trkpt lat="48.35829" lon="2.71089">
        <ele>119.25</ele>
        <time>2021-06-20T08:43:33Z</time>
      </trkpt>
      <trkpt lat="48.35832" lon="2.71088">
        <ele>119.48</ele>
        <time>2021-06-20T08:43:35Z</time>
      </trkpt>
      <trkpt lat="48.35844" lon="2.71087">
        <ele>119.93</ele>
        <time>2021-06-20T08:43:56Z</time>
      </trkpt>
      <trkpt lat="48.35844" lon="2.71093">
        <ele>119.15</ele>
        <time>2021-06-20T08:44:19Z</time>
      </trkpt>
      <trkpt lat="48.35839" lon="2.71086">
        <ele>119.38</ele>
        <time>2021-06-20T08:44:43Z</time>
      </trkpt>
      <trkpt lat="48.35841" lon="2.71079">
        <ele>120.63</ele>
        <time>2021-06-20T08:45:07Z</time>
      </trkpt>
      <trkpt lat="48.35848" lon="2.71084">
        <ele>119.89</ele>
        <time>2021-06-20T08:45:16Z</time>
      </trkpt>
      <trkpt lat="48.35855" lon="2.71092">
        <ele>120.11</ele>
        <time>2021-06-20T08:45:37Z</time>
      </trkpt>
      <trkpt lat="48.35858" lon="2.71094">
        <ele>120.14</ele>
        <time>2021-06-20T08:45:42Z</time>
      </trkpt>
      <trkpt lat="48.35873" lon="2.71105">
        <ele>119.56</ele>
        <time>2021-06-20T08:45:57Z</time>
      </trkpt>
      <trkpt lat="48.35893" lon="2.71116">
        <ele>120.12</ele>
        <time>2021-06-20T08:46:18Z</time>
      </trkpt>
      <trkpt lat="48.35895" lon="2.71117">
        <ele>120.4</ele>
        <time>2021-06-20T08:46:19Z</time>
      </trkpt>
      <trkpt lat="48.35909" lon="2.71123">
        <ele>119.21</ele>
        <time>2021-06-20T08:46:34Z</time>
      </trkpt>
      <trkpt lat="48.3591" lon="2.71124">
        <ele>120.1</ele>
        <time>2021-06-20T08:46:39Z</time>
      </trkpt>
      <trkpt lat="48.35927" lon="2.71138">
        <ele>119.36</ele>
        <time>2021-06-20T08:46:58Z</time>
      </trkpt>
      <trkpt lat="48.35939" lon="2.71136">
        <ele>119.98</ele>
        <time>2021-06-20T08:47:16Z</time>
      </trkpt>
      <trkpt lat="48.35952" lon="2.71149">
        <ele>119.08</ele>
        <time>2021-06-20T08:47:35Z</time>
      </trkpt>
      <trkpt lat="48.35948" lon="2.71156">
        <ele>118.03</ele>
        <time>2021-06-20T08:47:53Z</time>
      </trkpt>
      <trkpt lat="48.35944" lon="2.71165">
        <ele>117.44</ele>
        <time>2021-06-20T08:48:12Z</time>
      </trkpt>
      <trkpt lat="48.35938" lon="2.71182">
        <ele>119.62</ele>
        <time>2021-06-20T08:48:33Z</time>
      </trkpt>
      <trkpt lat="48.35944" lon="2.71184">
        <ele>118.57</ele>
        <time>2021-06-20T08:48:49Z</time>
      </trkpt>
      <trkpt lat="48.35945" lon="2.712">
        <ele>120.99</ele>
        <time>2021-06-20T08:49:06Z</time>
      </trkpt>
      <trkpt lat="48.35947" lon="2.71209">
        <ele>120.77</ele>
        <time>2021-06-20T08:49:25Z</time>
      </trkpt>
      <trkpt lat="48.3595" lon="2.71215">
        <ele>120.34</ele>
        <time>2021-06-20T08:49:38Z</time>
      </trkpt>
      <trkpt lat="48.35954" lon="2.71216">
        <ele>120.16</ele>
        <time>2021-06-20T08:49:59Z</time>
      </trkpt>
      <trkpt lat="48.35966" lon="2.71222">
        <ele>118.53</ele>
        <time>2021-06-20T08:50:16Z</time>
      </trkpt>
      <trkpt lat="48.35969" lon="2.71228">
        <ele>118.59</ele>
        <time>2021-06-20T08:50:28Z</time>
      </trkpt>
      <trkpt lat="48.35959" lon="2.71246">
        <ele>117.57</ele>
        <time>2021-06-20T08:50:50Z</time>
      </trkpt>
      <trkpt lat="48.35956" lon="2.71256">
        <ele>119.59</ele>
        <time>2021-06-20T08:51:05Z</time>
      </trkpt>
      <trkpt lat="48.35958" lon="2.71263">
        <ele>118.46</ele>
        <time>2021-06-20T08:51:20Z</time>
      </trkpt>
      <trkpt lat="48.35958" lon="2.7127">
        <ele>118.06</ele>
        <time>2021-06-20T08:51:35Z</time>
      </trkpt>
      <trkpt lat="48.35953" lon="2.71268">
        <ele>119.36</ele>
        <time>2021-06-20T08:51:50Z</time>
      </trkpt>
      <trkpt lat="48.35948" lon="2.71266">
        <ele>118.34</ele>
        <time>2021-06-20T08:52:10Z</time>
      </trkpt>
      <trkpt lat="48.35938" lon="2.71269">
        <ele>117.78</ele>
        <time>2021-06-20T08:52:29Z</time>
      </trkpt>
      <trkpt lat="48.35929" lon="2.71271">
        <ele>115.41</ele>
        <time>2021-06-20T08:52:46Z</time>
      </trkpt>
      <trkpt lat="48.35921" lon="2.71292">
        <ele>114.85</ele>
        <time>2021-06-20T08:53:05Z</time>
      </trkpt>
      <trkpt lat="48.35914" lon="2.71302">
        <ele>115.03</ele>
        <time>2021-06-20T08:53:27Z</time>
      </trkpt>
      <trkpt lat="48.35907" lon="2.71317">
        <ele>114.23</ele>
        <time>2021-06-20T08:53:44Z</time>
      </trkpt>
      <trkpt lat="48.35901" lon="2.71322">
        <ele>115.31</ele>
        <time>2021-06-20T08:53:52Z</time>
      </trkpt>
      <trkpt lat="48.359" lon="2.71335">
        <ele>113.64</ele>
        <time>2021-06-20T08:54:09Z</time>
      </trkpt>
      <trkpt lat="48.35906" lon="2.7136">
        <ele>112.72</ele>
        <time>2021-06-20T08:54:29Z</time>
      </trkpt>
      <trkpt lat="48.35909" lon="2.71387">
        <ele>113</ele>
        <time>2021-06-20T08:54:46Z</time>
      </trkpt>
      <trkpt lat="48.35904" lon="2.71395">
        <ele>114.74</ele>
        <time>2021-06-20T08:55:01Z</time>
      </trkpt>
      <trkpt lat="48.359" lon="2.71407">
        <ele>115.9</ele>
        <time>2021-06-20T08:55:23Z</time>
      </trkpt>
      <trkpt lat="48.35898" lon="2.71419">
        <ele>113.86</ele>
        <time>2021-06-20T08:55:37Z</time>
      </trkpt>
      <trkpt lat="48.35891" lon="2.71429">
        <ele>110.67</ele>
        <time>2021-06-20T08:55:56Z</time>
      </trkpt>
      <trkpt lat="48.35886" lon="2.71427">
        <ele>109.99</ele>
        <time>2021-06-20T08:56:14Z</time>
      </trkpt>
      <trkpt lat="48.35897" lon="2.71426">
        <ele>113.29</ele>
        <time>2021-06-20T08:56:32Z</time>
      </trkpt>
      <trkpt lat="48.35908" lon="2.71437">
        <ele>111.63</ele>
        <time>2021-06-20T08:56:49Z</time>
      </trkpt>
      <trkpt lat="48.35914" lon="2.71448">
        <ele>109.52</ele>
        <time>2021-06-20T08:57:10Z</time>
      </trkpt>
      <trkpt lat="48.35915" lon="2.71461">
        <ele>109.16</ele>
        <time>2021-06-20T08:57:27Z</time>
      </trkpt>
      <trkpt lat="48.35909" lon="2.71475">
        <ele>111.14</ele>
        <time>2021-06-20T08:57:43Z</time>
      </trkpt>
      <trkpt lat="48.35905" lon="2.71485">
        <ele>112.77</ele>
        <time>2021-06-20T08:58:01Z</time>
      </trkpt>
      <trkpt lat="48.35904" lon="2.71495">
        <ele>112.64</ele>
        <time>2021-06-20T08:58:18Z</time>
      </trkpt>
      <trkpt lat="48.35899" lon="2.71501">
        <ele>114.33</ele>
        <time>2021-06-20T08:58:36Z</time>
      </trkpt>
      <trkpt lat="48.35896" lon="2.71509">
        <ele>114.66</ele>
        <time>2021-06-20T08:58:52Z</time>
      </trkpt>
      <trkpt lat="48.35899" lon="2.71516">
        <ele>116.69</ele>
        <time>2021-06-20T08:59:09Z</time>
      </trkpt>
      <trkpt lat="48.35903" lon="2.71525">
        <ele>119.9</ele>
        <time>2021-06-20T08:59:24Z</time>
      </trkpt>
      <trkpt lat="48.35905" lon="2.71539">
        <ele>123.05</ele>
        <time>2021-06-20T08:59:42Z</time>
      </trkpt>
      <trkpt lat="48.35903" lon="2.7155">
        <ele>123.62</ele>
        <time>2021-06-20T09:00:03Z</time>
      </trkpt>
      <trkpt lat="48.3591" lon="2.71551">
        <ele>123.72</ele>
        <time>2021-06-20T09:00:27Z</time>
      </trkpt>
      <trkpt lat="48.35906" lon="2.7155">
        <ele>123.35</ele>
        <time>2021-06-20T09:00:53Z</time>
      </trkpt>
      <trkpt lat="48.35902" lon="2.71545">
        <ele>123.8</ele>
        <time>2021-06-20T09:01:20Z</time>
      </trkpt>
      <trkpt lat="48.35903" lon="2.71547">
        <ele>123.19</ele>
        <time>2021-06-20T09:01:40Z</time>
      </trkpt>
      <trkpt lat="48.35902" lon="2.71554">
        <ele>123.72</ele>
        <time>2021-06-20T09:02:07Z</time>
      </trkpt>
      <trkpt lat="48.35905" lon="2.7155">
        <ele>123.26</ele>
        <time>2021-06-20T09:02:34Z</time>
      </trkpt>
      <trkpt lat="48.359" lon="2.71555">
        <ele>121.78</ele>
        <time>2021-06-20T09:02:52Z</time>
      </trkpt>
      <trkpt lat="48.35883" lon="2.71547">
        <ele>120.66</ele>
        <time>2021-06-20T09:03:15Z</time>
      </trkpt>
      <trkpt lat="48.35872" lon="2.71554">
        <ele>122.27</ele>
        <time>2021-06-20T09:03:34Z</time>
      </trkpt>
      <trkpt lat="48.35868" lon="2.71561">
        <ele>122.98</ele>
        <time>2021-06-20T09:03:49Z</time>
      </trkpt>
      <trkpt lat="48.35862" lon="2.71575">
        <ele>122.81</ele>
        <time>2021-06-20T09:04:11Z</time>
      </trkpt>
      <trkpt lat="48.35858" lon="2.71585">
        <ele>122.46</ele>
        <time>2021-06-20T09:04:33Z</time>
      </trkpt>
      <trkpt lat="48.35851" lon="2.71592">
        <ele>122.01</ele>
        <time>2021-06-20T09:04:51Z</time>
      </trkpt>
      <trkpt lat="48.35838" lon="2.71597">
        <ele>121.25</ele>
        <time>2021-06-20T09:05:12Z</time>
      </trkpt>
      <trkpt lat="48.35836" lon="2.71597">
        <ele>120.26</ele>
        <time>2021-06-20T09:05:18Z</time>
      </trkpt>
      <trkpt lat="48.35834" lon="2.71594">
        <ele>119.94</ele>
        <time>2021-06-20T09:05:24Z</time>
      </trkpt>
      <trkpt lat="48.35829" lon="2.71594">
        <ele>117.53</ele>
        <time>2021-06-20T09:05:47Z</time>
      </trkpt>
      <trkpt lat="48.35826" lon="2.71598">
        <ele>117.25</ele>
        <time>2021-06-20T09:05:54Z</time>
      </trkpt>
      <trkpt lat="48.35823" lon="2.71608">
        <ele>115.57</ele>
        <time>2021-06-20T09:06:14Z</time>
      </trkpt>
      <trkpt lat="48.35818" lon="2.71617">
        <ele>113.18</ele>
        <time>2021-06-20T09:06:37Z</time>
      </trkpt>
      <trkpt lat="48.35807" lon="2.71625">
        <ele>111.19</ele>
        <time>2021-06-20T09:07:00Z</time>
      </trkpt>
      <trkpt lat="48.35794" lon="2.71627">
        <ele>109.34</ele>
        <time>2021-06-20T09:07:24Z</time>
      </trkpt>
      <trkpt lat="48.35793" lon="2.71633">
        <ele>107.25</ele>
        <time>2021-06-20T09:07:42Z</time>
      </trkpt>
      <trkpt lat="48.35801" lon="2.71646">
        <ele>106.42</ele>
        <time>2021-06-20T09:08:00Z</time>
      </trkpt>
      <trkpt lat="48.35811" lon="2.71657">
        <ele>105.17</ele>
        <time>2021-06-20T09:08:18Z</time>
      </trkpt>
      <trkpt lat="48.35823" lon="2.71679">
        <ele>104.74</ele>
        <time>2021-06-20T09:08:39Z</time>
      </trkpt>
      <trkpt lat="48.35824" lon="2.71684">
        <ele>104.59</ele>
        <time>2021-06-20T09:08:59Z</time>
      </trkpt>
      <trkpt lat="48.35822" lon="2.71686">
        <ele>103.97</ele>
        <time>2021-06-20T09:09:19Z</time>
      </trkpt>
      <trkpt lat="48.35828" lon="2.71698">
        <ele>102.85</ele>
        <time>2021-06-20T09:09:36Z</time>
      </trkpt>
      <trkpt lat="48.35826" lon="2.71705">
        <ele>101.89</ele>
        <time>2021-06-20T09:09:55Z</time>
      </trkpt>
      <trkpt lat="48.35823" lon="2.71705">
        <ele>101.33</ele>
        <time>2021-06-20T09:10:06Z</time>
      </trkpt>
      <trkpt lat="48.35811" lon="2.71707">
        <ele>101.27</ele>
        <time>2021-06-20T09:10:33Z</time>
      </trkpt>
      <trkpt lat="48.35812" lon="2.71714">
        <ele>100.65</ele>
        <time>2021-06-20T09:10:57Z</time>
      </trkpt>
      <trkpt lat="48.35807" lon="2.71718">
        <ele>98.32</ele>
        <time>2021-06-20T09:11:15Z</time>
      </trkpt>
      <trkpt lat="48.35801" lon="2.71732">
        <ele>98.82</ele>
        <time>2021-06-20T09:11:33Z</time>
      </trkpt>
      <trkpt lat="48.35789" lon="2.71747">
        <ele>100.14</ele>
        <time>2021-06-20T09:11:49Z</time>
      </trkpt>
      <trkpt lat="48.35781" lon="2.71759">
        <ele>100.77</ele>
        <time>2021-06-20T09:12:07Z</time>
      </trkpt>
      <trkpt lat="48.35775" lon="2.71768">
        <ele>100.37</ele>
        <time>2021-06-20T09:12:29Z</time>
      </trkpt>
      <trkpt lat="48.35764" lon="2.71791">
        <ele>102.02</ele>
        <time>2021-06-20T09:12:51Z</time>
      </trkpt>
      <trkpt lat="48.35761" lon="2.7182">
        <ele>102.86</ele>
        <time>2021-06-20T09:13:12Z</time>
      </trkpt>
      <trkpt lat="48.35752" lon="2.71846">
        <ele>103.64</ele>
        <time>2021-06-20T09:13:33Z</time>
      </trkpt>
      <trkpt lat="48.35744" lon="2.71852">
        <ele>103.17</ele>
        <time>2021-06-20T09:13:50Z</time>
      </trkpt>
      <trkpt lat="48.35736" lon="2.71844">
        <ele>100.94</ele>
        <time>2021-06-20T09:14:09Z</time>
      </trkpt>
      <trkpt lat="48.35728" lon="2.71832">
        <ele>100.26</ele>
        <time>2021-06-20T09:14:27Z</time>
      </trkpt>
      <trkpt lat="48.35718" lon="2.71835">
        <ele>97.28</ele>
        <time>2021-06-20T09:14:45Z</time>
      </trkpt>
      <trkpt lat="48.35702" lon="2.71837">
        <ele>95.91</ele>
        <time>2021-06-20T09:15:09Z</time>
      </trkpt>
      <trkpt lat="48.35699" lon="2.71841">
        <ele>94.23</ele>
        <time>2021-06-20T09:15:14Z</time>
      </trkpt>
      <trkpt lat="48.35693" lon="2.71859">
        <ele>93.58</ele>
        <time>2021-06-20T09:15:32Z</time>
      </trkpt>
      <trkpt lat="48.35687" lon="2.71874">
        <ele>93.12</ele>
        <time>2021-06-20T09:15:55Z</time>
      </trkpt>
      <trkpt lat="48.35677" lon="2.719">
        <ele>92.89</ele>
        <time>2021-06-20T09:16:15Z</time>
      </trkpt>
      <trkpt lat="48.35662" lon="2.71918">
        <ele>94.44</ele>
        <time>2021-06-20T09:16:37Z</time>
      </trkpt>
      <trkpt lat="48.35646" lon="2.71939">
        <ele>94.94</ele>
        <time>2021-06-20T09:16:57Z</time>
      </trkpt>
      <trkpt lat="48.35635" lon="2.71962">
        <ele>96.1</ele>
        <time>2021-06-20T09:17:18Z</time>
      </trkpt>
      <trkpt lat="48.35632" lon="2.71987">
        <ele>98.68</ele>
        <time>2021-06-20T09:17:39Z</time>
      </trkpt>
      <trkpt lat="48.35629" lon="2.72007">
        <ele>100.69</ele>
        <time>2021-06-20T09:17:59Z</time>
      </trkpt>
      <trkpt lat="48.35625" lon="2.72027">
        <ele>102.11</ele>
        <time>2021-06-20T09:18:14Z</time>
      </trkpt>
      <trkpt lat="48.35626" lon="2.72049">
        <ele>103.64</ele>
        <time>2021-06-20T09:18:33Z</time>
      </trkpt>
      <trkpt lat="48.35632" lon="2.72067">
        <ele>105.95</ele>
        <time>2021-06-20T09:18:55Z</time>
      </trkpt>
      <trkpt lat="48.35637" lon="2.72074">
        <ele>106.98</ele>
        <time>2021-06-20T09:19:13Z</time>
      </trkpt>
      <trkpt lat="48.35645" lon="2.72082">
        <ele>108.77</ele>
        <time>2021-06-20T09:19:31Z</time>
      </trkpt>
      <trkpt lat="48.35656" lon="2.72087">
        <ele>111.71</ele>
        <time>2021-06-20T09:19:56Z</time>
      </trkpt>
      <trkpt lat="48.3566" lon="2.72079">
        <ele>114.33</ele>
        <time>2021-06-20T09:20:12Z</time>
      </trkpt>
      <trkpt lat="48.3566" lon="2.72072">
        <ele>114.35</ele>
        <time>2021-06-20T09:20:39Z</time>
      </trkpt>
      <trkpt lat="48.35664" lon="2.72057">
        <ele>116.02</ele>
        <time>2021-06-20T09:20:58Z</time>
      </trkpt>
      <trkpt lat="48.35672" lon="2.72042">
        <ele>117.89</ele>
        <time>2021-06-20T09:21:13Z</time>
      </trkpt>
      <trkpt lat="48.35673" lon="2.72041">
        <ele>117.54</ele>
        <time>2021-06-20T09:21:14Z</time>
      </trkpt>
      <trkpt lat="48.35684" lon="2.72044">
        <ele>121.16</ele>
        <time>2021-06-20T09:21:31Z</time>
      </trkpt>
      <trkpt lat="48.35688" lon="2.72052">
        <ele>124.32</ele>
        <time>2021-06-20T09:21:45Z</time>
      </trkpt>
      <trkpt lat="48.35687" lon="2.72056">
        <ele>123.62</ele>
        <time>2021-06-20T09:21:51Z</time>
      </trkpt>
      <trkpt lat="48.3569" lon="2.72062">
        <ele>124.95</ele>
        <time>2021-06-20T09:22:11Z</time>
      </trkpt>
      <trkpt lat="48.35689" lon="2.72061">
        <ele>124.72</ele>
        <time>2021-06-20T09:22:37Z</time>
      </trkpt>
      <trkpt lat="48.3569" lon="2.72058">
        <ele>124.13</ele>
        <time>2021-06-20T09:23:05Z</time>
      </trkpt>
      <trkpt lat="48.35686" lon="2.72064">
        <ele>124.53</ele>
        <time>2021-06-20T09:23:28Z</time>
      </trkpt>
      <trkpt lat="48.35687" lon="2.72063">
        <ele>124.79</ele>
        <time>2021-06-20T09:23:54Z</time>
      </trkpt>
      <trkpt lat="48.35696" lon="2.72064">
        <ele>123.66</ele>
        <time>2021-06-20T09:24:08Z</time>
      </trkpt>
      <trkpt lat="48.35702" lon="2.72068">
        <ele>124.55</ele>
        <time>2021-06-20T09:24:22Z</time>
      </trkpt>
      <trkpt lat="48.35709" lon="2.72083">
        <ele>125.08</ele>
        <time>2021-06-20T09:24:41Z</time>
      </trkpt>
      <trkpt lat="48.35712" lon="2.72086">
        <ele>124.34</ele>
        <time>2021-06-20T09:25:09Z</time>
      </trkpt>
      <trkpt lat="48.35709" lon="2.72088">
        <ele>124.77</ele>
        <time>2021-06-20T09:25:35Z</time>
      </trkpt>
      <trkpt lat="48.35714" lon="2.72102">
        <ele>124.77</ele>
        <time>2021-06-20T09:25:58Z</time>
      </trkpt>
      <trkpt lat="48.35712" lon="2.72109">
        <ele>124.69</ele>
        <time>2021-06-20T09:26:18Z</time>
      </trkpt>
      <trkpt lat="48.35719" lon="2.72128">
        <ele>123.98</ele>
        <time>2021-06-20T09:26:35Z</time>
      </trkpt>
      <trkpt lat="48.3572" lon="2.72137">
        <ele>124.49</ele>
        <time>2021-06-20T09:26:40Z</time>
      </trkpt>
      <trkpt lat="48.35724" lon="2.72155">
        <ele>124.64</ele>
        <time>2021-06-20T09:26:58Z</time>
      </trkpt>
      <trkpt lat="48.35735" lon="2.72157">
        <ele>123.92</ele>
        <time>2021-06-20T09:27:16Z</time>
      </trkpt>
      <trkpt lat="48.35748" lon="2.72161">
        <ele>123.07</ele>
        <time>2021-06-20T09:27:34Z</time>
      </trkpt>
      <trkpt lat="48.35752" lon="2.72171">
        <ele>121.79</ele>
        <time>2021-06-20T09:27:56Z</time>
      </trkpt>
      <trkpt lat="48.35749" lon="2.72179">
        <ele>122.29</ele>
        <time>2021-06-20T09:28:19Z</time>
      </trkpt>
      <trkpt lat="48.35745" lon="2.72187">
        <ele>122.98</ele>
        <time>2021-06-20T09:28:35Z</time>
      </trkpt>
      <trkpt lat="48.35743" lon="2.722">
        <ele>121.94</ele>
        <time>2021-06-20T09:28:51Z</time>
      </trkpt>
      <trkpt lat="48.35743" lon="2.72201">
        <ele>122.39</ele>
        <time>2021-06-20T09:28:52Z</time>
      </trkpt>
      <trkpt lat="48.35742" lon="2.72225">
        <ele>121.85</ele>
        <time>2021-06-20T09:29:07Z</time>
      </trkpt>
      <trkpt lat="48.35738" lon="2.72245">
        <ele>122.51</ele>
        <time>2021-06-20T09:29:26Z</time>
      </trkpt>
      <trkpt lat="48.35737" lon="2.72261">
        <ele>122.14</ele>
        <time>2021-06-20T09:29:47Z</time>
      </trkpt>
      <trkpt lat="48.35731" lon="2.72276">
        <ele>119.42</ele>
        <time>2021-06-20T09:30:06Z</time>
      </trkpt>
      <trkpt lat="48.3572" lon="2.72289">
        <ele>119.35</ele>
        <time>2021-06-20T09:30:21Z</time>
      </trkpt>
      <trkpt lat="48.35708" lon="2.72298">
        <ele>118.05</ele>
        <time>2021-06-20T09:30:39Z</time>
      </trkpt>
      <trkpt lat="48.357" lon="2.72304">
        <ele>116.2</ele>
        <time>2021-06-20T09:30:59Z</time>
      </trkpt>
      <trkpt lat="48.35694" lon="2.72315">
        <ele>113.8</ele>
        <time>2021-06-20T09:31:14Z</time>
      </trkpt>
      <trkpt lat="48.35687" lon="2.72325">
        <ele>111.2</ele>
        <time>2021-06-20T09:31:32Z</time>
      </trkpt>
      <trkpt lat="48.35688" lon="2.72339">
        <ele>109.71</ele>
        <time>2021-06-20T09:31:49Z</time>
      </trkpt>
      <trkpt lat="48.35698" lon="2.72353">
        <ele>109.22</ele>
        <time>2021-06-20T09:32:05Z</time>
      </trkpt>
      <trkpt lat="48.35708" lon="2.72352">
        <ele>108.97</ele>
        <time>2021-06-20T09:32:21Z</time>
      </trkpt>
      <trkpt lat="48.35725" lon="2.7236">
        <ele>106.35</ele>
        <time>2021-06-20T09:32:43Z</time>
      </trkpt>
      <trkpt lat="48.35735" lon="2.72372">
        <ele>105.99</ele>
        <time>2021-06-20T09:33:02Z</time>
      </trkpt>
      <trkpt lat="48.35727" lon="2.72389">
        <ele>103.94</ele>
        <time>2021-06-20T09:33:22Z</time>
      </trkpt>
      <trkpt lat="48.35714" lon="2.7241">
        <ele>103.88</ele>
        <time>2021-06-20T09:33:39Z</time>
      </trkpt>
      <trkpt lat="48.35709" lon="2.7242">
        <ele>101.51</ele>
        <time>2021-06-20T09:33:54Z</time>
      </trkpt>
      <trkpt lat="48.35707" lon="2.72422">
        <ele>101.37</ele>
        <time>2021-06-20T09:33:55Z</time>
      </trkpt>
      <trkpt lat="48.35699" lon="2.72436">
        <ele>99.17</ele>
        <time>2021-06-20T09:34:10Z</time>
      </trkpt>
      <trkpt lat="48.35699" lon="2.72452">
        <ele>96.95</ele>
        <time>2021-06-20T09:34:28Z</time>
      </trkpt>
      <trkpt lat="48.35697" lon="2.72471">
        <ele>94.07</ele>
        <time>2021-06-20T09:34:43Z</time>
      </trkpt>
      <trkpt lat="48.35697" lon="2.72491">
        <ele>92.73</ele>
        <time>2021-06-20T09:35:01Z</time>
      </trkpt>
      <trkpt lat="48.35698" lon="2.72497">
        <ele>91.69</ele>
        <time>2021-06-20T09:35:14Z</time>
      </trkpt>
      <trkpt lat="48.35692" lon="2.72508">
        <ele>90.04</ele>
        <time>2021-06-20T09:35:25Z</time>
      </trkpt>
      <trkpt lat="48.35688" lon="2.72525">
        <ele>88.68</ele>
        <time>2021-06-20T09:35:42Z</time>
      </trkpt>
      <trkpt lat="48.3569" lon="2.72545">
        <ele>87.67</ele>
        <time>2021-06-20T09:36:01Z</time>
      </trkpt>
      <trkpt lat="48.35691" lon="2.7255">
        <ele>86.3</ele>
        <time>2021-06-20T09:36:15Z</time>
      </trkpt>
      <trkpt lat="48.35687" lon="2.7256">
        <ele>85.2</ele>
        <time>2021-06-20T09:36:27Z</time>
      </trkpt>
      <trkpt lat="48.35684" lon="2.72568">
        <ele>86.29</ele>
        <time>2021-06-20T09:36:35Z</time>
      </trkpt>
      <trkpt lat="48.35684" lon="2.72571">
        <ele>86.58</ele>
        <time>2021-06-20T09:36:37Z</time>
      </trkpt>
      <trkpt lat="48.35683" lon="2.72586">
        <ele>88.21</ele>
        <time>2021-06-20T09:37:01Z</time>
      </trkpt>
      <trkpt lat="48.35683" lon="2.72586">
        <ele>88.36</ele>
        <time>2021-06-20T09:37:02Z</time>
      </trkpt>
      <trkpt lat="48.35682" lon="2.72588">
        <ele>87.83</ele>
        <time>2021-06-20T09:37:04Z</time>
      </trkpt>
      <trkpt lat="48.35674" lon="2.72598">
        <ele>89.46</ele>
        <time>2021-06-20T09:37:23Z</time>
      </trkpt>
      <trkpt lat="48.35661" lon="2.72605">
        <ele>91</ele>
        <time>2021-06-20T09:37:44Z</time>
      </trkpt>
      <trkpt lat="48.35657" lon="2.7261">
        <ele>92.44</ele>
        <time>2021-06-20T09:38:00Z</time>
      </trkpt>
      <trkpt lat="48.35649" lon="2.72612">
        <ele>93.96</ele>
        <time>2021-06-20T09:38:15Z</time>
      </trkpt>
      <trkpt lat="48.35638" lon="2.72615">
        <ele>95.56</ele>
        <time>2021-06-20T09:38:33Z</time>
      </trkpt>
      <trkpt lat="48.35635" lon="2.72616">
        <ele>95.73</ele>
        <time>2021-06-20T09:38:37Z</time>
      </trkpt>
      <trkpt lat="48.35625" lon="2.72618">
        <ele>97.3</ele>
        <time>2021-06-20T09:38:55Z</time>
      </trkpt>
      <trkpt lat="48.35611" lon="2.72622">
        <ele>98.36</ele>
        <time>2021-06-20T09:39:14Z</time>
      </trkpt>
      <trkpt lat="48.3561" lon="2.72622">
        <ele>98.13</ele>
        <time>2021-06-20T09:39:15Z</time>
      </trkpt>
      <trkpt lat="48.35595" lon="2.72618">
        <ele>97.75</ele>
        <time>2021-06-20T09:39:36Z</time>
      </trkpt>
      <trkpt lat="48.35594" lon="2.72618">
        <ele>97.91</ele>
        <time>2021-06-20T09:39:38Z</time>
      </trkpt>
      <trkpt lat="48.35592" lon="2.72615">
        <ele>98.15</ele>
        <time>2021-06-20T09:39:41Z</time>
      </trkpt>
      <trkpt lat="48.35582" lon="2.72635">
        <ele>98.66</ele>
        <time>2021-06-20T09:40:05Z</time>
      </trkpt>
      <trkpt lat="48.35581" lon="2.72636">
        <ele>98.37</ele>
        <time>2021-06-20T09:40:06Z</time>
      </trkpt>
      <trkpt lat="48.3558" lon="2.72636">
        <ele>98.11</ele>
        <time>2021-06-20T09:40:08Z</time>
      </trkpt>
      <trkpt lat="48.35576" lon="2.72639">
        <ele>97.25</ele>
        <time>2021-06-20T09:40:14Z</time>
      </trkpt>
      <trkpt lat="48.35572" lon="2.72646">
        <ele>96.06</ele>
        <time>2021-06-20T09:40:23Z</time>
      </trkpt>
      <trkpt lat="48.35568" lon="2.72648">
        <ele>95.94</ele>
        <time>2021-06-20T09:40:28Z</time>
      </trkpt>
      <trkpt lat="48.35557" lon="2.72648">
        <ele>94.9</ele>
        <time>2021-06-20T09:40:51Z</time>
      </trkpt>
      <trkpt lat="48.35553" lon="2.72661">
        <ele>93.14</ele>
        <time>2021-06-20T09:41:11Z</time>
      </trkpt>
      <trkpt lat="48.35548" lon="2.72674">
        <ele>91.09</ele>
        <time>2021-06-20T09:41:25Z</time>
      </trkpt>
      <trkpt lat="48.35535" lon="2.72688">
        <ele>88.57</ele>
        <time>2021-06-20T09:41:44Z</time>
      </trkpt>
      <trkpt lat="48.35525" lon="2.72703">
        <ele>87.35</ele>
        <time>2021-06-20T09:42:06Z</time>
      </trkpt>
      <trkpt lat="48.35521" lon="2.72719">
        <ele>87.16</ele>
        <time>2021-06-20T09:42:24Z</time>
      </trkpt>
      <trkpt lat="48.35521" lon="2.72721">
        <ele>87.3</ele>
        <time>2021-06-20T09:42:26Z</time>
      </trkpt>
      <trkpt lat="48.3552" lon="2.72739">
        <ele>87.56</ele>
        <time>2021-06-20T09:42:39Z</time>
      </trkpt>
      <trkpt lat="48.35515" lon="2.72758">
        <ele>87.48</ele>
        <time>2021-06-20T09:42:53Z</time>
      </trkpt>
      <trkpt lat="48.35513" lon="2.72785">
        <ele>87.45</ele>
        <time>2021-06-20T09:43:16Z</time>
      </trkpt>
      <trkpt lat="48.35512" lon="2.72812">
        <ele>87.65</ele>
        <time>2021-06-20T09:43:38Z</time>
      </trkpt>
      <trkpt lat="48.35509" lon="2.72831">
        <ele>87.15</ele>
        <time>2021-06-20T09:43:53Z</time>
      </trkpt>
      <trkpt lat="48.35509" lon="2.72862">
        <ele>87.13</ele>
        <time>2021-06-20T09:44:16Z</time>
      </trkpt>
      <trkpt lat="48.35508" lon="2.72892">
        <ele>86.09</ele>
        <time>2021-06-20T09:44:32Z</time>
      </trkpt>
      <trkpt lat="48.35506" lon="2.72899">
        <ele>86.14</ele>
        <time>2021-06-20T09:44:43Z</time>
      </trkpt>
      <trkpt lat="48.355" lon="2.72916">
        <ele>86.63</ele>
        <time>2021-06-20T09:45:03Z</time>
      </trkpt>
      <trkpt lat="48.35497" lon="2.7292">
        <ele>86.8</ele>
        <time>2021-06-20T09:45:18Z</time>
      </trkpt>
      <trkpt lat="48.35493" lon="2.72921">
        <ele>86.75</ele>
        <time>2021-06-20T09:45:36Z</time>
      </trkpt>
      <trkpt lat="48.35483" lon="2.7293">
        <ele>87.21</ele>
        <time>2021-06-20T09:45:53Z</time>
      </trkpt>
      <trkpt lat="48.35472" lon="2.72943">
        <ele>87.01</ele>
        <time>2021-06-20T09:46:12Z</time>
      </trkpt>
      <trkpt lat="48.35457" lon="2.72958">
        <ele>86.69</ele>
        <time>2021-06-20T09:46:29Z</time>
      </trkpt>
      <trkpt lat="48.3544" lon="2.72975">
        <ele>86.95</ele>
        <time>2021-06-20T09:46:50Z</time>
      </trkpt>
      <trkpt lat="48.35424" lon="2.72994">
        <ele>88.09</ele>
        <time>2021-06-20T09:47:12Z</time>
      </trkpt>
      <trkpt lat="48.3541" lon="2.73013">
        <ele>88.4</ele>
        <time>2021-06-20T09:47:30Z</time>
      </trkpt>
      <trkpt lat="48.35399" lon="2.73026">
        <ele>89.06</ele>
        <time>2021-06-20T09:47:51Z</time>
      </trkpt>
      <trkpt lat="48.35384" lon="2.73041">
        <ele>91.74</ele>
        <time>2021-06-20T09:48:13Z</time>
      </trkpt>
      <trkpt lat="48.3538" lon="2.73046">
        <ele>91.74</ele>
        <time>2021-06-20T09:48:33Z</time>
      </trkpt>
      <trkpt lat="48.35372" lon="2.73042">
        <ele>92.07</ele>
        <time>2021-06-20T09:48:52Z</time>
      </trkpt>
      <trkpt lat="48.35362" lon="2.73031">
        <ele>93.5</ele>
        <time>2021-06-20T09:49:12Z</time>
      </trkpt>
      <trkpt lat="48.35355" lon="2.73028">
        <ele>95.18</ele>
        <time>2021-06-20T09:49:28Z</time>
      </trkpt>
      <trkpt lat="48.3535" lon="2.73029">
        <ele>97.04</ele>
        <time>2021-06-20T09:49:46Z</time>
      </trkpt>
      <trkpt lat="48.35348" lon="2.73027">
        <ele>97.05</ele>
        <time>2021-06-20T09:49:48Z</time>
      </trkpt>
      <trkpt lat="48.35338" lon="2.73031">
        <ele>98.12</ele>
        <time>2021-06-20T09:50:10Z</time>
      </trkpt>
      <trkpt lat="48.35337" lon="2.73054">
        <ele>98.62</ele>
        <time>2021-06-20T09:50:32Z</time>
      </trkpt>
      <trkpt lat="48.35338" lon="2.73064">
        <ele>99.36</ele>
        <time>2021-06-20T09:50:43Z</time>
      </trkpt>
      <trkpt lat="48.35337" lon="2.73069">
        <ele>99.18</ele>
        <time>2021-06-20T09:50:59Z</time>
      </trkpt>
      <trkpt lat="48.35339" lon="2.73081">
        <ele>99.62</ele>
        <time>2021-06-20T09:51:16Z</time>
      </trkpt>
      <trkpt lat="48.35345" lon="2.73102">
        <ele>100.09</ele>
        <time>2021-06-20T09:51:36Z</time>
      </trkpt>
      <trkpt lat="48.35345" lon="2.73108">
        <ele>100.59</ele>
        <time>2021-06-20T09:51:40Z</time>
      </trkpt>
      <trkpt lat="48.35344" lon="2.73115">
        <ele>100.01</ele>
        <time>2021-06-20T09:51:45Z</time>
      </trkpt>
      <trkpt lat="48.35343" lon="2.73123">
        <ele>101.53</ele>
        <time>2021-06-20T09:51:51Z</time>
      </trkpt>
      <trkpt lat="48.35345" lon="2.73138">
        <ele>101.54</ele>
        <time>2021-06-20T09:52:20Z</time>
      </trkpt>
      <trkpt lat="48.35345" lon="2.73164">
        <ele>102</ele>
        <time>2021-06-20T09:52:44Z</time>
      </trkpt>
      <trkpt lat="48.35341" lon="2.73172">
        <ele>103.35</ele>
        <time>2021-06-20T09:52:54Z</time>
      </trkpt>
      <trkpt lat="48.35336" lon="2.73187">
        <ele>105.27</ele>
        <time>2021-06-20T09:53:14Z</time>
      </trkpt>
      <trkpt lat="48.35337" lon="2.73206">
        <ele>106.08</ele>
        <time>2021-06-20T09:53:35Z</time>
      </trkpt>
      <trkpt lat="48.35337" lon="2.73222">
        <ele>107.77</ele>
        <time>2021-06-20T09:53:55Z</time>
      </trkpt>
      <trkpt lat="48.35334" lon="2.73228">
        <ele>108.08</ele>
        <time>2021-06-20T09:54:15Z</time>
      </trkpt>
      <trkpt lat="48.35327" lon="2.73244">
        <ele>108.87</ele>
        <time>2021-06-20T09:54:33Z</time>
      </trkpt>
      <trkpt lat="48.3532" lon="2.73255">
        <ele>111.11</ele>
        <time>2021-06-20T09:54:53Z</time>
      </trkpt>
      <trkpt lat="48.35317" lon="2.7327">
        <ele>112.42</ele>
        <time>2021-06-20T09:55:16Z</time>
      </trkpt>
      <trkpt lat="48.35313" lon="2.73271">
        <ele>112.73</ele>
        <time>2021-06-20T09:55:33Z</time>
      </trkpt>
      <trkpt lat="48.35301" lon="2.7328">
        <ele>112.61</ele>
        <time>2021-06-20T09:55:58Z</time>
      </trkpt>
      <trkpt lat="48.35289" lon="2.73292">
        <ele>111.35</ele>
        <time>2021-06-20T09:56:16Z</time>
      </trkpt>
      <trkpt lat="48.35284" lon="2.73316">
        <ele>111.94</ele>
        <time>2021-06-20T09:56:38Z</time>
      </trkpt>
      <trkpt lat="48.35285" lon="2.73331">
        <ele>111.77</ele>
        <time>2021-06-20T09:56:59Z</time>
      </trkpt>
      <trkpt lat="48.3529" lon="2.73356">
        <ele>113.36</ele>
        <time>2021-06-20T09:57:19Z</time>
      </trkpt>
      <trkpt lat="48.35288" lon="2.73375">
        <ele>115.38</ele>
        <time>2021-06-20T09:57:39Z</time>
      </trkpt>
      <trkpt lat="48.35284" lon="2.73383">
        <ele>115.58</ele>
        <time>2021-06-20T09:58:01Z</time>
      </trkpt>
      <trkpt lat="48.35281" lon="2.73388">
        <ele>115.31</ele>
        <time>2021-06-20T09:58:19Z</time>
      </trkpt>
      <trkpt lat="48.35281" lon="2.73403">
        <ele>116.8</ele>
        <time>2021-06-20T09:58:36Z</time>
      </trkpt>
      <trkpt lat="48.35283" lon="2.73413">
        <ele>117.69</ele>
        <time>2021-06-20T09:58:49Z</time>
      </trkpt>
      <trkpt lat="48.35284" lon="2.73417">
        <ele>118.42</ele>
        <time>2021-06-20T09:58:56Z</time>
      </trkpt>
      <trkpt lat="48.35292" lon="2.73431">
        <ele>118.26</ele>
        <time>2021-06-20T09:59:17Z</time>
      </trkpt>
      <trkpt lat="48.35302" lon="2.73447">
        <ele>117.1</ele>
        <time>2021-06-20T09:59:35Z</time>
      </trkpt>
      <trkpt lat="48.35305" lon="2.7345">
        <ele>116.19</ele>
        <time>2021-06-20T09:59:39Z</time>
      </trkpt>
      <trkpt lat="48.35316" lon="2.73463">
        <ele>117.32</ele>
        <time>2021-06-20T09:59:56Z</time>
      </trkpt>
      <trkpt lat="48.3532" lon="2.73474">
        <ele>119.1</ele>
        <time>2021-06-20T10:00:09Z</time>
      </trkpt>
      <trkpt lat="48.3532" lon="2.73484">
        <ele>120.26</ele>
        <time>2021-06-20T10:00:18Z</time>
      </trkpt>
      <trkpt lat="48.35318" lon="2.73493">
        <ele>123.46</ele>
        <time>2021-06-20T10:00:33Z</time>
      </trkpt>
      <trkpt lat="48.35321" lon="2.73495">
        <ele>121.01</ele>
        <time>2021-06-20T10:00:52Z</time>
      </trkpt>
      <trkpt lat="48.35338" lon="2.73512">
        <ele>119.95</ele>
        <time>2021-06-20T10:11:54Z</time>
      </trkpt>
      <trkpt lat="48.35341" lon="2.73516">
        <ele>123.14</ele>
        <time>2021-06-20T10:34:26Z</time>
      </trkpt>
      <trkpt lat="48.35346" lon="2.73523">
        <ele>121.54</ele>
        <time>2021-06-20T10:34:45Z</time>
      </trkpt>
      <trkpt lat="48.35342" lon="2.73532">
        <ele>122.04</ele>
        <time>2021-06-20T10:35:05Z</time>
      </trkpt>
      <trkpt lat="48.35343" lon="2.73542">
        <ele>119.74</ele>
        <time>2021-06-20T10:35:25Z</time>
      </trkpt>
      <trkpt lat="48.35344" lon="2.73554">
        <ele>118.44</ele>
        <time>2021-06-20T10:35:43Z</time>
      </trkpt>
      <trkpt lat="48.35344" lon="2.73553">
        <ele>118.14</ele>
        <time>2021-06-20T10:36:06Z</time>
      </trkpt>
      <trkpt lat="48.35347" lon="2.73552">
        <ele>117.87</ele>
        <time>2021-06-20T10:36:27Z</time>
      </trkpt>
      <trkpt lat="48.35353" lon="2.7357">
        <ele>114.8</ele>
        <time>2021-06-20T10:36:46Z</time>
      </trkpt>
      <trkpt lat="48.35367" lon="2.73583">
        <ele>115.8</ele>
        <time>2021-06-20T10:37:05Z</time>
      </trkpt>
      <trkpt lat="48.35376" lon="2.73574">
        <ele>118.94</ele>
        <time>2021-06-20T10:37:17Z</time>
      </trkpt>
      <trkpt lat="48.35388" lon="2.73561">
        <ele>120.34</ele>
        <time>2021-06-20T10:37:36Z</time>
      </trkpt>
      <trkpt lat="48.35387" lon="2.73574">
        <ele>122.57</ele>
        <time>2021-06-20T10:37:53Z</time>
      </trkpt>
      <trkpt lat="48.35393" lon="2.73579">
        <ele>123.58</ele>
        <time>2021-06-20T10:38:12Z</time>
      </trkpt>
      <trkpt lat="48.3539" lon="2.73583">
        <ele>124.6</ele>
        <time>2021-06-20T10:38:28Z</time>
      </trkpt>
      <trkpt lat="48.35388" lon="2.73588">
        <ele>124.43</ele>
        <time>2021-06-20T10:38:44Z</time>
      </trkpt>
      <trkpt lat="48.35394" lon="2.73574">
        <ele>124.05</ele>
        <time>2021-06-20T10:39:05Z</time>
      </trkpt>
      <trkpt lat="48.35395" lon="2.73569">
        <ele>124.75</ele>
        <time>2021-06-20T10:39:20Z</time>
      </trkpt>
      <trkpt lat="48.35396" lon="2.73564">
        <ele>124.77</ele>
        <time>2021-06-20T10:39:41Z</time>
      </trkpt>
      <trkpt lat="48.35397" lon="2.73574">
        <ele>124.56</ele>
        <time>2021-06-20T10:40:08Z</time>
      </trkpt>
      <trkpt lat="48.35396" lon="2.73582">
        <ele>124.8</ele>
        <time>2021-06-20T10:40:17Z</time>
      </trkpt>
      <trkpt lat="48.3539" lon="2.73586">
        <ele>123.84</ele>
        <time>2021-06-20T10:40:22Z</time>
      </trkpt>
      <trkpt lat="48.35391" lon="2.73586">
        <ele>125</ele>
        <time>2021-06-20T10:40:48Z</time>
      </trkpt>
      <trkpt lat="48.35388" lon="2.73599">
        <ele>123.45</ele>
        <time>2021-06-20T10:41:07Z</time>
      </trkpt>
      <trkpt lat="48.3539" lon="2.73612">
        <ele>124.78</ele>
        <time>2021-06-20T10:41:26Z</time>
      </trkpt>
      <trkpt lat="48.35398" lon="2.73614">
        <ele>127.99</ele>
        <time>2021-06-20T10:41:42Z</time>
      </trkpt>
      <trkpt lat="48.35405" lon="2.73603">
        <ele>129.79</ele>
        <time>2021-06-20T10:42:00Z</time>
      </trkpt>
      <trkpt lat="48.3541" lon="2.73577">
        <ele>130.52</ele>
        <time>2021-06-20T10:42:21Z</time>
      </trkpt>
      <trkpt lat="48.35414" lon="2.73563">
        <ele>130.03</ele>
        <time>2021-06-20T10:42:39Z</time>
      </trkpt>
      <trkpt lat="48.35415" lon="2.7354">
        <ele>130.14</ele>
        <time>2021-06-20T10:42:55Z</time>
      </trkpt>
      <trkpt lat="48.35414" lon="2.73525">
        <ele>129.91</ele>
        <time>2021-06-20T10:43:07Z</time>
      </trkpt>
      <trkpt lat="48.35413" lon="2.73519">
        <ele>129.53</ele>
        <time>2021-06-20T10:43:11Z</time>
      </trkpt>
      <trkpt lat="48.35411" lon="2.735">
        <ele>129.41</ele>
        <time>2021-06-20T10:43:26Z</time>
      </trkpt>
      <trkpt lat="48.35412" lon="2.7348">
        <ele>129.47</ele>
        <time>2021-06-20T10:43:43Z</time>
      </trkpt>
      <trkpt lat="48.35411" lon="2.73461">
        <ele>128.64</ele>
        <time>2021-06-20T10:44:00Z</time>
      </trkpt>
      <trkpt lat="48.35412" lon="2.73445">
        <ele>129.51</ele>
        <time>2021-06-20T10:44:16Z</time>
      </trkpt>
      <trkpt lat="48.35417" lon="2.73437">
        <ele>128.7</ele>
        <time>2021-06-20T10:44:34Z</time>
      </trkpt>
      <trkpt lat="48.3542" lon="2.7344">
        <ele>129.3</ele>
        <time>2021-06-20T10:44:56Z</time>
      </trkpt>
      <trkpt lat="48.35426" lon="2.73448">
        <ele>128.08</ele>
        <time>2021-06-20T10:45:16Z</time>
      </trkpt>
      <trkpt lat="48.35429" lon="2.73462">
        <ele>127.82</ele>
        <time>2021-06-20T10:45:33Z</time>
      </trkpt>
      <trkpt lat="48.35439" lon="2.73487">
        <ele>127.86</ele>
        <time>2021-06-20T10:45:53Z</time>
      </trkpt>
      <trkpt lat="48.3544" lon="2.73489">
        <ele>128.01</ele>
        <time>2021-06-20T10:45:54Z</time>
      </trkpt>
      <trkpt lat="48.35446" lon="2.73508">
        <ele>127.9</ele>
        <time>2021-06-20T10:46:07Z</time>
      </trkpt>
      <trkpt lat="48.35447" lon="2.73531">
        <ele>128.53</ele>
        <time>2021-06-20T10:46:24Z</time>
      </trkpt>
      <trkpt lat="48.35455" lon="2.7355">
        <ele>129.32</ele>
        <time>2021-06-20T10:46:44Z</time>
      </trkpt>
      <trkpt lat="48.35466" lon="2.73547">
        <ele>128.4</ele>
        <time>2021-06-20T10:46:59Z</time>
      </trkpt>
      <trkpt lat="48.35481" lon="2.73539">
        <ele>126.74</ele>
        <time>2021-06-20T10:47:16Z</time>
      </trkpt>
      <trkpt lat="48.35486" lon="2.73539">
        <ele>125.78</ele>
        <time>2021-06-20T10:47:22Z</time>
      </trkpt>
      <trkpt lat="48.35493" lon="2.73543">
        <ele>125.77</ele>
        <time>2021-06-20T10:47:35Z</time>
      </trkpt>
      <trkpt lat="48.355" lon="2.73539">
        <ele>122.76</ele>
        <time>2021-06-20T10:47:48Z</time>
      </trkpt>
      <trkpt lat="48.35499" lon="2.73526">
        <ele>119.54</ele>
        <time>2021-06-20T10:48:03Z</time>
      </trkpt>
      <trkpt lat="48.35507" lon="2.73517">
        <ele>116.32</ele>
        <time>2021-06-20T10:48:19Z</time>
      </trkpt>
      <trkpt lat="48.35524" lon="2.73518">
        <ele>113.54</ele>
        <time>2021-06-20T10:48:39Z</time>
      </trkpt>
      <trkpt lat="48.35535" lon="2.73515">
        <ele>113.56</ele>
        <time>2021-06-20T10:48:50Z</time>
      </trkpt>
      <trkpt lat="48.35542" lon="2.73512">
        <ele>113.07</ele>
        <time>2021-06-20T10:49:08Z</time>
      </trkpt>
      <trkpt lat="48.35549" lon="2.73501">
        <ele>112.83</ele>
        <time>2021-06-20T10:49:26Z</time>
      </trkpt>
      <trkpt lat="48.35557" lon="2.73479">
        <ele>112.56</ele>
        <time>2021-06-20T10:49:43Z</time>
      </trkpt>
      <trkpt lat="48.3556" lon="2.73474">
        <ele>112.42</ele>
        <time>2021-06-20T10:49:49Z</time>
      </trkpt>
      <trkpt lat="48.35569" lon="2.73454">
        <ele>112.51</ele>
        <time>2021-06-20T10:50:09Z</time>
      </trkpt>
      <trkpt lat="48.35575" lon="2.73451">
        <ele>112.42</ele>
        <time>2021-06-20T10:50:28Z</time>
      </trkpt>
      <trkpt lat="48.35582" lon="2.73442">
        <ele>112.8</ele>
        <time>2021-06-20T10:50:43Z</time>
      </trkpt>
      <trkpt lat="48.35591" lon="2.73442">
        <ele>115.04</ele>
        <time>2021-06-20T10:51:06Z</time>
      </trkpt>
      <trkpt lat="48.35601" lon="2.73427">
        <ele>116.91</ele>
        <time>2021-06-20T10:51:24Z</time>
      </trkpt>
      <trkpt lat="48.35608" lon="2.7341">
        <ele>118.94</ele>
        <time>2021-06-20T10:51:42Z</time>
      </trkpt>
      <trkpt lat="48.35601" lon="2.7341">
        <ele>121.95</ele>
        <time>2021-06-20T10:51:58Z</time>
      </trkpt>
      <trkpt lat="48.35603" lon="2.73397">
        <ele>123.12</ele>
        <time>2021-06-20T10:52:16Z</time>
      </trkpt>
      <trkpt lat="48.35607" lon="2.73379">
        <ele>126.16</ele>
        <time>2021-06-20T10:52:34Z</time>
      </trkpt>
      <trkpt lat="48.35603" lon="2.73381">
        <ele>127.66</ele>
        <time>2021-06-20T10:52:53Z</time>
      </trkpt>
      <trkpt lat="48.35593" lon="2.73388">
        <ele>129.63</ele>
        <time>2021-06-20T10:53:11Z</time>
      </trkpt>
      <trkpt lat="48.35587" lon="2.73387">
        <ele>130.29</ele>
        <time>2021-06-20T10:53:17Z</time>
      </trkpt>
      <trkpt lat="48.35572" lon="2.73385">
        <ele>130.75</ele>
        <time>2021-06-20T10:53:31Z</time>
      </trkpt>
      <trkpt lat="48.35559" lon="2.73379">
        <ele>130.54</ele>
        <time>2021-06-20T10:53:48Z</time>
      </trkpt>
      <trkpt lat="48.35546" lon="2.73365">
        <ele>131.51</ele>
        <time>2021-06-20T10:54:05Z</time>
      </trkpt>
      <trkpt lat="48.35544" lon="2.73344">
        <ele>131.02</ele>
        <time>2021-06-20T10:54:21Z</time>
      </trkpt>
      <trkpt lat="48.35544" lon="2.73331">
        <ele>130.36</ele>
        <time>2021-06-20T10:54:36Z</time>
      </trkpt>
      <trkpt lat="48.35549" lon="2.73331">
        <ele>130.85</ele>
        <time>2021-06-20T10:54:48Z</time>
      </trkpt>
      <trkpt lat="48.35552" lon="2.7333">
        <ele>130.6</ele>
        <time>2021-06-20T10:54:51Z</time>
      </trkpt>
      <trkpt lat="48.35561" lon="2.73316">
        <ele>130.93</ele>
        <time>2021-06-20T10:55:08Z</time>
      </trkpt>
      <trkpt lat="48.35561" lon="2.7331">
        <ele>130.54</ele>
        <time>2021-06-20T10:55:12Z</time>
      </trkpt>
      <trkpt lat="48.35558" lon="2.73286">
        <ele>129.68</ele>
        <time>2021-06-20T10:55:28Z</time>
      </trkpt>
      <trkpt lat="48.35556" lon="2.73277">
        <ele>130.47</ele>
        <time>2021-06-20T10:55:35Z</time>
      </trkpt>
      <trkpt lat="48.35548" lon="2.73258">
        <ele>129.86</ele>
        <time>2021-06-20T10:55:50Z</time>
      </trkpt>
      <trkpt lat="48.35546" lon="2.73253">
        <ele>129.78</ele>
        <time>2021-06-20T10:56:17Z</time>
      </trkpt>
      <trkpt lat="48.35552" lon="2.73248">
        <ele>129.39</ele>
        <time>2021-06-20T10:56:35Z</time>
      </trkpt>
      <trkpt lat="48.35557" lon="2.7324">
        <ele>131.23</ele>
        <time>2021-06-20T10:56:57Z</time>
      </trkpt>
      <trkpt lat="48.35563" lon="2.73221">
        <ele>131.54</ele>
        <time>2021-06-20T10:57:12Z</time>
      </trkpt>
      <trkpt lat="48.35571" lon="2.73209">
        <ele>131.95</ele>
        <time>2021-06-20T10:57:26Z</time>
      </trkpt>
      <trkpt lat="48.35572" lon="2.73199">
        <ele>131.88</ele>
        <time>2021-06-20T10:57:45Z</time>
      </trkpt>
      <trkpt lat="48.35574" lon="2.73193">
        <ele>131.95</ele>
        <time>2021-06-20T10:58:07Z</time>
      </trkpt>
      <trkpt lat="48.35577" lon="2.73181">
        <ele>131.79</ele>
        <time>2021-06-20T10:58:17Z</time>
      </trkpt>
      <trkpt lat="48.35578" lon="2.73172">
        <ele>132.06</ele>
        <time>2021-06-20T10:58:22Z</time>
      </trkpt>
      <trkpt lat="48.3558" lon="2.73163">
        <ele>131.69</ele>
        <time>2021-06-20T10:58:38Z</time>
      </trkpt>
      <trkpt lat="48.3558" lon="2.73166">
        <ele>132.03</ele>
        <time>2021-06-20T10:59:02Z</time>
      </trkpt>
      <trkpt lat="48.35581" lon="2.73166">
        <ele>131.89</ele>
        <time>2021-06-20T10:59:21Z</time>
      </trkpt>
      <trkpt lat="48.35589" lon="2.73152">
        <ele>132.04</ele>
        <time>2021-06-20T10:59:42Z</time>
      </trkpt>
      <trkpt lat="48.35594" lon="2.7313">
        <ele>132.55</ele>
        <time>2021-06-20T10:59:59Z</time>
      </trkpt>
      <trkpt lat="48.35588" lon="2.73117">
        <ele>132.21</ele>
        <time>2021-06-20T11:00:13Z</time>
      </trkpt>
      <trkpt lat="48.35584" lon="2.73102">
        <ele>132.36</ele>
        <time>2021-06-20T11:00:27Z</time>
      </trkpt>
      <trkpt lat="48.35584" lon="2.73098">
        <ele>132.87</ele>
        <time>2021-06-20T11:00:53Z</time>
      </trkpt>
      <trkpt lat="48.35592" lon="2.731">
        <ele>133.28</ele>
        <time>2021-06-20T11:01:13Z</time>
      </trkpt>
      <trkpt lat="48.35606" lon="2.73099">
        <ele>133.9</ele>
        <time>2021-06-20T11:01:30Z</time>
      </trkpt>
      <trkpt lat="48.35608" lon="2.73099">
        <ele>133.65</ele>
        <time>2021-06-20T11:01:32Z</time>
      </trkpt>
      <trkpt lat="48.35613" lon="2.73102">
        <ele>133.31</ele>
        <time>2021-06-20T11:01:37Z</time>
      </trkpt>
      <trkpt lat="48.35626" lon="2.73111">
        <ele>132.53</ele>
        <time>2021-06-20T11:01:50Z</time>
      </trkpt>
      <trkpt lat="48.35628" lon="2.73112">
        <ele>132.97</ele>
        <time>2021-06-20T11:01:52Z</time>
      </trkpt>
      <trkpt lat="48.35632" lon="2.73114">
        <ele>133.07</ele>
        <time>2021-06-20T11:01:56Z</time>
      </trkpt>
      <trkpt lat="48.35644" lon="2.7311">
        <ele>133.63</ele>
        <time>2021-06-20T11:02:09Z</time>
      </trkpt>
      <trkpt lat="48.35658" lon="2.73093">
        <ele>133.94</ele>
        <time>2021-06-20T11:02:27Z</time>
      </trkpt>
      <trkpt lat="48.35657" lon="2.73091">
        <ele>133.74</ele>
        <time>2021-06-20T11:02:45Z</time>
      </trkpt>
      <trkpt lat="48.35658" lon="2.73081">
        <ele>134.18</ele>
        <time>2021-06-20T11:02:53Z</time>
      </trkpt>
      <trkpt lat="48.3566" lon="2.73073">
        <ele>134.55</ele>
        <time>2021-06-20T11:02:59Z</time>
      </trkpt>
      <trkpt lat="48.35667" lon="2.73058">
        <ele>134.37</ele>
        <time>2021-06-20T11:03:11Z</time>
      </trkpt>
      <trkpt lat="48.35672" lon="2.73052">
        <ele>134.11</ele>
        <time>2021-06-20T11:03:23Z</time>
      </trkpt>
      <trkpt lat="48.35681" lon="2.7305">
        <ele>134.11</ele>
        <time>2021-06-20T11:03:38Z</time>
      </trkpt>
      <trkpt lat="48.35688" lon="2.73045">
        <ele>134.1</ele>
        <time>2021-06-20T11:03:53Z</time>
      </trkpt>
      <trkpt lat="48.35692" lon="2.73044">
        <ele>133.86</ele>
        <time>2021-06-20T11:04:04Z</time>
      </trkpt>
      <trkpt lat="48.35697" lon="2.73043">
        <ele>134.14</ele>
        <time>2021-06-20T11:04:08Z</time>
      </trkpt>
      <trkpt lat="48.3571" lon="2.73036">
        <ele>135.04</ele>
        <time>2021-06-20T11:04:21Z</time>
      </trkpt>
      <trkpt lat="48.35713" lon="2.73043">
        <ele>134.81</ele>
        <time>2021-06-20T11:04:26Z</time>
      </trkpt>
      <trkpt lat="48.35708" lon="2.73065">
        <ele>135.07</ele>
        <time>2021-06-20T11:04:43Z</time>
      </trkpt>
      <trkpt lat="48.35698" lon="2.73076">
        <ele>134.96</ele>
        <time>2021-06-20T11:04:55Z</time>
      </trkpt>
      <trkpt lat="48.35694" lon="2.73085">
        <ele>135.02</ele>
        <time>2021-06-20T11:05:11Z</time>
      </trkpt>
      <trkpt lat="48.35691" lon="2.73086">
        <ele>135.35</ele>
        <time>2021-06-20T11:05:20Z</time>
      </trkpt>
      <trkpt lat="48.3569" lon="2.73095">
        <ele>134.28</ele>
        <time>2021-06-20T11:05:35Z</time>
      </trkpt>
      <trkpt lat="48.3569" lon="2.73101">
        <ele>131.85</ele>
        <time>2021-06-20T11:05:56Z</time>
      </trkpt>
      <trkpt lat="48.357" lon="2.73096">
        <ele>130.9</ele>
        <time>2021-06-20T11:06:14Z</time>
      </trkpt>
      <trkpt lat="48.35709" lon="2.73101">
        <ele>129.63</ele>
        <time>2021-06-20T11:06:34Z</time>
      </trkpt>
      <trkpt lat="48.35713" lon="2.73106">
        <ele>128.62</ele>
        <time>2021-06-20T11:06:40Z</time>
      </trkpt>
      <trkpt lat="48.35721" lon="2.73122">
        <ele>128.73</ele>
        <time>2021-06-20T11:06:57Z</time>
      </trkpt>
      <trkpt lat="48.35723" lon="2.73141">
        <ele>128.05</ele>
        <time>2021-06-20T11:07:13Z</time>
      </trkpt>
      <trkpt lat="48.35724" lon="2.73156">
        <ele>126.1</ele>
        <time>2021-06-20T11:07:29Z</time>
      </trkpt>
      <trkpt lat="48.35729" lon="2.73174">
        <ele>123.68</ele>
        <time>2021-06-20T11:07:48Z</time>
      </trkpt>
      <trkpt lat="48.35736" lon="2.73178">
        <ele>120.4</ele>
        <time>2021-06-20T11:08:03Z</time>
      </trkpt>
      <trkpt lat="48.35738" lon="2.73181">
        <ele>119.31</ele>
        <time>2021-06-20T11:08:19Z</time>
      </trkpt>
      <trkpt lat="48.35738" lon="2.73185">
        <ele>118.3</ele>
        <time>2021-06-20T11:08:26Z</time>
      </trkpt>
      <trkpt lat="48.35741" lon="2.73194">
        <ele>115.75</ele>
        <time>2021-06-20T11:08:41Z</time>
      </trkpt>
      <trkpt lat="48.35744" lon="2.73214">
        <ele>113.94</ele>
        <time>2021-06-20T11:08:57Z</time>
      </trkpt>
      <trkpt lat="48.35751" lon="2.7323">
        <ele>112.94</ele>
        <time>2021-06-20T11:09:13Z</time>
      </trkpt>
      <trkpt lat="48.35764" lon="2.73236">
        <ele>114.34</ele>
        <time>2021-06-20T11:09:31Z</time>
      </trkpt>
      <trkpt lat="48.35776" lon="2.73236">
        <ele>112.02</ele>
        <time>2021-06-20T11:09:50Z</time>
      </trkpt>
      <trkpt lat="48.35793" lon="2.73246">
        <ele>109.97</ele>
        <time>2021-06-20T11:10:12Z</time>
      </trkpt>
      <trkpt lat="48.35802" lon="2.73258">
        <ele>110.82</ele>
        <time>2021-06-20T11:10:31Z</time>
      </trkpt>
      <trkpt lat="48.35806" lon="2.73264">
        <ele>108.61</ele>
        <time>2021-06-20T11:10:53Z</time>
      </trkpt>
      <trkpt lat="48.3581" lon="2.73271">
        <ele>107.42</ele>
        <time>2021-06-20T11:11:12Z</time>
      </trkpt>
      <trkpt lat="48.35815" lon="2.73278">
        <ele>106.82</ele>
        <time>2021-06-20T11:11:33Z</time>
      </trkpt>
      <trkpt lat="48.35812" lon="2.73288">
        <ele>105.51</ele>
        <time>2021-06-20T11:11:45Z</time>
      </trkpt>
      <trkpt lat="48.35808" lon="2.73296">
        <ele>104.62</ele>
        <time>2021-06-20T11:12:08Z</time>
      </trkpt>
      <trkpt lat="48.35806" lon="2.7331">
        <ele>102.65</ele>
        <time>2021-06-20T11:12:28Z</time>
      </trkpt>
      <trkpt lat="48.35806" lon="2.73325">
        <ele>101.13</ele>
        <time>2021-06-20T11:12:46Z</time>
      </trkpt>
      <trkpt lat="48.35805" lon="2.73329">
        <ele>101.46</ele>
        <time>2021-06-20T11:12:50Z</time>
      </trkpt>
      <trkpt lat="48.35809" lon="2.73353">
        <ele>99.17</ele>
        <time>2021-06-20T11:13:11Z</time>
      </trkpt>
      <trkpt lat="48.35816" lon="2.73375">
        <ele>98.88</ele>
        <time>2021-06-20T11:13:29Z</time>
      </trkpt>
      <trkpt lat="48.35817" lon="2.73393">
        <ele>101.31</ele>
        <time>2021-06-20T11:13:45Z</time>
      </trkpt>
      <trkpt lat="48.35816" lon="2.73394">
        <ele>101.41</ele>
        <time>2021-06-20T11:13:46Z</time>
      </trkpt>
      <trkpt lat="48.35814" lon="2.73426">
        <ele>104.06</ele>
        <time>2021-06-20T11:14:12Z</time>
      </trkpt>
      <trkpt lat="48.35808" lon="2.73424">
        <ele>107.25</ele>
        <time>2021-06-20T11:14:33Z</time>
      </trkpt>
      <trkpt lat="48.35801" lon="2.73418">
        <ele>109.15</ele>
        <time>2021-06-20T11:14:57Z</time>
      </trkpt>
      <trkpt lat="48.35797" lon="2.73425">
        <ele>112.29</ele>
        <time>2021-06-20T11:15:18Z</time>
      </trkpt>
      <trkpt lat="48.35794" lon="2.73434">
        <ele>113.97</ele>
        <time>2021-06-20T11:15:39Z</time>
      </trkpt>
      <trkpt lat="48.35791" lon="2.73445">
        <ele>114.95</ele>
        <time>2021-06-20T11:15:58Z</time>
      </trkpt>
      <trkpt lat="48.35791" lon="2.7346">
        <ele>114.43</ele>
        <time>2021-06-20T11:16:17Z</time>
      </trkpt>
      <trkpt lat="48.35785" lon="2.73484">
        <ele>116.2</ele>
        <time>2021-06-20T11:16:37Z</time>
      </trkpt>
      <trkpt lat="48.35785" lon="2.73504">
        <ele>117.35</ele>
        <time>2021-06-20T11:16:55Z</time>
      </trkpt>
      <trkpt lat="48.35777" lon="2.73513">
        <ele>119.9</ele>
        <time>2021-06-20T11:17:13Z</time>
      </trkpt>
      <trkpt lat="48.35772" lon="2.73499">
        <ele>120.43</ele>
        <time>2021-06-20T11:17:32Z</time>
      </trkpt>
      <trkpt lat="48.35775" lon="2.73476">
        <ele>120.82</ele>
        <time>2021-06-20T11:17:52Z</time>
      </trkpt>
      <trkpt lat="48.35775" lon="2.73461">
        <ele>122.68</ele>
        <time>2021-06-20T11:18:08Z</time>
      </trkpt>
      <trkpt lat="48.35771" lon="2.73468">
        <ele>124.95</ele>
        <time>2021-06-20T11:18:26Z</time>
      </trkpt>
      <trkpt lat="48.35763" lon="2.73478">
        <ele>125.46</ele>
        <time>2021-06-20T11:18:43Z</time>
      </trkpt>
      <trkpt lat="48.35762" lon="2.73479">
        <ele>128.74</ele>
        <time>2021-06-20T11:18:48Z</time>
      </trkpt>
      <trkpt lat="48.35756" lon="2.73486">
        <ele>130.24</ele>
        <time>2021-06-20T11:19:02Z</time>
      </trkpt>
      <trkpt lat="48.35756" lon="2.73497">
        <ele>130.28</ele>
        <time>2021-06-20T11:19:17Z</time>
      </trkpt>
      <trkpt lat="48.35754" lon="2.73515">
        <ele>131.78</ele>
        <time>2021-06-20T11:19:38Z</time>
      </trkpt>
      <trkpt lat="48.35754" lon="2.73516">
        <ele>132.73</ele>
        <time>2021-06-20T11:19:40Z</time>
      </trkpt>
      <trkpt lat="48.3575" lon="2.73535">
        <ele>131.23</ele>
        <time>2021-06-20T11:20:02Z</time>
      </trkpt>
      <trkpt lat="48.35742" lon="2.7356">
        <ele>133.12</ele>
        <time>2021-06-20T11:20:23Z</time>
      </trkpt>
      <trkpt lat="48.35741" lon="2.73586">
        <ele>133.4</ele>
        <time>2021-06-20T11:20:43Z</time>
      </trkpt>
      <trkpt lat="48.35746" lon="2.73603">
        <ele>130.83</ele>
        <time>2021-06-20T11:21:03Z</time>
      </trkpt>
      <trkpt lat="48.35743" lon="2.73625">
        <ele>130.49</ele>
        <time>2021-06-20T11:21:19Z</time>
      </trkpt>
      <trkpt lat="48.35739" lon="2.73648">
        <ele>131.29</ele>
        <time>2021-06-20T11:21:35Z</time>
      </trkpt>
      <trkpt lat="48.35735" lon="2.7367">
        <ele>133.71</ele>
        <time>2021-06-20T11:21:55Z</time>
      </trkpt>
      <trkpt lat="48.35732" lon="2.7369">
        <ele>131.97</ele>
        <time>2021-06-20T11:22:09Z</time>
      </trkpt>
      <trkpt lat="48.35737" lon="2.73705">
        <ele>130.59</ele>
        <time>2021-06-20T11:22:20Z</time>
      </trkpt>
      <trkpt lat="48.35736" lon="2.73731">
        <ele>128.97</ele>
        <time>2021-06-20T11:22:41Z</time>
      </trkpt>
      <trkpt lat="48.35734" lon="2.73738">
        <ele>128.96</ele>
        <time>2021-06-20T11:22:51Z</time>
      </trkpt>
      <trkpt lat="48.35729" lon="2.73748">
        <ele>127.39</ele>
        <time>2021-06-20T11:23:12Z</time>
      </trkpt>
      <trkpt lat="48.35721" lon="2.73765">
        <ele>128.25</ele>
        <time>2021-06-20T11:23:31Z</time>
      </trkpt>
      <trkpt lat="48.35709" lon="2.7377">
        <ele>128.68</ele>
        <time>2021-06-20T11:23:51Z</time>
      </trkpt>
      <trkpt lat="48.35709" lon="2.73788">
        <ele>126.95</ele>
        <time>2021-06-20T11:24:08Z</time>
      </trkpt>
      <trkpt lat="48.35708" lon="2.73805">
        <ele>126.91</ele>
        <time>2021-06-20T11:24:25Z</time>
      </trkpt>
      <trkpt lat="48.35703" lon="2.73813">
        <ele>128.42</ele>
        <time>2021-06-20T11:24:34Z</time>
      </trkpt>
      <trkpt lat="48.35697" lon="2.73834">
        <ele>127.91</ele>
        <time>2021-06-20T11:24:50Z</time>
      </trkpt>
      <trkpt lat="48.35691" lon="2.73841">
        <ele>126.98</ele>
        <time>2021-06-20T11:25:06Z</time>
      </trkpt>
      <trkpt lat="48.35678" lon="2.73846">
        <ele>128.54</ele>
        <time>2021-06-20T11:25:26Z</time>
      </trkpt>
      <trkpt lat="48.35671" lon="2.73856">
        <ele>129.79</ele>
        <time>2021-06-20T11:25:45Z</time>
      </trkpt>
      <trkpt lat="48.35664" lon="2.73873">
        <ele>128.69</ele>
        <time>2021-06-20T11:26:01Z</time>
      </trkpt>
      <trkpt lat="48.35663" lon="2.73886">
        <ele>127.53</ele>
        <time>2021-06-20T11:26:24Z</time>
      </trkpt>
      <trkpt lat="48.35666" lon="2.73895">
        <ele>125.98</ele>
        <time>2021-06-20T11:26:44Z</time>
      </trkpt>
      <trkpt lat="48.35667" lon="2.739">
        <ele>125.03</ele>
        <time>2021-06-20T11:27:04Z</time>
      </trkpt>
      <trkpt lat="48.35669" lon="2.73897">
        <ele>124.47</ele>
        <time>2021-06-20T11:27:23Z</time>
      </trkpt>
      <trkpt lat="48.35673" lon="2.73894">
        <ele>122.28</ele>
        <time>2021-06-20T11:27:40Z</time>
      </trkpt>
      <trkpt lat="48.35675" lon="2.73904">
        <ele>121.12</ele>
        <time>2021-06-20T11:28:02Z</time>
      </trkpt>
      <trkpt lat="48.35675" lon="2.7391">
        <ele>119.66</ele>
        <time>2021-06-20T11:28:15Z</time>
      </trkpt>
      <trkpt lat="48.35681" lon="2.7392">
        <ele>117.44</ele>
        <time>2021-06-20T11:28:36Z</time>
      </trkpt>
      <trkpt lat="48.35687" lon="2.73922">
        <ele>114.6</ele>
        <time>2021-06-20T11:28:55Z</time>
      </trkpt>
      <trkpt lat="48.35688" lon="2.7392">
        <ele>114.76</ele>
        <time>2021-06-20T11:29:21Z</time>
      </trkpt>
      <trkpt lat="48.35688" lon="2.73917">
        <ele>115.03</ele>
        <time>2021-06-20T11:29:46Z</time>
      </trkpt>
      <trkpt lat="48.35694" lon="2.73912">
        <ele>112.24</ele>
        <time>2021-06-20T11:30:04Z</time>
      </trkpt>
      <trkpt lat="48.35699" lon="2.73913">
        <ele>111.19</ele>
        <time>2021-06-20T11:30:24Z</time>
      </trkpt>
      <trkpt lat="48.35705" lon="2.73916">
        <ele>107.96</ele>
        <time>2021-06-20T11:30:39Z</time>
      </trkpt>
      <trkpt lat="48.35711" lon="2.73911">
        <ele>104.69</ele>
        <time>2021-06-20T11:30:56Z</time>
      </trkpt>
      <trkpt lat="48.35719" lon="2.73911">
        <ele>101.45</ele>
        <time>2021-06-20T11:31:17Z</time>
      </trkpt>
      <trkpt lat="48.3573" lon="2.73911">
        <ele>98.89</ele>
        <time>2021-06-20T11:31:38Z</time>
      </trkpt>
      <trkpt lat="48.3574" lon="2.73913">
        <ele>97.53</ele>
        <time>2021-06-20T11:31:48Z</time>
      </trkpt>
      <trkpt lat="48.35758" lon="2.73918">
        <ele>94.96</ele>
        <time>2021-06-20T11:32:09Z</time>
      </trkpt>
      <trkpt lat="48.35778" lon="2.73922">
        <ele>94.21</ele>
        <time>2021-06-20T11:32:27Z</time>
      </trkpt>
      <trkpt lat="48.35795" lon="2.73928">
        <ele>92.72</ele>
        <time>2021-06-20T11:32:45Z</time>
      </trkpt>
      <trkpt lat="48.3581" lon="2.73935">
        <ele>92.23</ele>
        <time>2021-06-20T11:32:57Z</time>
      </trkpt>
      <trkpt lat="48.35827" lon="2.73937">
        <ele>91.28</ele>
        <time>2021-06-20T11:33:19Z</time>
      </trkpt>
      <trkpt lat="48.35839" lon="2.7394">
        <ele>90.61</ele>
        <time>2021-06-20T11:33:38Z</time>
      </trkpt>
      <trkpt lat="48.35857" lon="2.73946">
        <ele>91.69</ele>
        <time>2021-06-20T11:34:00Z</time>
      </trkpt>
      <trkpt lat="48.35859" lon="2.73947">
        <ele>92.08</ele>
        <time>2021-06-20T11:34:03Z</time>
      </trkpt>
      <trkpt lat="48.35868" lon="2.73949">
        <ele>92.19</ele>
        <time>2021-06-20T11:34:23Z</time>
      </trkpt>
      <trkpt lat="48.35874" lon="2.73951">
        <ele>92</ele>
        <time>2021-06-20T11:34:47Z</time>
      </trkpt>
      <trkpt lat="48.35888" lon="2.73957">
        <ele>93.49</ele>
        <time>2021-06-20T11:35:09Z</time>
      </trkpt>
      <trkpt lat="48.35905" lon="2.73962">
        <ele>94.83</ele>
        <time>2021-06-20T11:35:30Z</time>
      </trkpt>
      <trkpt lat="48.35921" lon="2.7397">
        <ele>95.94</ele>
        <time>2021-06-20T11:35:51Z</time>
      </trkpt>
      <trkpt lat="48.35929" lon="2.73975">
        <ele>96.2</ele>
        <time>2021-06-20T11:36:04Z</time>
      </trkpt>
      <trkpt lat="48.35949" lon="2.73979">
        <ele>97.25</ele>
        <time>2021-06-20T11:36:26Z</time>
      </trkpt>
      <trkpt lat="48.35958" lon="2.73983">
        <ele>98.1</ele>
        <time>2021-06-20T11:36:39Z</time>
      </trkpt>
      <trkpt lat="48.35973" lon="2.73997">
        <ele>100.06</ele>
        <time>2021-06-20T11:37:00Z</time>
      </trkpt>
      <trkpt lat="48.35982" lon="2.73998">
        <ele>100.38</ele>
        <time>2021-06-20T11:37:08Z</time>
      </trkpt>
      <trkpt lat="48.35985" lon="2.73998">
        <ele>100.79</ele>
        <time>2021-06-20T11:37:15Z</time>
      </trkpt>
      <trkpt lat="48.35988" lon="2.74001">
        <ele>100.03</ele>
        <time>2021-06-20T11:37:45Z</time>
      </trkpt>
      <trkpt lat="48.35992" lon="2.74003">
        <ele>99.48</ele>
        <time>2021-06-20T11:38:10Z</time>
      </trkpt>
      <trkpt lat="48.36004" lon="2.74009">
        <ele>100.61</ele>
        <time>2021-06-20T11:38:30Z</time>
      </trkpt>
      <trkpt lat="48.36019" lon="2.74018">
        <ele>102.46</ele>
        <time>2021-06-20T11:38:51Z</time>
      </trkpt>
      <trkpt lat="48.36032" lon="2.74033">
        <ele>103.87</ele>
        <time>2021-06-20T11:39:11Z</time>
      </trkpt>
      <trkpt lat="48.36042" lon="2.74042">
        <ele>105.74</ele>
        <time>2021-06-20T11:39:24Z</time>
      </trkpt>
      <trkpt lat="48.36058" lon="2.74058">
        <ele>107.62</ele>
        <time>2021-06-20T11:39:45Z</time>
      </trkpt>
      <trkpt lat="48.3607" lon="2.74079">
        <ele>109.9</ele>
        <time>2021-06-20T11:40:04Z</time>
      </trkpt>
      <trkpt lat="48.36077" lon="2.74098">
        <ele>111.2</ele>
        <time>2021-06-20T11:40:25Z</time>
      </trkpt>
      <trkpt lat="48.36079" lon="2.74113">
        <ele>112.01</ele>
        <time>2021-06-20T11:40:34Z</time>
      </trkpt>
      <trkpt lat="48.36081" lon="2.74133">
        <ele>113.45</ele>
        <time>2021-06-20T11:40:51Z</time>
      </trkpt>
      <trkpt lat="48.36071" lon="2.74161">
        <ele>115.74</ele>
        <time>2021-06-20T11:41:13Z</time>
      </trkpt>
      <trkpt lat="48.36054" lon="2.74165">
        <ele>117.02</ele>
        <time>2021-06-20T11:41:32Z</time>
      </trkpt>
      <trkpt lat="48.36041" lon="2.74161">
        <ele>118.22</ele>
        <time>2021-06-20T11:41:52Z</time>
      </trkpt>
      <trkpt lat="48.36026" lon="2.7415">
        <ele>119.4</ele>
        <time>2021-06-20T11:42:13Z</time>
      </trkpt>
      <trkpt lat="48.36004" lon="2.74142">
        <ele>120.85</ele>
        <time>2021-06-20T11:42:30Z</time>
      </trkpt>
      <trkpt lat="48.35985" lon="2.74156">
        <ele>122.24</ele>
        <time>2021-06-20T11:42:51Z</time>
      </trkpt>
      <trkpt lat="48.35972" lon="2.74172">
        <ele>123.03</ele>
        <time>2021-06-20T11:43:12Z</time>
      </trkpt>
      <trkpt lat="48.3596" lon="2.74195">
        <ele>123.82</ele>
        <time>2021-06-20T11:43:30Z</time>
      </trkpt>
      <trkpt lat="48.35962" lon="2.74226">
        <ele>125.42</ele>
        <time>2021-06-20T11:43:50Z</time>
      </trkpt>
      <trkpt lat="48.35972" lon="2.74221">
        <ele>127.7</ele>
        <time>2021-06-20T11:44:09Z</time>
      </trkpt>
      <trkpt lat="48.35987" lon="2.74203">
        <ele>128.64</ele>
        <time>2021-06-20T11:44:30Z</time>
      </trkpt>
      <trkpt lat="48.3599" lon="2.74202">
        <ele>129.02</ele>
        <time>2021-06-20T11:44:32Z</time>
      </trkpt>
      <trkpt lat="48.36002" lon="2.74203">
        <ele>128.34</ele>
        <time>2021-06-20T11:44:48Z</time>
      </trkpt>
      <trkpt lat="48.36014" lon="2.74207">
        <ele>129.46</ele>
        <time>2021-06-20T11:45:08Z</time>
      </trkpt>
      <trkpt lat="48.36017" lon="2.74209">
        <ele>129.4</ele>
        <time>2021-06-20T11:45:19Z</time>
      </trkpt>
      <trkpt lat="48.36025" lon="2.74212">
        <ele>128.96</ele>
        <time>2021-06-20T11:45:42Z</time>
      </trkpt>
      <trkpt lat="48.36029" lon="2.74218">
        <ele>129.22</ele>
        <time>2021-06-20T11:45:50Z</time>
      </trkpt>
      <trkpt lat="48.36031" lon="2.74222">
        <ele>129.07</ele>
        <time>2021-06-20T11:45:53Z</time>
      </trkpt>
      <trkpt lat="48.36035" lon="2.74241">
        <ele>129.35</ele>
        <time>2021-06-20T11:46:13Z</time>
      </trkpt>
      <trkpt lat="48.36033" lon="2.74253">
        <ele>128.22</ele>
        <time>2021-06-20T11:46:35Z</time>
      </trkpt>
      <trkpt lat="48.36031" lon="2.74267">
        <ele>127.39</ele>
        <time>2021-06-20T11:46:51Z</time>
      </trkpt>
      <trkpt lat="48.36034" lon="2.74299">
        <ele>126.93</ele>
        <time>2021-06-20T11:47:12Z</time>
      </trkpt>
      <trkpt lat="48.36041" lon="2.74328">
        <ele>127.01</ele>
        <time>2021-06-20T11:47:33Z</time>
      </trkpt>
      <trkpt lat="48.3604" lon="2.74348">
        <ele>127.47</ele>
        <time>2021-06-20T11:47:42Z</time>
      </trkpt>
      <trkpt lat="48.36034" lon="2.74379">
        <ele>126.46</ele>
        <time>2021-06-20T11:47:58Z</time>
      </trkpt>
      <trkpt lat="48.36031" lon="2.74412">
        <ele>126.96</ele>
        <time>2021-06-20T11:48:16Z</time>
      </trkpt>
      <trkpt lat="48.3603" lon="2.74435">
        <ele>126.6</ele>
        <time>2021-06-20T11:48:36Z</time>
      </trkpt>
      <trkpt lat="48.36028" lon="2.74463">
        <ele>126.01</ele>
        <time>2021-06-20T11:48:54Z</time>
      </trkpt>
      <trkpt lat="48.36024" lon="2.74496">
        <ele>125.79</ele>
        <time>2021-06-20T11:49:14Z</time>
      </trkpt>
      <trkpt lat="48.36018" lon="2.74533">
        <ele>124.77</ele>
        <time>2021-06-20T11:49:37Z</time>
      </trkpt>
      <trkpt lat="48.36016" lon="2.74549">
        <ele>125.61</ele>
        <time>2021-06-20T11:49:47Z</time>
      </trkpt>
      <trkpt lat="48.36014" lon="2.74575">
        <ele>125.24</ele>
        <time>2021-06-20T11:50:04Z</time>
      </trkpt>
      <trkpt lat="48.36015" lon="2.74606">
        <ele>125.55</ele>
        <time>2021-06-20T11:50:26Z</time>
      </trkpt>
      <trkpt lat="48.36021" lon="2.74629">
        <ele>125.72</ele>
        <time>2021-06-20T11:50:40Z</time>
      </trkpt>
      <trkpt lat="48.36029" lon="2.7465">
        <ele>125.45</ele>
        <time>2021-06-20T11:50:54Z</time>
      </trkpt>
      <trkpt lat="48.36037" lon="2.74684">
        <ele>125.59</ele>
        <time>2021-06-20T11:51:10Z</time>
      </trkpt>
      <trkpt lat="48.3605" lon="2.74709">
        <ele>124.73</ele>
        <time>2021-06-20T11:51:30Z</time>
      </trkpt>
      <trkpt lat="48.36053" lon="2.74717">
        <ele>124.8</ele>
        <time>2021-06-20T11:51:34Z</time>
      </trkpt>
      <trkpt lat="48.36071" lon="2.74748">
        <ele>124.02</ele>
        <time>2021-06-20T11:51:56Z</time>
      </trkpt>
      <trkpt lat="48.36075" lon="2.74759">
        <ele>124.1</ele>
        <time>2021-06-20T11:52:05Z</time>
      </trkpt>
      <trkpt lat="48.36073" lon="2.74768">
        <ele>123.64</ele>
        <time>2021-06-20T11:52:32Z</time>
      </trkpt>
      <trkpt lat="48.36078" lon="2.74785">
        <ele>123.43</ele>
        <time>2021-06-20T11:52:43Z</time>
      </trkpt>
      <trkpt lat="48.36088" lon="2.74799">
        <ele>124.07</ele>
        <time>2021-06-20T11:52:58Z</time>
      </trkpt>
      <trkpt lat="48.361" lon="2.74828">
        <ele>123.29</ele>
        <time>2021-06-20T11:53:18Z</time>
      </trkpt>
      <trkpt lat="48.36104" lon="2.7485">
        <ele>123.21</ele>
        <time>2021-06-20T11:53:34Z</time>
      </trkpt>
      <trkpt lat="48.36109" lon="2.74885">
        <ele>122.19</ele>
        <time>2021-06-20T11:53:54Z</time>
      </trkpt>
      <trkpt lat="48.36113" lon="2.74918">
        <ele>121.76</ele>
        <time>2021-06-20T11:54:15Z</time>
      </trkpt>
      <trkpt lat="48.36112" lon="2.74925">
        <ele>122.04</ele>
        <time>2021-06-20T11:54:17Z</time>
      </trkpt>
      <trkpt lat="48.36111" lon="2.74933">
        <ele>121.79</ele>
        <time>2021-06-20T11:54:22Z</time>
      </trkpt>
      <trkpt lat="48.36106" lon="2.74953">
        <ele>121.87</ele>
        <time>2021-06-20T11:54:37Z</time>
      </trkpt>
      <trkpt lat="48.36106" lon="2.7496">
        <ele>121.82</ele>
        <time>2021-06-20T11:54:41Z</time>
      </trkpt>
      <trkpt lat="48.36106" lon="2.74969">
        <ele>121.53</ele>
        <time>2021-06-20T11:54:47Z</time>
      </trkpt>
      <trkpt lat="48.36109" lon="2.74989">
        <ele>121.24</ele>
        <time>2021-06-20T11:55:08Z</time>
      </trkpt>
      <trkpt lat="48.36118" lon="2.75">
        <ele>120.5</ele>
        <time>2021-06-20T11:55:26Z</time>
      </trkpt>
      <trkpt lat="48.36126" lon="2.75027">
        <ele>120.58</ele>
        <time>2021-06-20T11:55:45Z</time>
      </trkpt>
      <trkpt lat="48.36125" lon="2.75037">
        <ele>120.52</ele>
        <time>2021-06-20T11:55:50Z</time>
      </trkpt>
      <trkpt lat="48.3612" lon="2.75071">
        <ele>120.22</ele>
        <time>2021-06-20T11:56:09Z</time>
      </trkpt>
      <trkpt lat="48.36117" lon="2.75081">
        <ele>119.73</ele>
        <time>2021-06-20T11:56:31Z</time>
      </trkpt>
      <trkpt lat="48.36117" lon="2.75103">
        <ele>120.26</ele>
        <time>2021-06-20T11:56:48Z</time>
      </trkpt>
      <trkpt lat="48.36116" lon="2.75126">
        <ele>120.52</ele>
        <time>2021-06-20T11:57:03Z</time>
      </trkpt>
      <trkpt lat="48.36116" lon="2.75137">
        <ele>120.24</ele>
        <time>2021-06-20T11:57:21Z</time>
      </trkpt>
      <trkpt lat="48.36114" lon="2.75144">
        <ele>120.26</ele>
        <time>2021-06-20T11:57:49Z</time>
      </trkpt>
      <trkpt lat="48.36113" lon="2.75147">
        <ele>120.46</ele>
        <time>2021-06-20T11:57:50Z</time>
      </trkpt>
      <trkpt lat="48.3611" lon="2.75168">
        <ele>120.83</ele>
        <time>2021-06-20T11:58:05Z</time>
      </trkpt>
      <trkpt lat="48.36109" lon="2.7518">
        <ele>120.97</ele>
        <time>2021-06-20T11:58:29Z</time>
      </trkpt>
      <trkpt lat="48.36105" lon="2.75185">
        <ele>119.82</ele>
        <time>2021-06-20T11:58:33Z</time>
      </trkpt>
      <trkpt lat="48.36095" lon="2.75191">
        <ele>121.38</ele>
        <time>2021-06-20T11:58:49Z</time>
      </trkpt>
      <trkpt lat="48.36094" lon="2.75191">
        <ele>120.99</ele>
        <time>2021-06-20T11:58:50Z</time>
      </trkpt>
      <trkpt lat="48.3608" lon="2.75192">
        <ele>121.61</ele>
        <time>2021-06-20T11:59:04Z</time>
      </trkpt>
      <trkpt lat="48.36076" lon="2.75194">
        <ele>121.44</ele>
        <time>2021-06-20T11:59:08Z</time>
      </trkpt>
      <trkpt lat="48.36069" lon="2.75199">
        <ele>121.49</ele>
        <time>2021-06-20T11:59:14Z</time>
      </trkpt>
      <trkpt lat="48.36066" lon="2.75209">
        <ele>122.05</ele>
        <time>2021-06-20T11:59:20Z</time>
      </trkpt>
      <trkpt lat="48.36066" lon="2.7523">
        <ele>119.46</ele>
        <time>2021-06-20T11:59:35Z</time>
      </trkpt>
      <trkpt lat="48.36067" lon="2.75235">
        <ele>121.73</ele>
        <time>2021-06-20T11:59:39Z</time>
      </trkpt>
      <trkpt lat="48.36065" lon="2.75239">
        <ele>121.55</ele>
        <time>2021-06-20T11:59:49Z</time>
      </trkpt>
      <trkpt lat="48.36068" lon="2.75245">
        <ele>121.5</ele>
        <time>2021-06-20T12:00:01Z</time>
      </trkpt>
      <trkpt lat="48.3608" lon="2.75263">
        <ele>122</ele>
        <time>2021-06-20T12:00:18Z</time>
      </trkpt>
      <trkpt lat="48.36089" lon="2.75273">
        <ele>119.49</ele>
        <time>2021-06-20T12:00:33Z</time>
      </trkpt>
      <trkpt lat="48.36096" lon="2.7528">
        <ele>116.39</ele>
        <time>2021-06-20T12:00:46Z</time>
      </trkpt>
      <trkpt lat="48.36103" lon="2.75279">
        <ele>114.36</ele>
        <time>2021-06-20T12:00:55Z</time>
      </trkpt>
      <trkpt lat="48.3611" lon="2.75292">
        <ele>112.95</ele>
        <time>2021-06-20T12:01:12Z</time>
      </trkpt>
      <trkpt lat="48.36112" lon="2.75294">
        <ele>110.96</ele>
        <time>2021-06-20T12:01:15Z</time>
      </trkpt>
      <trkpt lat="48.36117" lon="2.75304">
        <ele>107.91</ele>
        <time>2021-06-20T12:01:29Z</time>
      </trkpt>
      <trkpt lat="48.36124" lon="2.7533">
        <ele>105.16</ele>
        <time>2021-06-20T12:01:50Z</time>
      </trkpt>
      <trkpt lat="48.36128" lon="2.75346">
        <ele>102.09</ele>
        <time>2021-06-20T12:02:04Z</time>
      </trkpt>
      <trkpt lat="48.36129" lon="2.75359">
        <ele>100.29</ele>
        <time>2021-06-20T12:02:25Z</time>
      </trkpt>
      <trkpt lat="48.36135" lon="2.75383">
        <ele>97.21</ele>
        <time>2021-06-20T12:02:38Z</time>
      </trkpt>
      <trkpt lat="48.3614" lon="2.75403">
        <ele>94.65</ele>
        <time>2021-06-20T12:02:51Z</time>
      </trkpt>
      <trkpt lat="48.36147" lon="2.75426">
        <ele>92.07</ele>
        <time>2021-06-20T12:03:05Z</time>
      </trkpt>
      <trkpt lat="48.36155" lon="2.75444">
        <ele>88.97</ele>
        <time>2021-06-20T12:03:20Z</time>
      </trkpt>
      <trkpt lat="48.36163" lon="2.75479">
        <ele>86.89</ele>
        <time>2021-06-20T12:03:41Z</time>
      </trkpt>
      <trkpt lat="48.3617" lon="2.75516">
        <ele>85.68</ele>
        <time>2021-06-20T12:04:00Z</time>
      </trkpt>
      <trkpt lat="48.36179" lon="2.75536">
        <ele>84.75</ele>
        <time>2021-06-20T12:04:19Z</time>
      </trkpt>
      <trkpt lat="48.36185" lon="2.7556">
        <ele>83.3</ele>
        <time>2021-06-20T12:04:33Z</time>
      </trkpt>
      <trkpt lat="48.36185" lon="2.75568">
        <ele>83.14</ele>
        <time>2021-06-20T12:04:37Z</time>
      </trkpt>
      <trkpt lat="48.36189" lon="2.75583">
        <ele>82.46</ele>
        <time>2021-06-20T12:04:53Z</time>
      </trkpt>
      <trkpt lat="48.36189" lon="2.75594">
        <ele>82.04</ele>
        <time>2021-06-20T12:05:09Z</time>
      </trkpt>
      <trkpt lat="48.36187" lon="2.75594">
        <ele>82.36</ele>
        <time>2021-06-20T12:05:30Z</time>
      </trkpt>
      <trkpt lat="48.36187" lon="2.75596">
        <ele>82.17</ele>
        <time>2021-06-20T12:05:34Z</time>
      </trkpt>
      <trkpt lat="48.36186" lon="2.75601">
        <ele>82.55</ele>
        <time>2021-06-20T12:05:50Z</time>
      </trkpt>
      <trkpt lat="48.36184" lon="2.75598">
        <ele>81.98</ele>
        <time>2021-06-20T12:06:11Z</time>
      </trkpt>
      <trkpt lat="48.36183" lon="2.75595">
        <ele>82.29</ele>
        <time>2021-06-20T12:06:33Z</time>
      </trkpt>
      <trkpt lat="48.36182" lon="2.75593">
        <ele>81.87</ele>
        <time>2021-06-20T12:06:57Z</time>
      </trkpt>
      <trkpt lat="48.36181" lon="2.75596">
        <ele>82.19</ele>
        <time>2021-06-20T12:07:21Z</time>
      </trkpt>
      <trkpt lat="48.36183" lon="2.75603">
        <ele>81.82</ele>
        <time>2021-06-20T12:07:45Z</time>
      </trkpt>
      <trkpt lat="48.36193" lon="2.75602">
        <ele>81.64</ele>
        <time>2021-06-20T12:08:09Z</time>
      </trkpt>
      <trkpt lat="48.36194" lon="2.756">
        <ele>81.9</ele>
        <time>2021-06-20T12:08:33Z</time>
      </trkpt>
      <trkpt lat="48.36173" lon="2.75605">
        <ele>82.15</ele>
        <time>2021-06-20T12:08:52Z</time>
      </trkpt>
      <trkpt lat="48.3616" lon="2.75619">
        <ele>83.8</ele>
        <time>2021-06-20T12:09:09Z</time>
      </trkpt>
      <trkpt lat="48.36149" lon="2.7563">
        <ele>82.74</ele>
        <time>2021-06-20T12:09:31Z</time>
      </trkpt>
      <trkpt lat="48.36134" lon="2.75644">
        <ele>79.77</ele>
        <time>2021-06-20T12:09:53Z</time>
      </trkpt>
      <trkpt lat="48.36129" lon="2.75652">
        <ele>79.22</ele>
        <time>2021-06-20T12:09:58Z</time>
      </trkpt>
      <trkpt lat="48.36114" lon="2.75666">
        <ele>76.37</ele>
        <time>2021-06-20T12:10:18Z</time>
      </trkpt>
      <trkpt lat="48.36097" lon="2.7569">
        <ele>74.38</ele>
        <time>2021-06-20T12:10:36Z</time>
      </trkpt>
      <trkpt lat="48.36076" lon="2.75707">
        <ele>73.52</ele>
        <time>2021-06-20T12:10:56Z</time>
      </trkpt>
      <trkpt lat="48.36053" lon="2.75722">
        <ele>73.05</ele>
        <time>2021-06-20T12:11:18Z</time>
      </trkpt>
      <trkpt lat="48.36036" lon="2.75707">
        <ele>73.05</ele>
        <time>2021-06-20T12:11:41Z</time>
      </trkpt>
      <trkpt lat="48.3602" lon="2.75681">
        <ele>72.59</ele>
        <time>2021-06-20T12:12:02Z</time>
      </trkpt>
      <trkpt lat="48.36003" lon="2.75659">
        <ele>72.68</ele>
        <time>2021-06-20T12:12:22Z</time>
      </trkpt>
      <trkpt lat="48.35988" lon="2.75639">
        <ele>73.2</ele>
        <time>2021-06-20T12:12:42Z</time>
      </trkpt>
      <trkpt lat="48.35971" lon="2.7561">
        <ele>73.16</ele>
        <time>2021-06-20T12:13:03Z</time>
      </trkpt>
      <trkpt lat="48.35954" lon="2.75586">
        <ele>73.67</ele>
        <time>2021-06-20T12:13:22Z</time>
      </trkpt>
      <trkpt lat="48.35937" lon="2.75564">
        <ele>72.94</ele>
        <time>2021-06-20T12:13:40Z</time>
      </trkpt>
      <trkpt lat="48.35923" lon="2.75539">
        <ele>72.38</ele>
        <time>2021-06-20T12:14:00Z</time>
      </trkpt>
      <trkpt lat="48.35911" lon="2.75524">
        <ele>71.06</ele>
        <time>2021-06-20T12:14:21Z</time>
      </trkpt>
      <trkpt lat="48.3591" lon="2.75521">
        <ele>71.04</ele>
        <time>2021-06-20T12:14:23Z</time>
      </trkpt>
      <trkpt lat="48.35906" lon="2.75517">
        <ele>71.28</ele>
        <time>2021-06-20T12:14:28Z</time>
      </trkpt>
      <trkpt lat="48.35888" lon="2.7549">
        <ele>70.69</ele>
        <time>2021-06-20T12:14:48Z</time>
      </trkpt>
      <trkpt lat="48.35873" lon="2.75466">
        <ele>70.63</ele>
        <time>2021-06-20T12:15:04Z</time>
      </trkpt>
      <trkpt lat="48.35861" lon="2.75451">
        <ele>70.49</ele>
        <time>2021-06-20T12:15:23Z</time>
      </trkpt>
      <trkpt lat="48.35849" lon="2.75434">
        <ele>70.78</ele>
        <time>2021-06-20T12:15:41Z</time>
      </trkpt>
      <trkpt lat="48.35844" lon="2.75424">
        <ele>70.76</ele>
        <time>2021-06-20T12:15:53Z</time>
      </trkpt>
      <trkpt lat="48.35838" lon="2.75415">
        <ele>70.59</ele>
        <time>2021-06-20T12:16:01Z</time>
      </trkpt>
      <trkpt lat="48.35819" lon="2.75383">
        <ele>70.43</ele>
        <time>2021-06-20T12:16:21Z</time>
      </trkpt>
      <trkpt lat="48.358" lon="2.75353">
        <ele>70.47</ele>
        <time>2021-06-20T12:16:42Z</time>
      </trkpt>
      <trkpt lat="48.35785" lon="2.75335">
        <ele>70.08</ele>
        <time>2021-06-20T12:16:59Z</time>
      </trkpt>
      <trkpt lat="48.35771" lon="2.75313">
        <ele>69.77</ele>
        <time>2021-06-20T12:17:19Z</time>
      </trkpt>
      <trkpt lat="48.35756" lon="2.75287">
        <ele>69.57</ele>
        <time>2021-06-20T12:17:39Z</time>
      </trkpt>
      <trkpt lat="48.35744" lon="2.75274">
        <ele>68.83</ele>
        <time>2021-06-20T12:17:56Z</time>
      </trkpt>
      <trkpt lat="48.35729" lon="2.75254">
        <ele>67.58</ele>
        <time>2021-06-20T12:18:17Z</time>
      </trkpt>
      <trkpt lat="48.35709" lon="2.75222">
        <ele>66.36</ele>
        <time>2021-06-20T12:18:34Z</time>
      </trkpt>
      <trkpt lat="48.35692" lon="2.75203">
        <ele>67.15</ele>
        <time>2021-06-20T12:18:48Z</time>
      </trkpt>
      <trkpt lat="48.35676" lon="2.75196">
        <ele>66.92</ele>
        <time>2021-06-20T12:19:09Z</time>
      </trkpt>
      <trkpt lat="48.35658" lon="2.75184">
        <ele>67.12</ele>
        <time>2021-06-20T12:19:28Z</time>
      </trkpt>
      <trkpt lat="48.35634" lon="2.75169">
        <ele>67.77</ele>
        <time>2021-06-20T12:19:50Z</time>
      </trkpt>
      <trkpt lat="48.35617" lon="2.75161">
        <ele>69.44</ele>
        <time>2021-06-20T12:20:09Z</time>
      </trkpt>
      <trkpt lat="48.35596" lon="2.75147">
        <ele>70.69</ele>
        <time>2021-06-20T12:20:28Z</time>
      </trkpt>
      <trkpt lat="48.35582" lon="2.75139">
        <ele>73.38</ele>
        <time>2021-06-20T12:20:48Z</time>
      </trkpt>
      <trkpt lat="48.35564" lon="2.75129">
        <ele>74.86</ele>
        <time>2021-06-20T12:21:10Z</time>
      </trkpt>
      <trkpt lat="48.35554" lon="2.75118">
        <ele>76.15</ele>
        <time>2021-06-20T12:21:26Z</time>
      </trkpt>
      <trkpt lat="48.35551" lon="2.75112">
        <ele>77.41</ele>
        <time>2021-06-20T12:21:34Z</time>
      </trkpt>
      <trkpt lat="48.35541" lon="2.75092">
        <ele>79.84</ele>
        <time>2021-06-20T12:21:54Z</time>
      </trkpt>
      <trkpt lat="48.35537" lon="2.75085">
        <ele>80.35</ele>
        <time>2021-06-20T12:21:59Z</time>
      </trkpt>
      <trkpt lat="48.35522" lon="2.75064">
        <ele>82.3</ele>
        <time>2021-06-20T12:22:21Z</time>
      </trkpt>
      <trkpt lat="48.35516" lon="2.7505">
        <ele>84.2</ele>
        <time>2021-06-20T12:22:43Z</time>
      </trkpt>
      <trkpt lat="48.35505" lon="2.75032">
        <ele>87.24</ele>
        <time>2021-06-20T12:23:05Z</time>
      </trkpt>
      <trkpt lat="48.35494" lon="2.75022">
        <ele>88.41</ele>
        <time>2021-06-20T12:23:25Z</time>
      </trkpt>
      <trkpt lat="48.35478" lon="2.75006">
        <ele>89</ele>
        <time>2021-06-20T12:23:46Z</time>
      </trkpt>
      <trkpt lat="48.35467" lon="2.74988">
        <ele>89.49</ele>
        <time>2021-06-20T12:24:03Z</time>
      </trkpt>
      <trkpt lat="48.35466" lon="2.74984">
        <ele>89.54</ele>
        <time>2021-06-20T12:24:06Z</time>
      </trkpt>
      <trkpt lat="48.35464" lon="2.74973">
        <ele>89.64</ele>
        <time>2021-06-20T12:24:31Z</time>
      </trkpt>
      <trkpt lat="48.35455" lon="2.7496">
        <ele>90.62</ele>
        <time>2021-06-20T12:24:51Z</time>
      </trkpt>
      <trkpt lat="48.35443" lon="2.7495">
        <ele>91.92</ele>
        <time>2021-06-20T12:25:10Z</time>
      </trkpt>
      <trkpt lat="48.3543" lon="2.74934">
        <ele>92.74</ele>
        <time>2021-06-20T12:25:27Z</time>
      </trkpt>
      <trkpt lat="48.35429" lon="2.74933">
        <ele>93.25</ele>
        <time>2021-06-20T12:25:29Z</time>
      </trkpt>
      <trkpt lat="48.35428" lon="2.74929">
        <ele>93.48</ele>
        <time>2021-06-20T12:25:33Z</time>
      </trkpt>
      <trkpt lat="48.35417" lon="2.74901">
        <ele>94.78</ele>
        <time>2021-06-20T12:25:53Z</time>
      </trkpt>
      <trkpt lat="48.35409" lon="2.74868">
        <ele>95.63</ele>
        <time>2021-06-20T12:26:17Z</time>
      </trkpt>
      <trkpt lat="48.35395" lon="2.74833">
        <ele>96.43</ele>
        <time>2021-06-20T12:26:38Z</time>
      </trkpt>
      <trkpt lat="48.3538" lon="2.74804">
        <ele>96.68</ele>
        <time>2021-06-20T12:27:02Z</time>
      </trkpt>
      <trkpt lat="48.35374" lon="2.74773">
        <ele>95.13</ele>
        <time>2021-06-20T12:27:25Z</time>
      </trkpt>
      <trkpt lat="48.35371" lon="2.74733">
        <ele>94.49</ele>
        <time>2021-06-20T12:27:47Z</time>
      </trkpt>
      <trkpt lat="48.35368" lon="2.74703">
        <ele>93.75</ele>
        <time>2021-06-20T12:28:08Z</time>
      </trkpt>
      <trkpt lat="48.35369" lon="2.74685">
        <ele>93.73</ele>
        <time>2021-06-20T12:28:21Z</time>
      </trkpt>
      <trkpt lat="48.35369" lon="2.7464">
        <ele>93.72</ele>
        <time>2021-06-20T12:28:42Z</time>
      </trkpt>
      <trkpt lat="48.35369" lon="2.74625">
        <ele>93.59</ele>
        <time>2021-06-20T12:28:51Z</time>
      </trkpt>
      <trkpt lat="48.35373" lon="2.74591">
        <ele>94.23</ele>
        <time>2021-06-20T12:29:11Z</time>
      </trkpt>
      <trkpt lat="48.35379" lon="2.74563">
        <ele>94.52</ele>
        <time>2021-06-20T12:29:30Z</time>
      </trkpt>
      <trkpt lat="48.35375" lon="2.74516">
        <ele>93.78</ele>
        <time>2021-06-20T12:29:52Z</time>
      </trkpt>
      <trkpt lat="48.35374" lon="2.74507">
        <ele>93.44</ele>
        <time>2021-06-20T12:29:56Z</time>
      </trkpt>
      <trkpt lat="48.35375" lon="2.74487">
        <ele>93.39</ele>
        <time>2021-06-20T12:30:14Z</time>
      </trkpt>
      <trkpt lat="48.35379" lon="2.74455">
        <ele>93.42</ele>
        <time>2021-06-20T12:30:38Z</time>
      </trkpt>
      <trkpt lat="48.35375" lon="2.74416">
        <ele>93.49</ele>
        <time>2021-06-20T12:30:57Z</time>
      </trkpt>
      <trkpt lat="48.35363" lon="2.74404">
        <ele>93.62</ele>
        <time>2021-06-20T12:31:16Z</time>
      </trkpt>
      <trkpt lat="48.35351" lon="2.74425">
        <ele>92.88</ele>
        <time>2021-06-20T12:31:35Z</time>
      </trkpt>
      <trkpt lat="48.35338" lon="2.74459">
        <ele>92.27</ele>
        <time>2021-06-20T12:31:53Z</time>
      </trkpt>
      <trkpt lat="48.35336" lon="2.74469">
        <ele>92.57</ele>
        <time>2021-06-20T12:31:58Z</time>
      </trkpt>
      <trkpt lat="48.35329" lon="2.74494">
        <ele>90.6</ele>
        <time>2021-06-20T12:32:13Z</time>
      </trkpt>
      <trkpt lat="48.35324" lon="2.7451">
        <ele>91.22</ele>
        <time>2021-06-20T12:32:22Z</time>
      </trkpt>
      <trkpt lat="48.35315" lon="2.74538">
        <ele>90.29</ele>
        <time>2021-06-20T12:32:39Z</time>
      </trkpt>
      <trkpt lat="48.35312" lon="2.74561">
        <ele>88.72</ele>
        <time>2021-06-20T12:32:59Z</time>
      </trkpt>
      <trkpt lat="48.35301" lon="2.7459">
        <ele>87.58</ele>
        <time>2021-06-20T12:33:18Z</time>
      </trkpt>
      <trkpt lat="48.35292" lon="2.74624">
        <ele>85.78</ele>
        <time>2021-06-20T12:33:38Z</time>
      </trkpt>
      <trkpt lat="48.35282" lon="2.74639">
        <ele>85.27</ele>
        <time>2021-06-20T12:33:47Z</time>
      </trkpt>
      <trkpt lat="48.35264" lon="2.74661">
        <ele>84.25</ele>
        <time>2021-06-20T12:34:07Z</time>
      </trkpt>
      <trkpt lat="48.35246" lon="2.74678">
        <ele>82.8</ele>
        <time>2021-06-20T12:34:28Z</time>
      </trkpt>
      <trkpt lat="48.35236" lon="2.74684">
        <ele>82.57</ele>
        <time>2021-06-20T12:34:38Z</time>
      </trkpt>
      <trkpt lat="48.35213" lon="2.74704">
        <ele>81.37</ele>
        <time>2021-06-20T12:34:58Z</time>
      </trkpt>
      <trkpt lat="48.35195" lon="2.74716">
        <ele>80.64</ele>
        <time>2021-06-20T12:35:16Z</time>
      </trkpt>
      <trkpt lat="48.35171" lon="2.74732">
        <ele>80.4</ele>
        <time>2021-06-20T12:35:36Z</time>
      </trkpt>
      <trkpt lat="48.35148" lon="2.74744">
        <ele>80.04</ele>
        <time>2021-06-20T12:35:56Z</time>
      </trkpt>
      <trkpt lat="48.35127" lon="2.74762">
        <ele>79.5</ele>
        <time>2021-06-20T12:36:16Z</time>
      </trkpt>
      <trkpt lat="48.35104" lon="2.74784">
        <ele>79.24</ele>
        <time>2021-06-20T12:36:38Z</time>
      </trkpt>
      <trkpt lat="48.35081" lon="2.74783">
        <ele>78.53</ele>
        <time>2021-06-20T12:36:59Z</time>
      </trkpt>
      <trkpt lat="48.35059" lon="2.74792">
        <ele>78.23</ele>
        <time>2021-06-20T12:37:19Z</time>
      </trkpt>
      <trkpt lat="48.35035" lon="2.74803">
        <ele>77.91</ele>
        <time>2021-06-20T12:37:38Z</time>
      </trkpt>
      <trkpt lat="48.35018" lon="2.74828">
        <ele>77.24</ele>
        <time>2021-06-20T12:37:58Z</time>
      </trkpt>
      <trkpt lat="48.3501" lon="2.74842">
        <ele>76.91</ele>
        <time>2021-06-20T12:38:12Z</time>
      </trkpt>
      <trkpt lat="48.3501" lon="2.74844">
        <ele>76.72</ele>
        <time>2021-06-20T12:38:13Z</time>
      </trkpt>
      <trkpt lat="48.35009" lon="2.74847">
        <ele>76.76</ele>
        <time>2021-06-20T12:38:15Z</time>
      </trkpt>
      <trkpt lat="48.35006" lon="2.74864">
        <ele>76.82</ele>
        <time>2021-06-20T12:38:31Z</time>
      </trkpt>
      <trkpt lat="48.34995" lon="2.74893">
        <ele>76.24</ele>
        <time>2021-06-20T12:38:52Z</time>
      </trkpt>
      <trkpt lat="48.34991" lon="2.74913">
        <ele>76.02</ele>
        <time>2021-06-20T12:39:07Z</time>
      </trkpt>
      <trkpt lat="48.3498" lon="2.74938">
        <ele>75.43</ele>
        <time>2021-06-20T12:39:24Z</time>
      </trkpt>
      <trkpt lat="48.34971" lon="2.74967">
        <ele>75.58</ele>
        <time>2021-06-20T12:39:45Z</time>
      </trkpt>
      <trkpt lat="48.34961" lon="2.74997">
        <ele>74.12</ele>
        <time>2021-06-20T12:40:05Z</time>
      </trkpt>
      <trkpt lat="48.34952" lon="2.75022">
        <ele>73.56</ele>
        <time>2021-06-20T12:40:20Z</time>
      </trkpt>
      <trkpt lat="48.34943" lon="2.75048">
        <ele>73.39</ele>
        <time>2021-06-20T12:40:40Z</time>
      </trkpt>
      <trkpt lat="48.3493" lon="2.75081">
        <ele>73.95</ele>
        <time>2021-06-20T12:41:03Z</time>
      </trkpt>
      <trkpt lat="48.34926" lon="2.75095">
        <ele>74.81</ele>
        <time>2021-06-20T12:41:18Z</time>
      </trkpt>
      <trkpt lat="48.34911" lon="2.75135">
        <ele>75.7</ele>
        <time>2021-06-20T12:41:40Z</time>
      </trkpt>
      <trkpt lat="48.34901" lon="2.75165">
        <ele>76.46</ele>
        <time>2021-06-20T12:41:59Z</time>
      </trkpt>
      <trkpt lat="48.34892" lon="2.75186">
        <ele>76.93</ele>
        <time>2021-06-20T12:42:14Z</time>
      </trkpt>
      <trkpt lat="48.34882" lon="2.75212">
        <ele>77.64</ele>
        <time>2021-06-20T12:42:29Z</time>
      </trkpt>
      <trkpt lat="48.34876" lon="2.75228">
        <ele>78.52</ele>
        <time>2021-06-20T12:42:44Z</time>
      </trkpt>
      <trkpt lat="48.34864" lon="2.75251">
        <ele>80.24</ele>
        <time>2021-06-20T12:43:04Z</time>
      </trkpt>
      <trkpt lat="48.34852" lon="2.75286">
        <ele>82.49</ele>
        <time>2021-06-20T12:43:27Z</time>
      </trkpt>
      <trkpt lat="48.34845" lon="2.75308">
        <ele>84.16</ele>
        <time>2021-06-20T12:43:43Z</time>
      </trkpt>
      <trkpt lat="48.34837" lon="2.7533">
        <ele>87.03</ele>
        <time>2021-06-20T12:44:04Z</time>
      </trkpt>
      <trkpt lat="48.34836" lon="2.75338">
        <ele>88.22</ele>
        <time>2021-06-20T12:44:12Z</time>
      </trkpt>
      <trkpt lat="48.34829" lon="2.7536">
        <ele>90.85</ele>
        <time>2021-06-20T12:44:33Z</time>
      </trkpt>
      <trkpt lat="48.3482" lon="2.75377">
        <ele>92.96</ele>
        <time>2021-06-20T12:44:51Z</time>
      </trkpt>
      <trkpt lat="48.34808" lon="2.75393">
        <ele>94.94</ele>
        <time>2021-06-20T12:45:09Z</time>
      </trkpt>
      <trkpt lat="48.34807" lon="2.75396">
        <ele>94.7</ele>
        <time>2021-06-20T12:45:15Z</time>
      </trkpt>
      <trkpt lat="48.34801" lon="2.75403">
        <ele>94.64</ele>
        <time>2021-06-20T12:45:30Z</time>
      </trkpt>
      <trkpt lat="48.34797" lon="2.75411">
        <ele>95.13</ele>
        <time>2021-06-20T12:45:51Z</time>
      </trkpt>
      <trkpt lat="48.3479" lon="2.75425">
        <ele>96.15</ele>
        <time>2021-06-20T12:46:10Z</time>
      </trkpt>
      <trkpt lat="48.3478" lon="2.75447">
        <ele>97.19</ele>
        <time>2021-06-20T12:46:31Z</time>
      </trkpt>
      <trkpt lat="48.34772" lon="2.75458">
        <ele>97.82</ele>
        <time>2021-06-20T12:46:43Z</time>
      </trkpt>
      <trkpt lat="48.34758" lon="2.75483">
        <ele>98.27</ele>
        <time>2021-06-20T12:47:05Z</time>
      </trkpt>
      <trkpt lat="48.34738" lon="2.75508">
        <ele>99.31</ele>
        <time>2021-06-20T12:47:24Z</time>
      </trkpt>
      <trkpt lat="48.34727" lon="2.75527">
        <ele>99.18</ele>
        <time>2021-06-20T12:47:44Z</time>
      </trkpt>
      <trkpt lat="48.34708" lon="2.75562">
        <ele>98.85</ele>
        <time>2021-06-20T12:48:07Z</time>
      </trkpt>
      <trkpt lat="48.34691" lon="2.75585">
        <ele>97.86</ele>
        <time>2021-06-20T12:48:26Z</time>
      </trkpt>
      <trkpt lat="48.34675" lon="2.7561">
        <ele>97.23</ele>
        <time>2021-06-20T12:48:46Z</time>
      </trkpt>
      <trkpt lat="48.34672" lon="2.75636">
        <ele>97.54</ele>
        <time>2021-06-20T12:49:04Z</time>
      </trkpt>
      <trkpt lat="48.34676" lon="2.75658">
        <ele>97.5</ele>
        <time>2021-06-20T12:49:19Z</time>
      </trkpt>
      <trkpt lat="48.3468" lon="2.75681">
        <ele>98.03</ele>
        <time>2021-06-20T12:49:35Z</time>
      </trkpt>
      <trkpt lat="48.34682" lon="2.75706">
        <ele>97.33</ele>
        <time>2021-06-20T12:49:55Z</time>
      </trkpt>
      <trkpt lat="48.3468" lon="2.75729">
        <ele>97.56</ele>
        <time>2021-06-20T12:50:13Z</time>
      </trkpt>
      <trkpt lat="48.34677" lon="2.75735">
        <ele>97.27</ele>
        <time>2021-06-20T12:50:16Z</time>
      </trkpt>
      <trkpt lat="48.34675" lon="2.75745">
        <ele>97.4</ele>
        <time>2021-06-20T12:50:21Z</time>
      </trkpt>
      <trkpt lat="48.34678" lon="2.75769">
        <ele>97.6</ele>
        <time>2021-06-20T12:50:35Z</time>
      </trkpt>
      <trkpt lat="48.34674" lon="2.75791">
        <ele>98.03</ele>
        <time>2021-06-20T12:50:51Z</time>
      </trkpt>
      <trkpt lat="48.34669" lon="2.75821">
        <ele>97.87</ele>
        <time>2021-06-20T12:51:10Z</time>
      </trkpt>
      <trkpt lat="48.34667" lon="2.75828">
        <ele>97.53</ele>
        <time>2021-06-20T12:51:14Z</time>
      </trkpt>
      <trkpt lat="48.34668" lon="2.75853">
        <ele>97.59</ele>
        <time>2021-06-20T12:51:27Z</time>
      </trkpt>
      <trkpt lat="48.3467" lon="2.7586">
        <ele>97.19</ele>
        <time>2021-06-20T12:51:32Z</time>
      </trkpt>
      <trkpt lat="48.34674" lon="2.75884">
        <ele>97.29</ele>
        <time>2021-06-20T12:51:49Z</time>
      </trkpt>
      <trkpt lat="48.34673" lon="2.759">
        <ele>96.79</ele>
        <time>2021-06-20T12:52:04Z</time>
      </trkpt>
      <trkpt lat="48.3467" lon="2.75911">
        <ele>96.98</ele>
        <time>2021-06-20T12:52:15Z</time>
      </trkpt>
      <trkpt lat="48.34665" lon="2.75937">
        <ele>97.2</ele>
        <time>2021-06-20T12:52:28Z</time>
      </trkpt>
      <trkpt lat="48.34662" lon="2.75952">
        <ele>97.76</ele>
        <time>2021-06-20T12:52:44Z</time>
      </trkpt>
      <trkpt lat="48.34662" lon="2.75958">
        <ele>98.13</ele>
        <time>2021-06-20T12:52:50Z</time>
      </trkpt>
      <trkpt lat="48.34655" lon="2.75979">
        <ele>98.79</ele>
        <time>2021-06-20T12:53:06Z</time>
      </trkpt>
      <trkpt lat="48.34654" lon="2.75981">
        <ele>98.67</ele>
        <time>2021-06-20T12:53:08Z</time>
      </trkpt>
      <trkpt lat="48.34646" lon="2.76001">
        <ele>98.49</ele>
        <time>2021-06-20T12:53:25Z</time>
      </trkpt>
      <trkpt lat="48.34641" lon="2.76016">
        <ele>98.09</ele>
        <time>2021-06-20T12:53:41Z</time>
      </trkpt>
      <trkpt lat="48.34641" lon="2.76011">
        <ele>98.82</ele>
        <time>2021-06-20T12:54:04Z</time>
      </trkpt>
      <trkpt lat="48.34639" lon="2.7601">
        <ele>95.8</ele>
        <time>2021-06-20T12:54:25Z</time>
      </trkpt>
      <trkpt lat="48.34639" lon="2.7601">
        <ele>101.02</ele>
        <time>2021-06-20T12:54:26Z</time>
      </trkpt>
      <trkpt lat="48.34639" lon="2.76009">
        <ele>101.03</ele>
        <time>2021-06-20T12:54:27Z</time>
      </trkpt>
      <trkpt lat="48.34638" lon="2.76009">
        <ele>98.77</ele>
        <time>2021-06-20T12:54:40Z</time>
      </trkpt>
      <trkpt lat="48.34639" lon="2.76016">
        <ele>98.61</ele>
        <time>2021-06-20T12:55:05Z</time>
      </trkpt>
      <trkpt lat="48.34639" lon="2.76021">
        <ele>98.67</ele>
        <time>2021-06-20T12:55:26Z</time>
      </trkpt>
      <trkpt lat="48.34636" lon="2.76026">
        <ele>98.54</ele>
        <time>2021-06-20T12:55:30Z</time>
      </trkpt>
      <trkpt lat="48.3464" lon="2.76022">
        <ele>99.18</ele>
        <time>2021-06-20T12:55:52Z</time>
      </trkpt>
      <trkpt lat="48.34642" lon="2.76009">
        <ele>99.76</ele>
        <time>2021-06-20T12:56:12Z</time>
      </trkpt>
      <trkpt lat="48.34639" lon="2.76015">
        <ele>99.67</ele>
        <time>2021-06-20T12:56:32Z</time>
      </trkpt>
      <trkpt lat="48.34634" lon="2.75999">
        <ele>99.09</ele>
        <time>2021-06-20T12:56:53Z</time>
      </trkpt>
      <trkpt lat="48.34633" lon="2.75995">
        <ele>98.54</ele>
        <time>2021-06-20T12:56:59Z</time>
      </trkpt>
      <trkpt lat="48.3463" lon="2.7598">
        <ele>96.96</ele>
        <time>2021-06-20T12:57:17Z</time>
      </trkpt>
      <trkpt lat="48.34625" lon="2.75978">
        <ele>93.97</ele>
        <time>2021-06-20T12:57:36Z</time>
      </trkpt>
      <trkpt lat="48.34618" lon="2.75972">
        <ele>91.28</ele>
        <time>2021-06-20T12:57:53Z</time>
      </trkpt>
      <trkpt lat="48.34608" lon="2.75968">
        <ele>88.78</ele>
        <time>2021-06-20T12:58:12Z</time>
      </trkpt>
      <trkpt lat="48.34597" lon="2.75968">
        <ele>85.71</ele>
        <time>2021-06-20T12:58:29Z</time>
      </trkpt>
      <trkpt lat="48.34596" lon="2.75971">
        <ele>85.49</ele>
        <time>2021-06-20T12:58:33Z</time>
      </trkpt>
      <trkpt lat="48.34595" lon="2.75974">
        <ele>85.71</ele>
        <time>2021-06-20T12:58:35Z</time>
      </trkpt>
      <trkpt lat="48.34584" lon="2.75968">
        <ele>83.63</ele>
        <time>2021-06-20T12:58:58Z</time>
      </trkpt>
      <trkpt lat="48.34573" lon="2.7595">
        <ele>82.59</ele>
        <time>2021-06-20T12:59:16Z</time>
      </trkpt>
      <trkpt lat="48.34567" lon="2.75935">
        <ele>82.11</ele>
        <time>2021-06-20T12:59:29Z</time>
      </trkpt>
      <trkpt lat="48.34558" lon="2.75914">
        <ele>80.27</ele>
        <time>2021-06-20T12:59:49Z</time>
      </trkpt>
      <trkpt lat="48.34545" lon="2.7589">
        <ele>79.73</ele>
        <time>2021-06-20T13:00:10Z</time>
      </trkpt>
      <trkpt lat="48.34529" lon="2.75881">
        <ele>79.69</ele>
        <time>2021-06-20T13:00:22Z</time>
      </trkpt>
      <trkpt lat="48.34508" lon="2.75876">
        <ele>79.18</ele>
        <time>2021-06-20T13:00:43Z</time>
      </trkpt>
      <trkpt lat="48.34493" lon="2.75896">
        <ele>77.34</ele>
        <time>2021-06-20T13:01:01Z</time>
      </trkpt>
      <trkpt lat="48.34485" lon="2.75907">
        <ele>76.94</ele>
        <time>2021-06-20T13:01:20Z</time>
      </trkpt>
      <trkpt lat="48.34468" lon="2.75927">
        <ele>75.89</ele>
        <time>2021-06-20T13:01:42Z</time>
      </trkpt>
      <trkpt lat="48.34456" lon="2.75952">
        <ele>75.42</ele>
        <time>2021-06-20T13:01:56Z</time>
      </trkpt>
      <trkpt lat="48.34444" lon="2.75969">
        <ele>73.83</ele>
        <time>2021-06-20T13:02:11Z</time>
      </trkpt>
      <trkpt lat="48.34431" lon="2.75984">
        <ele>72.94</ele>
        <time>2021-06-20T13:02:29Z</time>
      </trkpt>
      <trkpt lat="48.34414" lon="2.76011">
        <ele>72.41</ele>
        <time>2021-06-20T13:02:49Z</time>
      </trkpt>
      <trkpt lat="48.34411" lon="2.76016">
        <ele>71.96</ele>
        <time>2021-06-20T13:02:52Z</time>
      </trkpt>
      <trkpt lat="48.34393" lon="2.76047">
        <ele>70.02</ele>
        <time>2021-06-20T13:03:12Z</time>
      </trkpt>
      <trkpt lat="48.34375" lon="2.76072">
        <ele>70.28</ele>
        <time>2021-06-20T13:03:33Z</time>
      </trkpt>
      <trkpt lat="48.3437" lon="2.76077">
        <ele>70.01</ele>
        <time>2021-06-20T13:03:37Z</time>
      </trkpt>
      <trkpt lat="48.34357" lon="2.76097">
        <ele>69.47</ele>
        <time>2021-06-20T13:03:52Z</time>
      </trkpt>
      <trkpt lat="48.34347" lon="2.76113">
        <ele>68.93</ele>
        <time>2021-06-20T13:04:08Z</time>
      </trkpt>
      <trkpt lat="48.34335" lon="2.76131">
        <ele>68.95</ele>
        <time>2021-06-20T13:04:22Z</time>
      </trkpt>
      <trkpt lat="48.34317" lon="2.76155">
        <ele>68.19</ele>
        <time>2021-06-20T13:04:40Z</time>
      </trkpt>
      <trkpt lat="48.34308" lon="2.76173">
        <ele>67.73</ele>
        <time>2021-06-20T13:04:53Z</time>
      </trkpt>
      <trkpt lat="48.34298" lon="2.76191">
        <ele>66.67</ele>
        <time>2021-06-20T13:05:07Z</time>
      </trkpt>
      <trkpt lat="48.3428" lon="2.76217">
        <ele>65.57</ele>
        <time>2021-06-20T13:05:27Z</time>
      </trkpt>
      <trkpt lat="48.34264" lon="2.76239">
        <ele>64.36</ele>
        <time>2021-06-20T13:05:44Z</time>
      </trkpt>
      <trkpt lat="48.34246" lon="2.76264">
        <ele>63.16</ele>
        <time>2021-06-20T13:06:04Z</time>
      </trkpt>
      <trkpt lat="48.34234" lon="2.76276">
        <ele>62.41</ele>
        <time>2021-06-20T13:06:19Z</time>
      </trkpt>
      <trkpt lat="48.34233" lon="2.76276">
        <ele>61.75</ele>
        <time>2021-06-20T13:06:20Z</time>
      </trkpt>
      <trkpt lat="48.34221" lon="2.76261">
        <ele>61.83</ele>
        <time>2021-06-20T13:06:36Z</time>
      </trkpt>
      <trkpt lat="48.34211" lon="2.76249">
        <ele>61.13</ele>
        <time>2021-06-20T13:06:47Z</time>
      </trkpt>
      <trkpt lat="48.34196" lon="2.7623">
        <ele>63.07</ele>
        <time>2021-06-20T13:07:04Z</time>
      </trkpt>
      <trkpt lat="48.34184" lon="2.76209">
        <ele>63.74</ele>
        <time>2021-06-20T13:07:18Z</time>
      </trkpt>
      <trkpt lat="48.34177" lon="2.76191">
        <ele>65.08</ele>
        <time>2021-06-20T13:07:32Z</time>
      </trkpt>
      <trkpt lat="48.34168" lon="2.76169">
        <ele>65.71</ele>
        <time>2021-06-20T13:07:49Z</time>
      </trkpt>
      <trkpt lat="48.34156" lon="2.76144">
        <ele>66.31</ele>
        <time>2021-06-20T13:08:10Z</time>
      </trkpt>
      <trkpt lat="48.34149" lon="2.76118">
        <ele>66.77</ele>
        <time>2021-06-20T13:08:33Z</time>
      </trkpt>
      <trkpt lat="48.34138" lon="2.76086">
        <ele>66.48</ele>
        <time>2021-06-20T13:08:52Z</time>
      </trkpt>
      <trkpt lat="48.34133" lon="2.76077">
        <ele>66.91</ele>
        <time>2021-06-20T13:08:58Z</time>
      </trkpt>
      <trkpt lat="48.34122" lon="2.76051">
        <ele>66.16</ele>
        <time>2021-06-20T13:09:13Z</time>
      </trkpt>
      <trkpt lat="48.34112" lon="2.7603">
        <ele>65.99</ele>
        <time>2021-06-20T13:09:27Z</time>
      </trkpt>
      <trkpt lat="48.34104" lon="2.7601">
        <ele>65.79</ele>
        <time>2021-06-20T13:09:41Z</time>
      </trkpt>
      <trkpt lat="48.34085" lon="2.75985">
        <ele>65.29</ele>
        <time>2021-06-20T13:09:56Z</time>
      </trkpt>
      <trkpt lat="48.34066" lon="2.75968">
        <ele>64.45</ele>
        <time>2021-06-20T13:10:13Z</time>
      </trkpt>
      <trkpt lat="48.3405" lon="2.75945">
        <ele>63.73</ele>
        <time>2021-06-20T13:10:32Z</time>
      </trkpt>
      <trkpt lat="48.34039" lon="2.75929">
        <ele>62.87</ele>
        <time>2021-06-20T13:10:46Z</time>
      </trkpt>
      <trkpt lat="48.34033" lon="2.75916">
        <ele>62.58</ele>
        <time>2021-06-20T13:10:55Z</time>
      </trkpt>
      <trkpt lat="48.34022" lon="2.75897">
        <ele>61.15</ele>
        <time>2021-06-20T13:11:10Z</time>
      </trkpt>
      <trkpt lat="48.3402" lon="2.75893">
        <ele>60.56</ele>
        <time>2021-06-20T13:11:13Z</time>
      </trkpt>
      <trkpt lat="48.34009" lon="2.75874">
        <ele>59.72</ele>
        <time>2021-06-20T13:11:27Z</time>
      </trkpt>
      <trkpt lat="48.34001" lon="2.75858">
        <ele>58.98</ele>
        <time>2021-06-20T13:11:40Z</time>
      </trkpt>
      <trkpt lat="48.33999" lon="2.75851">
        <ele>58.44</ele>
        <time>2021-06-20T13:11:47Z</time>
      </trkpt>
      <trkpt lat="48.33997" lon="2.75846">
        <ele>58.52</ele>
        <time>2021-06-20T13:11:52Z</time>
      </trkpt>
      <trkpt lat="48.33991" lon="2.75837">
        <ele>58.36</ele>
        <time>2021-06-20T13:12:13Z</time>
      </trkpt>
      <trkpt lat="48.33991" lon="2.75834">
        <ele>58.67</ele>
        <time>2021-06-20T13:12:15Z</time>
      </trkpt>
      <trkpt lat="48.3399" lon="2.75829">
        <ele>58.31</ele>
        <time>2021-06-20T13:12:17Z</time>
      </trkpt>
      <trkpt lat="48.33979" lon="2.7582">
        <ele>57.62</ele>
        <time>2021-06-20T13:12:31Z</time>
      </trkpt>
      <trkpt lat="48.33959" lon="2.75832">
        <ele>57.5</ele>
        <time>2021-06-20T13:12:51Z</time>
      </trkpt>
      <trkpt lat="48.33948" lon="2.75846">
        <ele>56.46</ele>
        <time>2021-06-20T13:13:06Z</time>
      </trkpt>
      <trkpt lat="48.33928" lon="2.7587">
        <ele>55.15</ele>
        <time>2021-06-20T13:13:28Z</time>
      </trkpt>
      <trkpt lat="48.33911" lon="2.75888">
        <ele>54.91</ele>
        <time>2021-06-20T13:13:45Z</time>
      </trkpt>
      <trkpt lat="48.33909" lon="2.75877">
        <ele>54.93</ele>
        <time>2021-06-20T13:13:58Z</time>
      </trkpt>
      <trkpt lat="48.33914" lon="2.75847">
        <ele>56.97</ele>
        <time>2021-06-20T13:14:23Z</time>
      </trkpt>
      <trkpt lat="48.33912" lon="2.75828">
        <ele>57.69</ele>
        <time>2021-06-20T13:14:36Z</time>
      </trkpt>
      <trkpt lat="48.33911" lon="2.75797">
        <ele>59.71</ele>
        <time>2021-06-20T13:15:00Z</time>
      </trkpt>
      <trkpt lat="48.33904" lon="2.75766">
        <ele>61.81</ele>
        <time>2021-06-20T13:15:20Z</time>
      </trkpt>
      <trkpt lat="48.33903" lon="2.7573">
        <ele>62.43</ele>
        <time>2021-06-20T13:15:42Z</time>
      </trkpt>
      <trkpt lat="48.33904" lon="2.75697">
        <ele>63.13</ele>
        <time>2021-06-20T13:16:00Z</time>
      </trkpt>
      <trkpt lat="48.33896" lon="2.75666">
        <ele>63.67</ele>
        <time>2021-06-20T13:16:20Z</time>
      </trkpt>
      <trkpt lat="48.33894" lon="2.75633">
        <ele>63.84</ele>
        <time>2021-06-20T13:16:38Z</time>
      </trkpt>
      <trkpt lat="48.33895" lon="2.75608">
        <ele>64.12</ele>
        <time>2021-06-20T13:16:52Z</time>
      </trkpt>
      <trkpt lat="48.33893" lon="2.75596">
        <ele>64.05</ele>
        <time>2021-06-20T13:17:00Z</time>
      </trkpt>
      <trkpt lat="48.33894" lon="2.75581">
        <ele>64.73</ele>
        <time>2021-06-20T13:17:08Z</time>
      </trkpt>
      <trkpt lat="48.3389" lon="2.75558">
        <ele>64.89</ele>
        <time>2021-06-20T13:17:23Z</time>
      </trkpt>
      <trkpt lat="48.33887" lon="2.75527">
        <ele>65.4</ele>
        <time>2021-06-20T13:17:42Z</time>
      </trkpt>
      <trkpt lat="48.33886" lon="2.75492">
        <ele>65.27</ele>
        <time>2021-06-20T13:18:02Z</time>
      </trkpt>
      <trkpt lat="48.33885" lon="2.7546">
        <ele>65.63</ele>
        <time>2021-06-20T13:18:22Z</time>
      </trkpt>
      <trkpt lat="48.33897" lon="2.75429">
        <ele>66.13</ele>
        <time>2021-06-20T13:18:43Z</time>
      </trkpt>
      <trkpt lat="48.33899" lon="2.754">
        <ele>66.47</ele>
        <time>2021-06-20T13:19:02Z</time>
      </trkpt>
      <trkpt lat="48.339" lon="2.75392">
        <ele>66.36</ele>
        <time>2021-06-20T13:19:07Z</time>
      </trkpt>
      <trkpt lat="48.33913" lon="2.75358">
        <ele>67.25</ele>
        <time>2021-06-20T13:19:28Z</time>
      </trkpt>
      <trkpt lat="48.33924" lon="2.75324">
        <ele>68.18</ele>
        <time>2021-06-20T13:19:50Z</time>
      </trkpt>
      <trkpt lat="48.33936" lon="2.75292">
        <ele>67.79</ele>
        <time>2021-06-20T13:20:05Z</time>
      </trkpt>
      <trkpt lat="48.33941" lon="2.75255">
        <ele>68.06</ele>
        <time>2021-06-20T13:20:24Z</time>
      </trkpt>
      <trkpt lat="48.33945" lon="2.75217">
        <ele>69.25</ele>
        <time>2021-06-20T13:20:44Z</time>
      </trkpt>
      <trkpt lat="48.33943" lon="2.75191">
        <ele>69.36</ele>
        <time>2021-06-20T13:21:05Z</time>
      </trkpt>
      <trkpt lat="48.33941" lon="2.7517">
        <ele>70.22</ele>
        <time>2021-06-20T13:21:18Z</time>
      </trkpt>
      <trkpt lat="48.33946" lon="2.75153">
        <ele>70.28</ele>
        <time>2021-06-20T13:21:30Z</time>
      </trkpt>
      <trkpt lat="48.33958" lon="2.75124">
        <ele>71.25</ele>
        <time>2021-06-20T13:21:50Z</time>
      </trkpt>
      <trkpt lat="48.33957" lon="2.7509">
        <ele>73.37</ele>
        <time>2021-06-20T13:22:11Z</time>
      </trkpt>
      <trkpt lat="48.33966" lon="2.75053">
        <ele>73.53</ele>
        <time>2021-06-20T13:22:30Z</time>
      </trkpt>
      <trkpt lat="48.33968" lon="2.75022">
        <ele>73.92</ele>
        <time>2021-06-20T13:22:50Z</time>
      </trkpt>
      <trkpt lat="48.33964" lon="2.74997">
        <ele>73.55</ele>
        <time>2021-06-20T13:23:07Z</time>
      </trkpt>
      <trkpt lat="48.33958" lon="2.74966">
        <ele>72.85</ele>
        <time>2021-06-20T13:23:26Z</time>
      </trkpt>
      <trkpt lat="48.33953" lon="2.74937">
        <ele>73.04</ele>
        <time>2021-06-20T13:23:43Z</time>
      </trkpt>
      <trkpt lat="48.33948" lon="2.74903">
        <ele>72.65</ele>
        <time>2021-06-20T13:24:02Z</time>
      </trkpt>
      <trkpt lat="48.33947" lon="2.74893">
        <ele>72.7</ele>
        <time>2021-06-20T13:24:07Z</time>
      </trkpt>
      <trkpt lat="48.33946" lon="2.74888">
        <ele>72.88</ele>
        <time>2021-06-20T13:24:09Z</time>
      </trkpt>
      <trkpt lat="48.33942" lon="2.74863">
        <ele>72.49</ele>
        <time>2021-06-20T13:24:25Z</time>
      </trkpt>
      <trkpt lat="48.33942" lon="2.7485">
        <ele>72.77</ele>
        <time>2021-06-20T13:24:32Z</time>
      </trkpt>
      <trkpt lat="48.33942" lon="2.74847">
        <ele>72.84</ele>
        <time>2021-06-20T13:24:34Z</time>
      </trkpt>
      <trkpt lat="48.3394" lon="2.74828">
        <ele>72.24</ele>
        <time>2021-06-20T13:24:43Z</time>
      </trkpt>
      <trkpt lat="48.3394" lon="2.74796">
        <ele>72.21</ele>
        <time>2021-06-20T13:25:00Z</time>
      </trkpt>
      <trkpt lat="48.33941" lon="2.74788">
        <ele>72.59</ele>
        <time>2021-06-20T13:25:05Z</time>
      </trkpt>
      <trkpt lat="48.33941" lon="2.74777">
        <ele>72.34</ele>
        <time>2021-06-20T13:25:11Z</time>
      </trkpt>
      <trkpt lat="48.33939" lon="2.74751">
        <ele>71.74</ele>
        <time>2021-06-20T13:25:25Z</time>
      </trkpt>
      <trkpt lat="48.3394" lon="2.74733">
        <ele>71.85</ele>
        <time>2021-06-20T13:25:36Z</time>
      </trkpt>
      <trkpt lat="48.3394" lon="2.74718">
        <ele>72.39</ele>
        <time>2021-06-20T13:25:45Z</time>
      </trkpt>
      <trkpt lat="48.33939" lon="2.7471">
        <ele>72.38</ele>
        <time>2021-06-20T13:25:49Z</time>
      </trkpt>
      <trkpt lat="48.33937" lon="2.74683">
        <ele>72.26</ele>
        <time>2021-06-20T13:26:10Z</time>
      </trkpt>
      <trkpt lat="48.3394" lon="2.74674">
        <ele>71.69</ele>
        <time>2021-06-20T13:26:33Z</time>
      </trkpt>
      <trkpt lat="48.33941" lon="2.74667">
        <ele>71.98</ele>
        <time>2021-06-20T13:26:53Z</time>
      </trkpt>
      <trkpt lat="48.33941" lon="2.7465">
        <ele>71.7</ele>
        <time>2021-06-20T13:27:13Z</time>
      </trkpt>
      <trkpt lat="48.33939" lon="2.74627">
        <ele>71.47</ele>
        <time>2021-06-20T13:27:36Z</time>
      </trkpt>
      <trkpt lat="48.33938" lon="2.74603">
        <ele>71.04</ele>
        <time>2021-06-20T13:27:56Z</time>
      </trkpt>
      <trkpt lat="48.3394" lon="2.74585">
        <ele>70.41</ele>
        <time>2021-06-20T13:28:11Z</time>
      </trkpt>
      <trkpt lat="48.33939" lon="2.7458">
        <ele>69.8</ele>
        <time>2021-06-20T13:28:35Z</time>
      </trkpt>
      <trkpt lat="48.33936" lon="2.74566">
        <ele>68.98</ele>
        <time>2021-06-20T13:28:46Z</time>
      </trkpt>
      <trkpt lat="48.33928" lon="2.74543">
        <ele>67.45</ele>
        <time>2021-06-20T13:29:03Z</time>
      </trkpt>
      <trkpt lat="48.33915" lon="2.74529">
        <ele>66.91</ele>
        <time>2021-06-20T13:29:20Z</time>
      </trkpt>
      <trkpt lat="48.33914" lon="2.74528">
        <ele>65.28</ele>
        <time>2021-06-20T13:29:23Z</time>
      </trkpt>
      <trkpt lat="48.33904" lon="2.74521">
        <ele>63.57</ele>
        <time>2021-06-20T13:29:40Z</time>
      </trkpt>
      <trkpt lat="48.3389" lon="2.74503">
        <ele>60.54</ele>
        <time>2021-06-20T13:30:01Z</time>
      </trkpt>
      <trkpt lat="48.33877" lon="2.74501">
        <ele>58.71</ele>
        <time>2021-06-20T13:30:17Z</time>
      </trkpt>
      <trkpt lat="48.33862" lon="2.74482">
        <ele>56.89</ele>
        <time>2021-06-20T13:30:33Z</time>
      </trkpt>
      <trkpt lat="48.33858" lon="2.74475">
        <ele>56.81</ele>
        <time>2021-06-20T13:30:53Z</time>
      </trkpt>
      <trkpt lat="48.33853" lon="2.74474">
        <ele>56.24</ele>
        <time>2021-06-20T13:31:03Z</time>
      </trkpt>
      <trkpt lat="48.33837" lon="2.74477">
        <ele>55.99</ele>
        <time>2021-06-20T13:31:18Z</time>
      </trkpt>
      <trkpt lat="48.3382" lon="2.74482">
        <ele>55.88</ele>
        <time>2021-06-20T13:31:35Z</time>
      </trkpt>
      <trkpt lat="48.33807" lon="2.74481">
        <ele>55.96</ele>
        <time>2021-06-20T13:31:48Z</time>
      </trkpt>
      <trkpt lat="48.33795" lon="2.74481">
        <ele>55</ele>
        <time>2021-06-20T13:32:01Z</time>
      </trkpt>
      <trkpt lat="48.33773" lon="2.74479">
        <ele>54.18</ele>
        <time>2021-06-20T13:32:21Z</time>
      </trkpt>
      <trkpt lat="48.3376" lon="2.74473">
        <ele>54.15</ele>
        <time>2021-06-20T13:32:34Z</time>
      </trkpt>
      <trkpt lat="48.33747" lon="2.74469">
        <ele>53.74</ele>
        <time>2021-06-20T13:32:46Z</time>
      </trkpt>
      <trkpt lat="48.33728" lon="2.74459">
        <ele>52.53</ele>
        <time>2021-06-20T13:33:00Z</time>
      </trkpt>
      <trkpt lat="48.33716" lon="2.74456">
        <ele>52.49</ele>
        <time>2021-06-20T13:33:13Z</time>
      </trkpt>
      <trkpt lat="48.33712" lon="2.74457">
        <ele>52.73</ele>
        <time>2021-06-20T13:33:18Z</time>
      </trkpt>
      <trkpt lat="48.33695" lon="2.74455">
        <ele>51.73</ele>
        <time>2021-06-20T13:33:35Z</time>
      </trkpt>
      <trkpt lat="48.33672" lon="2.74448">
        <ele>50.82</ele>
        <time>2021-06-20T13:33:58Z</time>
      </trkpt>
      <trkpt lat="48.3367" lon="2.74448">
        <ele>51.16</ele>
        <time>2021-06-20T13:34:00Z</time>
      </trkpt>
      <trkpt lat="48.33652" lon="2.74438">
        <ele>50.93</ele>
        <time>2021-06-20T13:34:22Z</time>
      </trkpt>
      <trkpt lat="48.33653" lon="2.74431">
        <ele>50.42</ele>
        <time>2021-06-20T13:34:48Z</time>
      </trkpt>
      <trkpt lat="48.33653" lon="2.74431">
        <ele>50.12</ele>
        <time>2021-06-20T13:34:50Z</time>
      </trkpt>
      <trkpt lat="48.33649" lon="2.74418">
        <ele>50.76</ele>
        <time>2021-06-20T13:35:14Z</time>
      </trkpt>
      <trkpt lat="48.33649" lon="2.74416">
        <ele>50.78</ele>
        <time>2021-06-20T13:35:22Z</time>
      </trkpt>
      <trkpt lat="48.33651" lon="2.7441">
        <ele>50.76</ele>
        <time>2021-06-20T13:35:39Z</time>
      </trkpt>
      <trkpt lat="48.3365" lon="2.74398">
        <ele>51.26</ele>
        <time>2021-06-20T13:35:57Z</time>
      </trkpt>
      <trkpt lat="48.33649" lon="2.74386">
        <ele>51.72</ele>
        <time>2021-06-20T13:36:11Z</time>
      </trkpt>
      <trkpt lat="48.3365" lon="2.74382">
        <ele>52.14</ele>
        <time>2021-06-20T13:36:14Z</time>
      </trkpt>
      <trkpt lat="48.33651" lon="2.74374">
        <ele>52.71</ele>
        <time>2021-06-20T13:36:20Z</time>
      </trkpt>
      <trkpt lat="48.33651" lon="2.74369">
        <ele>53.07</ele>
        <time>2021-06-20T13:36:23Z</time>
      </trkpt>
      <trkpt lat="48.33649" lon="2.74358">
        <ele>52.59</ele>
        <time>2021-06-20T13:36:30Z</time>
      </trkpt>
      <trkpt lat="48.33645" lon="2.74346">
        <ele>54.02</ele>
        <time>2021-06-20T13:36:43Z</time>
      </trkpt>
      <trkpt lat="48.33645" lon="2.74344">
        <ele>53.4</ele>
        <time>2021-06-20T13:36:44Z</time>
      </trkpt>
      <trkpt lat="48.33645" lon="2.74339">
        <ele>53.73</ele>
        <time>2021-06-20T13:36:47Z</time>
      </trkpt>
      <trkpt lat="48.3364" lon="2.74323">
        <ele>54.54</ele>
        <time>2021-06-20T13:37:05Z</time>
      </trkpt>
      <trkpt lat="48.3364" lon="2.74311">
        <ele>55.7</ele>
        <time>2021-06-20T13:37:17Z</time>
      </trkpt>
      <trkpt lat="48.33641" lon="2.74307">
        <ele>55.65</ele>
        <time>2021-06-20T13:37:19Z</time>
      </trkpt>
      <trkpt lat="48.33647" lon="2.7428">
        <ele>55.7</ele>
        <time>2021-06-20T13:37:33Z</time>
      </trkpt>
      <trkpt lat="48.33648" lon="2.74275">
        <ele>56.05</ele>
        <time>2021-06-20T13:37:36Z</time>
      </trkpt>
      <trkpt lat="48.33648" lon="2.74267">
        <ele>56.8</ele>
        <time>2021-06-20T13:37:42Z</time>
      </trkpt>
      <trkpt lat="48.33649" lon="2.74254">
        <ele>56.97</ele>
        <time>2021-06-20T13:37:50Z</time>
      </trkpt>
      <trkpt lat="48.33648" lon="2.74231">
        <ele>57.85</ele>
        <time>2021-06-20T13:38:06Z</time>
      </trkpt>
      <trkpt lat="48.33653" lon="2.74202">
        <ele>58.82</ele>
        <time>2021-06-20T13:38:25Z</time>
      </trkpt>
      <trkpt lat="48.33654" lon="2.7417">
        <ele>60.18</ele>
        <time>2021-06-20T13:38:46Z</time>
      </trkpt>
      <trkpt lat="48.3366" lon="2.7414">
        <ele>60.16</ele>
        <time>2021-06-20T13:39:05Z</time>
      </trkpt>
      <trkpt lat="48.33666" lon="2.74106">
        <ele>61.65</ele>
        <time>2021-06-20T13:39:26Z</time>
      </trkpt>
      <trkpt lat="48.33668" lon="2.74076">
        <ele>62.05</ele>
        <time>2021-06-20T13:39:46Z</time>
      </trkpt>
      <trkpt lat="48.33665" lon="2.74043">
        <ele>62.76</ele>
        <time>2021-06-20T13:40:06Z</time>
      </trkpt>
      <trkpt lat="48.3367" lon="2.74013">
        <ele>62.82</ele>
        <time>2021-06-20T13:40:24Z</time>
      </trkpt>
      <trkpt lat="48.33683" lon="2.73987">
        <ele>63.16</ele>
        <time>2021-06-20T13:40:40Z</time>
      </trkpt>
      <trkpt lat="48.33683" lon="2.7396">
        <ele>63.74</ele>
        <time>2021-06-20T13:40:55Z</time>
      </trkpt>
      <trkpt lat="48.33682" lon="2.73934">
        <ele>63.64</ele>
        <time>2021-06-20T13:41:09Z</time>
      </trkpt>
      <trkpt lat="48.33682" lon="2.73916">
        <ele>63.47</ele>
        <time>2021-06-20T13:41:20Z</time>
      </trkpt>
      <trkpt lat="48.33679" lon="2.73905">
        <ele>63.4</ele>
        <time>2021-06-20T13:41:38Z</time>
      </trkpt>
    </trkseg>
  </trk>
</gpx>